PWSweather.com
Personal Weather Stations
Station Observations
ALOHA852
Aloha, OR

Aloha, OR

Lat: 45.476667, Lon: -122.894722

Elevation: 278

Station Type: Ambient Weather

Latest ConditionsUpdated 3:28:00 PM PDT Wednesday, Apr 23, 2014
Currently Today's Max Today's Min Today's Average
Temperature 53.8°F12.1°C 55.9°F13.3°C 43.9°F6.6°C 48.1°F8.9°C
Dew Point 51.8°F11.0°C 53.0°F11.7°C 43.6°F6.4°C 46.7°F8.2°C
Winds 4.9 mph NE7.9 kmh NE 10.5 mph NE16.9 kmh NE - 4.4 mph 7.1 kmh
Wind Gusts 15.2 mph24.5 kmh 18.3 mph29.5 kmh - -
Humidity 93% 99% 76% 95%
Pressure 29.47 in998.0 mb 29.57 in1001.4 mb 29.47 in998.0 mb -
Precipitation - 0.15 in3.8 mm - -
Hour Temp Dew Point Humidity Winds Wind Gusts Pressure Precip Precip Rate Daily Precip Total
03:28 PM 53.8°F12.1°C 51.8°F11.0°C 93% 4.9 mph NE7.9 kmh NE 15.2 mph24.5 kmh 29.47 in998.0 mb 0.01 in0.3 mm 0.00 in/hr0.0 mm/hr 0.15 in3.8 mm
03:27 PM 54.0°F12.2°C 52.0°F11.1°C 93% 5.6 mph NE9.0 kmh NE 15.2 mph24.5 kmh 29.47 in998.0 mb 0.01 in0.3 mm 0.00 in/hr0.0 mm/hr 0.15 in3.8 mm
03:26 PM 54.1°F12.3°C 52.2°F11.2°C 93% 5.4 mph NE8.7 kmh NE 15.2 mph24.5 kmh 29.47 in998.0 mb 0.01 in0.3 mm 0.00 in/hr0.0 mm/hr 0.15 in3.8 mm
03:25 PM 54.1°F12.3°C 52.5°F11.4°C 94% 5.4 mph NE8.7 kmh NE 15.2 mph24.5 kmh 29.47 in998.0 mb 0.01 in0.3 mm 0.00 in/hr0.0 mm/hr 0.15 in3.8 mm
03:24 PM 54.3°F12.4°C 52.3°F11.3°C 93% 5.4 mph NE8.7 kmh NE 15.2 mph24.5 kmh 29.47 in998.0 mb 0.01 in0.3 mm 0.00 in/hr0.0 mm/hr 0.15 in3.8 mm
03:23 PM 54.3°F12.4°C 52.3°F11.3°C 93% 5.2 mph NE8.4 kmh NE 15.2 mph24.5 kmh 29.47 in998.0 mb 0.01 in0.3 mm 0.00 in/hr0.0 mm/hr 0.15 in3.8 mm
03:22 PM 54.3°F12.4°C 52.3°F11.3°C 93% 5.2 mph NE8.4 kmh NE 15.2 mph24.5 kmh 29.47 in998.0 mb 0.01 in0.3 mm 0.00 in/hr0.0 mm/hr 0.15 in3.8 mm
03:21 PM 54.1°F12.3°C 51.9°F11.1°C 92% 5.6 mph NE9.0 kmh NE 15.2 mph24.5 kmh 29.47 in998.0 mb 0.01 in0.3 mm 0.00 in/hr0.0 mm/hr 0.15 in3.8 mm
03:20 PM 54.1°F12.3°C 51.9°F11.1°C 92% 5.7 mph ENE9.2 kmh ENE 15.2 mph24.5 kmh 29.47 in998.0 mb 0.01 in0.3 mm 0.00 in/hr0.0 mm/hr 0.15 in3.8 mm
03:19 PM 54.3°F12.4°C 52.1°F11.2°C 92% 5.4 mph E8.7 kmh E 15.2 mph24.5 kmh 29.47 in998.0 mb 0.01 in0.3 mm 0.00 in/hr0.0 mm/hr 0.15 in3.8 mm
03:18 PM 54.1°F12.3°C 51.6°F10.9°C 91% 5.2 mph E8.4 kmh E 15.2 mph24.5 kmh 29.47 in998.0 mb 0.01 in0.3 mm 0.00 in/hr0.0 mm/hr 0.15 in3.8 mm
03:17 PM 54.3°F12.4°C 52.1°F11.2°C 92% 4.6 mph ENE7.4 kmh ENE 7.6 mph12.2 kmh 29.48 in998.3 mb 0.01 in0.3 mm 0.00 in/hr0.0 mm/hr 0.15 in3.8 mm
03:16 PM 54.3°F12.4°C 52.1°F11.2°C 92% 4.5 mph ENE7.2 kmh ENE 7.6 mph12.2 kmh 29.47 in998.0 mb 0.01 in0.3 mm 0.00 in/hr0.0 mm/hr 0.15 in3.8 mm
03:15 PM 54.5°F12.5°C 52.5°F11.4°C 93% 4.3 mph ENE6.9 kmh ENE 7.6 mph12.2 kmh 29.47 in998.0 mb 0.01 in0.3 mm 0.00 in/hr0.0 mm/hr 0.15 in3.8 mm
03:14 PM 54.3°F12.4°C 52.3°F11.3°C 93% 4.2 mph ENE6.8 kmh ENE 7.6 mph12.2 kmh 29.48 in998.3 mb 0.01 in0.3 mm 0.00 in/hr0.0 mm/hr 0.15 in3.8 mm
03:13 PM 54.1°F12.3°C 52.2°F11.2°C 93% 4.2 mph NE6.8 kmh NE 7.6 mph12.2 kmh 29.48 in998.3 mb 0.01 in0.3 mm 0.00 in/hr0.0 mm/hr 0.15 in3.8 mm
03:12 PM 54.3°F12.4°C 52.3°F11.3°C 93% 4.8 mph NE7.7 kmh NE 9.2 mph14.8 kmh 29.48 in998.3 mb 0.01 in0.3 mm 0.00 in/hr0.0 mm/hr 0.15 in3.8 mm
03:11 PM 54.5°F12.5°C 52.5°F11.4°C 93% 4.8 mph NE7.7 kmh NE 9.2 mph14.8 kmh 29.47 in998.0 mb 0.01 in0.3 mm 0.00 in/hr0.0 mm/hr 0.15 in3.8 mm
03:10 PM 54.3°F12.4°C 52.3°F11.3°C 93% 4.7 mph NE7.6 kmh NE 9.2 mph14.8 kmh 29.47 in998.0 mb 0.01 in0.3 mm 0.00 in/hr0.0 mm/hr 0.15 in3.8 mm
03:09 PM 54.3°F12.4°C 52.3°F11.3°C 93% 4.8 mph NE7.7 kmh NE 9.2 mph14.8 kmh 29.47 in998.0 mb 0.01 in0.3 mm 0.00 in/hr0.0 mm/hr 0.15 in3.8 mm
03:08 PM 54.1°F12.3°C 52.2°F11.2°C 93% 4.8 mph NE7.7 kmh NE 9.2 mph14.8 kmh 29.47 in998.0 mb 0.01 in0.3 mm 0.00 in/hr0.0 mm/hr 0.15 in3.8 mm
03:07 PM 54.1°F12.3°C 52.5°F11.4°C 94% 4.8 mph NE7.7 kmh NE 9.2 mph14.8 kmh 29.48 in998.3 mb 0.01 in0.3 mm 0.00 in/hr0.0 mm/hr 0.15 in3.8 mm
03:06 PM 54.1°F12.3°C 52.2°F11.2°C 93% 5.3 mph NE8.5 kmh NE 9.2 mph14.8 kmh 29.47 in998.0 mb 0.01 in0.3 mm 0.00 in/hr0.0 mm/hr 0.15 in3.8 mm
03:05 PM 53.8°F12.1°C 51.8°F11.0°C 93% 6.1 mph NNE9.8 kmh NNE 10.7 mph17.2 kmh 29.48 in998.3 mb 0.01 in0.3 mm 0.00 in/hr0.0 mm/hr 0.15 in3.8 mm
03:04 PM 53.8°F12.1°C 51.5°F10.8°C 92% 6.8 mph NNE10.9 kmh NNE 11.4 mph18.3 kmh 29.48 in998.3 mb 0.01 in0.3 mm 0.00 in/hr0.0 mm/hr 0.15 in3.8 mm
03:03 PM 53.8°F12.1°C 51.5°F10.8°C 92% 6.8 mph NNE10.9 kmh NNE 11.4 mph18.3 kmh 29.48 in998.3 mb 0.01 in0.3 mm 0.00 in/hr0.0 mm/hr 0.15 in3.8 mm
03:02 PM 54.0°F12.2°C 51.7°F10.9°C 92% 6.9 mph NNE11.1 kmh NNE 11.4 mph18.3 kmh 29.48 in998.3 mb 0.01 in0.3 mm 0.00 in/hr0.0 mm/hr 0.15 in3.8 mm
03:01 PM 54.1°F12.3°C 52.2°F11.2°C 93% 6.7 mph NNE10.8 kmh NNE 11.4 mph18.3 kmh 29.48 in998.3 mb 0.01 in0.3 mm 0.00 in/hr0.0 mm/hr 0.15 in3.8 mm
03:00 PM 53.8°F12.1°C 51.5°F10.8°C 92% 6.7 mph NNE10.8 kmh NNE 11.4 mph18.3 kmh 29.48 in998.3 mb 0.01 in0.3 mm 0.00 in/hr0.0 mm/hr 0.15 in3.8 mm
02:59 PM 54.0°F12.2°C 51.7°F10.9°C 92% 6.6 mph NNE10.6 kmh NNE 11.4 mph18.3 kmh 29.48 in998.3 mb 0.01 in0.3 mm 0.00 in/hr0.0 mm/hr 0.15 in3.8 mm
02:58 PM 53.8°F12.1°C 51.5°F10.8°C 92% 6.7 mph N10.8 kmh N 11.4 mph18.3 kmh 29.48 in998.3 mb 0.01 in0.3 mm 0.00 in/hr0.0 mm/hr 0.15 in3.8 mm
02:57 PM 53.8°F12.1°C 51.5°F10.8°C 92% 6.6 mph N10.6 kmh N 11.4 mph18.3 kmh 29.48 in998.3 mb 0.01 in0.3 mm 0.00 in/hr0.0 mm/hr 0.15 in3.8 mm
02:56 PM 53.8°F12.1°C 51.2°F10.7°C 91% 5.9 mph N9.5 kmh N 11.4 mph18.3 kmh 29.48 in998.3 mb 0.01 in0.3 mm 0.00 in/hr0.0 mm/hr 0.15 in3.8 mm
02:55 PM 54.0°F12.2°C 51.7°F10.9°C 92% 5.3 mph N8.5 kmh N 11.4 mph18.3 kmh 29.48 in998.3 mb 0.01 in0.3 mm 0.00 in/hr0.0 mm/hr 0.15 in3.8 mm
02:54 PM 54.0°F12.2°C 52.0°F11.1°C 93% 5.0 mph N8.0 kmh N 9.8 mph15.8 kmh 29.48 in998.3 mb 0.02 in0.5 mm 0.00 in/hr0.0 mm/hr 0.15 in3.8 mm
02:53 PM 54.1°F12.3°C 51.9°F11.1°C 92% 4.7 mph N7.6 kmh N 9.8 mph15.8 kmh 29.48 in998.3 mb 0.02 in0.5 mm 0.00 in/hr0.0 mm/hr 0.15 in3.8 mm
02:52 PM 54.0°F12.2°C 52.0°F11.1°C 93% 4.2 mph NNW6.8 kmh NNW 9.8 mph15.8 kmh 29.48 in998.3 mb 0.02 in0.5 mm 0.00 in/hr0.0 mm/hr 0.15 in3.8 mm
02:51 PM 54.1°F12.3°C 51.9°F11.1°C 92% 4.1 mph N6.6 kmh N 7.6 mph12.2 kmh 29.48 in998.3 mb 0.02 in0.5 mm 0.00 in/hr0.0 mm/hr 0.15 in3.8 mm
02:50 PM 54.0°F12.2°C 51.7°F10.9°C 92% 4.2 mph NNE6.8 kmh NNE 7.6 mph12.2 kmh 29.48 in998.3 mb 0.02 in0.5 mm 0.00 in/hr0.0 mm/hr 0.15 in3.8 mm
02:49 PM 54.0°F12.2°C 51.7°F10.9°C 92% 4.1 mph NE6.6 kmh NE 7.6 mph12.2 kmh 29.48 in998.3 mb 0.02 in0.5 mm 0.00 in/hr0.0 mm/hr 0.15 in3.8 mm
02:48 PM 54.0°F12.2°C 51.7°F10.9°C 92% 4.2 mph ENE6.8 kmh ENE 7.6 mph12.2 kmh 29.48 in998.3 mb 0.02 in0.5 mm 0.00 in/hr0.0 mm/hr 0.15 in3.8 mm
02:47 PM 54.0°F12.2°C 52.0°F11.1°C 93% 4.0 mph E6.4 kmh E 7.6 mph12.2 kmh 29.49 in998.6 mb 0.02 in0.5 mm 0.00 in/hr0.0 mm/hr 0.15 in3.8 mm
02:46 PM 54.0°F12.2°C 51.7°F10.9°C 92% 4.0 mph E6.4 kmh E 7.6 mph12.2 kmh 29.48 in998.3 mb 0.02 in0.5 mm 0.00 in/hr0.0 mm/hr 0.15 in3.8 mm
02:45 PM 54.0°F12.2°C 51.4°F10.8°C 91% 4.0 mph E6.4 kmh E 7.6 mph12.2 kmh 29.48 in998.3 mb 0.02 in0.5 mm 0.00 in/hr0.0 mm/hr 0.15 in3.8 mm
02:44 PM 53.8°F12.1°C 51.5°F10.8°C 92% 3.6 mph E5.8 kmh E 6.0 mph9.7 kmh 29.48 in998.3 mb 0.02 in0.5 mm 0.00 in/hr0.0 mm/hr 0.15 in3.8 mm
02:43 PM 53.8°F12.1°C 51.5°F10.8°C 92% 3.7 mph E6.0 kmh E 5.4 mph8.7 kmh 29.48 in998.3 mb 0.02 in0.5 mm 0.00 in/hr0.0 mm/hr 0.15 in3.8 mm
02:42 PM 54.0°F12.2°C 51.7°F10.9°C 92% 3.7 mph E6.0 kmh E 5.4 mph8.7 kmh 29.49 in998.6 mb 0.02 in0.5 mm 0.00 in/hr0.0 mm/hr 0.15 in3.8 mm
02:41 PM 54.1°F12.3°C 51.9°F11.1°C 92% 3.8 mph E6.1 kmh E 5.4 mph8.7 kmh 29.48 in998.3 mb 0.02 in0.5 mm 0.00 in/hr0.0 mm/hr 0.15 in3.8 mm
02:40 PM 54.1°F12.3°C 51.9°F11.1°C 92% 3.7 mph E6.0 kmh E 5.4 mph8.7 kmh 29.48 in998.3 mb 0.02 in0.5 mm 0.00 in/hr0.0 mm/hr 0.15 in3.8 mm
02:39 PM 54.0°F12.2°C 51.7°F10.9°C 92% 3.7 mph E6.0 kmh E 9.2 mph14.8 kmh 29.49 in998.6 mb 0.02 in0.5 mm 0.60 in/hr15.2 mm/hr 0.15 in3.8 mm
02:38 PM 54.1°F12.3°C 51.9°F11.1°C 92% 4.1 mph ENE6.6 kmh ENE 9.2 mph14.8 kmh 29.49 in998.6 mb 0.01 in0.3 mm 0.00 in/hr0.0 mm/hr 0.14 in3.6 mm
02:37 PM 54.1°F12.3°C 51.9°F11.1°C 92% 4.4 mph ENE7.1 kmh ENE 9.2 mph14.8 kmh 29.49 in998.6 mb 0.01 in0.3 mm 0.00 in/hr0.0 mm/hr 0.14 in3.6 mm
02:36 PM 54.1°F12.3°C 51.9°F11.1°C 92% 4.6 mph NE7.4 kmh NE 9.2 mph14.8 kmh 29.49 in998.6 mb 0.01 in0.3 mm 0.00 in/hr0.0 mm/hr 0.14 in3.6 mm
02:35 PM 54.1°F12.3°C 51.9°F11.1°C 92% 4.6 mph NE7.4 kmh NE 9.2 mph14.8 kmh 29.49 in998.6 mb 0.01 in0.3 mm 0.00 in/hr0.0 mm/hr 0.14 in3.6 mm
02:34 PM 54.1°F12.3°C 51.9°F11.1°C 92% 5.0 mph NE8.0 kmh NE 9.2 mph14.8 kmh 29.49 in998.6 mb 0.02 in0.5 mm 0.00 in/hr0.0 mm/hr 0.14 in3.6 mm
02:33 PM 54.0°F12.2°C 51.7°F10.9°C 92% 5.1 mph NNE8.2 kmh NNE 9.2 mph14.8 kmh 29.49 in998.6 mb 0.02 in0.5 mm 0.00 in/hr0.0 mm/hr 0.14 in3.6 mm
02:32 PM 54.1°F12.3°C 51.9°F11.1°C 92% 5.8 mph N9.3 kmh N 10.7 mph17.2 kmh 29.49 in998.6 mb 0.02 in0.5 mm 0.00 in/hr0.0 mm/hr 0.14 in3.6 mm
02:31 PM 54.1°F12.3°C 51.9°F11.1°C 92% 5.7 mph NNE9.2 kmh NNE 10.7 mph17.2 kmh 29.49 in998.6 mb 0.02 in0.5 mm 0.00 in/hr0.0 mm/hr 0.14 in3.6 mm
02:30 PM 54.3°F12.4°C 52.1°F11.2°C 92% 5.5 mph NNE8.9 kmh NNE 10.7 mph17.2 kmh 29.49 in998.6 mb 0.02 in0.5 mm 0.00 in/hr0.0 mm/hr 0.14 in3.6 mm
02:29 PM 54.3°F12.4°C 51.8°F11.0°C 91% 5.3 mph NNE8.5 kmh NNE 10.7 mph17.2 kmh 29.49 in998.6 mb 0.02 in0.5 mm 0.00 in/hr0.0 mm/hr 0.14 in3.6 mm
02:28 PM 54.7°F12.6°C 52.4°F11.3°C 92% 4.6 mph NNE7.4 kmh NNE 10.7 mph17.2 kmh 29.50 in999.0 mb 0.02 in0.5 mm 0.00 in/hr0.0 mm/hr 0.14 in3.6 mm
02:27 PM 54.5°F12.5°C 52.2°F11.2°C 92% 4.3 mph N6.9 kmh N 10.7 mph17.2 kmh 29.49 in998.6 mb 0.02 in0.5 mm 0.00 in/hr0.0 mm/hr 0.14 in3.6 mm
02:26 PM 54.3°F12.4°C 51.8°F11.0°C 91% 4.1 mph N6.6 kmh N 10.7 mph17.2 kmh 29.49 in998.6 mb 0.02 in0.5 mm 0.00 in/hr0.0 mm/hr 0.14 in3.6 mm
02:25 PM 54.3°F12.4°C 51.8°F11.0°C 91% 3.9 mph N6.3 kmh N 10.7 mph17.2 kmh 29.49 in998.6 mb 0.02 in0.5 mm 0.00 in/hr0.0 mm/hr 0.14 in3.6 mm
02:24 PM 54.1°F12.3°C 51.6°F10.9°C 91% 3.6 mph NNE5.8 kmh NNE 10.7 mph17.2 kmh 29.49 in998.6 mb 0.02 in0.5 mm 0.00 in/hr0.0 mm/hr 0.14 in3.6 mm
02:23 PM 54.3°F12.4°C 51.5°F10.8°C 90% 3.4 mph NNE5.5 kmh NNE 10.7 mph17.2 kmh 29.49 in998.6 mb 0.02 in0.5 mm 0.00 in/hr0.0 mm/hr 0.14 in3.6 mm
02:22 PM 54.5°F12.5°C 52.5°F11.4°C 93% 2.6 mph NE4.2 kmh NE 4.5 mph7.2 kmh 29.50 in999.0 mb 0.02 in0.5 mm 0.00 in/hr0.0 mm/hr 0.14 in3.6 mm
02:21 PM 54.5°F12.5°C 52.5°F11.4°C 93% 2.6 mph NE4.2 kmh NE 3.8 mph6.1 kmh 29.49 in998.6 mb 0.02 in0.5 mm 0.00 in/hr0.0 mm/hr 0.14 in3.6 mm
02:20 PM 54.3°F12.4°C 52.3°F11.3°C 93% 3.0 mph NE4.8 kmh NE 6.0 mph9.7 kmh 29.50 in999.0 mb 0.02 in0.5 mm 0.00 in/hr0.0 mm/hr 0.14 in3.6 mm
02:19 PM 54.7°F12.6°C 53.0°F11.7°C 94% 3.6 mph NE5.8 kmh NE 8.3 mph13.4 kmh 29.49 in998.6 mb 0.02 in0.5 mm 0.00 in/hr0.0 mm/hr 0.14 in3.6 mm
02:18 PM 54.1°F12.3°C 52.2°F11.2°C 93% 3.7 mph NE6.0 kmh NE 8.3 mph13.4 kmh 29.50 in999.0 mb 0.02 in0.5 mm 0.00 in/hr0.0 mm/hr 0.14 in3.6 mm
02:17 PM 54.1°F12.3°C 52.2°F11.2°C 93% 3.7 mph NE6.0 kmh NE 8.3 mph13.4 kmh 29.50 in999.0 mb 0.02 in0.5 mm 0.00 in/hr0.0 mm/hr 0.14 in3.6 mm
02:16 PM 54.3°F12.4°C 52.3°F11.3°C 93% 3.7 mph NE6.0 kmh NE 8.3 mph13.4 kmh 29.49 in998.6 mb 0.02 in0.5 mm 0.00 in/hr0.0 mm/hr 0.14 in3.6 mm
02:15 PM 54.1°F12.3°C 51.9°F11.1°C 92% 3.8 mph NE6.1 kmh NE 8.3 mph13.4 kmh 29.50 in999.0 mb 0.02 in0.5 mm 0.00 in/hr0.0 mm/hr 0.14 in3.6 mm
02:14 PM 54.1°F12.3°C 51.9°F11.1°C 92% 3.7 mph NNE6.0 kmh NNE 8.3 mph13.4 kmh 29.50 in999.0 mb 0.02 in0.5 mm 0.00 in/hr0.0 mm/hr 0.14 in3.6 mm
02:13 PM 54.0°F12.2°C 51.7°F10.9°C 92% 3.4 mph NE5.5 kmh NE 8.3 mph13.4 kmh 29.50 in999.0 mb 0.02 in0.5 mm 0.00 in/hr0.0 mm/hr 0.14 in3.6 mm
02:12 PM 54.1°F12.3°C 51.9°F11.1°C 92% 3.3 mph NE5.3 kmh NE 8.3 mph13.4 kmh 29.49 in998.6 mb 0.02 in0.5 mm 0.00 in/hr0.0 mm/hr 0.14 in3.6 mm
02:11 PM 54.1°F12.3°C 51.9°F11.1°C 92% 3.1 mph NE5.0 kmh NE 8.3 mph13.4 kmh 29.49 in998.6 mb 0.02 in0.5 mm 0.00 in/hr0.0 mm/hr 0.14 in3.6 mm
02:10 PM 54.0°F12.2°C 51.7°F10.9°C 92% 2.8 mph NE4.5 kmh NE 8.3 mph13.4 kmh 29.50 in999.0 mb 0.02 in0.5 mm 0.00 in/hr0.0 mm/hr 0.14 in3.6 mm
02:09 PM 54.3°F12.4°C 52.3°F11.3°C 93% 2.3 mph NE3.7 kmh NE 4.5 mph7.2 kmh 29.49 in998.6 mb 0.02 in0.5 mm 0.00 in/hr0.0 mm/hr 0.14 in3.6 mm
02:08 PM 54.1°F12.3°C 52.5°F11.4°C 94% 2.3 mph E3.7 kmh E 3.8 mph6.1 kmh 29.50 in999.0 mb 0.02 in0.5 mm 0.00 in/hr0.0 mm/hr 0.14 in3.6 mm
02:07 PM 54.1°F12.3°C 52.7°F11.5°C 95% 2.6 mph NE4.2 kmh NE 6.0 mph9.7 kmh 29.49 in998.6 mb 0.02 in0.5 mm 0.00 in/hr0.0 mm/hr 0.14 in3.6 mm
02:06 PM 54.1°F12.3°C 52.7°F11.5°C 95% 2.8 mph NE4.5 kmh NE 6.0 mph9.7 kmh 29.50 in999.0 mb 0.02 in0.5 mm 0.00 in/hr0.0 mm/hr 0.14 in3.6 mm
02:05 PM 53.8°F12.1°C 52.1°F11.2°C 94% 2.9 mph ENE4.7 kmh ENE 6.0 mph9.7 kmh 29.50 in999.0 mb 0.02 in0.5 mm 0.00 in/hr0.0 mm/hr 0.14 in3.6 mm
02:04 PM 53.8°F12.1°C 52.4°F11.3°C 95% 3.0 mph NE4.8 kmh NE 6.0 mph9.7 kmh 29.50 in999.0 mb 0.02 in0.5 mm 0.00 in/hr0.0 mm/hr 0.14 in3.6 mm
02:03 PM 53.6°F12.0°C 51.9°F11.1°C 94% 3.2 mph NE5.1 kmh NE 6.0 mph9.7 kmh 29.50 in999.0 mb 0.02 in0.5 mm 0.00 in/hr0.0 mm/hr 0.14 in3.6 mm
02:02 PM 53.6°F12.0°C 51.9°F11.1°C 94% 3.3 mph NE5.3 kmh NE 6.0 mph9.7 kmh 29.50 in999.0 mb 0.02 in0.5 mm 0.00 in/hr0.0 mm/hr 0.14 in3.6 mm
02:01 PM 53.2°F11.8°C 51.6°F10.9°C 94% 3.3 mph NE5.3 kmh NE 6.0 mph9.7 kmh 29.50 in999.0 mb 0.02 in0.5 mm 0.00 in/hr0.0 mm/hr 0.14 in3.6 mm
02:00 PM 53.2°F11.8°C 51.6°F10.9°C 94% 3.4 mph NE5.5 kmh NE 6.0 mph9.7 kmh 29.49 in998.6 mb 0.02 in0.5 mm 0.00 in/hr0.0 mm/hr 0.14 in3.6 mm
01:59 PM 53.2°F11.8°C 51.3°F10.7°C 93% 3.5 mph NE5.6 kmh NE 6.0 mph9.7 kmh 29.49 in998.6 mb 0.02 in0.5 mm 0.00 in/hr0.0 mm/hr 0.14 in3.6 mm
01:58 PM 53.1°F11.7°C 51.1°F10.6°C 93% 3.5 mph NE5.6 kmh NE 6.0 mph9.7 kmh 29.50 in999.0 mb 0.02 in0.5 mm 0.00 in/hr0.0 mm/hr 0.14 in3.6 mm
01:57 PM 53.1°F11.7°C 51.4°F10.8°C 94% 3.1 mph NNE5.0 kmh NNE 5.4 mph8.7 kmh 29.49 in998.6 mb 0.02 in0.5 mm 0.00 in/hr0.0 mm/hr 0.14 in3.6 mm
01:56 PM 53.1°F11.7°C 51.4°F10.8°C 94% 3.3 mph NNE5.3 kmh NNE 6.0 mph9.7 kmh 29.50 in999.0 mb 0.02 in0.5 mm 0.60 in/hr15.2 mm/hr 0.14 in3.6 mm
01:55 PM 53.1°F11.7°C 51.4°F10.8°C 94% 3.4 mph NE5.5 kmh NE 6.9 mph11.1 kmh 29.50 in999.0 mb 0.01 in0.3 mm 0.00 in/hr0.0 mm/hr 0.13 in3.3 mm
01:54 PM 52.9°F11.6°C 51.5°F10.8°C 95% 3.7 mph NE6.0 kmh NE 6.9 mph11.1 kmh 29.50 in999.0 mb 0.01 in0.3 mm 0.00 in/hr0.0 mm/hr 0.13 in3.3 mm
01:53 PM 52.9°F11.6°C 51.5°F10.8°C 95% 3.7 mph NE6.0 kmh NE 6.9 mph11.1 kmh 29.50 in999.0 mb 0.01 in0.3 mm 0.00 in/hr0.0 mm/hr 0.13 in3.3 mm
01:52 PM 52.7°F11.5°C 51.3°F10.7°C 95% 3.9 mph NE6.3 kmh NE 6.9 mph11.1 kmh 29.50 in999.0 mb 0.01 in0.3 mm 0.00 in/hr0.0 mm/hr 0.13 in3.3 mm
01:51 PM 53.2°F11.8°C 51.6°F10.9°C 94% 4.1 mph NE6.6 kmh NE 6.9 mph11.1 kmh 29.50 in999.0 mb 0.01 in0.3 mm 0.00 in/hr0.0 mm/hr 0.13 in3.3 mm
01:50 PM 52.9°F11.6°C 51.5°F10.8°C 95% 3.9 mph NE6.3 kmh NE 6.9 mph11.1 kmh 29.50 in999.0 mb 0.01 in0.3 mm 0.00 in/hr0.0 mm/hr 0.13 in3.3 mm
01:49 PM 53.1°F11.7°C 51.7°F10.9°C 95% 4.0 mph ENE6.4 kmh ENE 6.9 mph11.1 kmh 29.50 in999.0 mb 0.01 in0.3 mm 0.00 in/hr0.0 mm/hr 0.13 in3.3 mm
01:48 PM 53.1°F11.7°C 51.4°F10.8°C 94% 4.0 mph NE6.4 kmh NE 6.9 mph11.1 kmh 29.50 in999.0 mb 0.01 in0.3 mm 0.00 in/hr0.0 mm/hr 0.13 in3.3 mm
01:47 PM 53.1°F11.7°C 51.4°F10.8°C 94% 4.0 mph NE6.4 kmh NE 6.9 mph11.1 kmh 29.50 in999.0 mb 0.01 in0.3 mm 0.00 in/hr0.0 mm/hr 0.13 in3.3 mm
01:46 PM 52.9°F11.6°C 51.2°F10.7°C 94% 3.7 mph ENE6.0 kmh ENE 6.9 mph11.1 kmh 29.50 in999.0 mb 0.01 in0.3 mm 0.00 in/hr0.0 mm/hr 0.13 in3.3 mm
01:45 PM 53.1°F11.7°C 51.4°F10.8°C 94% 3.8 mph ENE6.1 kmh ENE 6.9 mph11.1 kmh 29.50 in999.0 mb 0.01 in0.3 mm 0.00 in/hr0.0 mm/hr 0.13 in3.3 mm
01:44 PM 52.7°F11.5°C 50.7°F10.4°C 93% 3.4 mph E5.5 kmh E 5.4 mph8.7 kmh 29.50 in999.0 mb 0.01 in0.3 mm 0.00 in/hr0.0 mm/hr 0.13 in3.3 mm
01:43 PM 53.2°F11.8°C 51.3°F10.7°C 93% 3.5 mph E5.6 kmh E 6.9 mph11.1 kmh 29.50 in999.0 mb 0.01 in0.3 mm 0.00 in/hr0.0 mm/hr 0.13 in3.3 mm
01:42 PM 52.9°F11.6°C 50.9°F10.5°C 93% 3.8 mph E6.1 kmh E 7.6 mph12.2 kmh 29.50 in999.0 mb 0.01 in0.3 mm 0.00 in/hr0.0 mm/hr 0.13 in3.3 mm
01:41 PM 52.9°F11.6°C 50.9°F10.5°C 93% 3.7 mph E6.0 kmh E 7.6 mph12.2 kmh 29.50 in999.0 mb 0.01 in0.3 mm 0.00 in/hr0.0 mm/hr 0.13 in3.3 mm
01:40 PM 52.9°F11.6°C 50.6°F10.3°C 92% 3.7 mph E6.0 kmh E 7.6 mph12.2 kmh 29.50 in999.0 mb 0.01 in0.3 mm 0.00 in/hr0.0 mm/hr 0.13 in3.3 mm
01:39 PM 52.9°F11.6°C 50.6°F10.3°C 92% 3.9 mph E6.3 kmh E 7.6 mph12.2 kmh 29.50 in999.0 mb 0.01 in0.3 mm 0.00 in/hr0.0 mm/hr 0.13 in3.3 mm
01:38 PM 52.7°F11.5°C 50.4°F10.2°C 92% 4.0 mph E6.4 kmh E 7.6 mph12.2 kmh 29.50 in999.0 mb 0.01 in0.3 mm 0.00 in/hr0.0 mm/hr 0.13 in3.3 mm
01:37 PM 52.7°F11.5°C 50.2°F10.1°C 91% 4.2 mph E6.8 kmh E 7.6 mph12.2 kmh 29.50 in999.0 mb 0.01 in0.3 mm 0.00 in/hr0.0 mm/hr 0.13 in3.3 mm
01:36 PM 52.9°F11.6°C 50.3°F10.2°C 91% 4.3 mph E6.9 kmh E 7.6 mph12.2 kmh 29.50 in999.0 mb 0.01 in0.3 mm 0.00 in/hr0.0 mm/hr 0.13 in3.3 mm
01:35 PM 53.1°F11.7°C 50.2°F10.1°C 90% 4.2 mph ENE6.8 kmh ENE 7.6 mph12.2 kmh 29.50 in999.0 mb 0.01 in0.3 mm 0.60 in/hr15.2 mm/hr 0.13 in3.3 mm
01:34 PM 53.1°F11.7°C 50.2°F10.1°C 90% 4.5 mph ENE7.2 kmh ENE 7.6 mph12.2 kmh 29.50 in999.0 mb 0.00 in0.0 mm 0.00 in/hr0.0 mm/hr 0.12 in3.0 mm
01:33 PM 53.2°F11.8°C 50.1°F10.1°C 89% 4.3 mph NE6.9 kmh NE 7.6 mph12.2 kmh 29.50 in999.0 mb 0.00 in0.0 mm 0.00 in/hr0.0 mm/hr 0.12 in3.0 mm
01:32 PM 53.2°F11.8°C 49.8°F9.9°C 88% 3.6 mph NE5.8 kmh NE 7.6 mph12.2 kmh 29.50 in999.0 mb 0.00 in0.0 mm 0.00 in/hr0.0 mm/hr 0.12 in3.0 mm
01:31 PM 53.1°F11.7°C 49.6°F9.8°C 88% 3.5 mph NE5.6 kmh NE 5.4 mph8.7 kmh 29.50 in999.0 mb 0.00 in0.0 mm 0.00 in/hr0.0 mm/hr 0.12 in3.0 mm
01:30 PM 53.2°F11.8°C 49.8°F9.9°C 88% 3.8 mph NE6.1 kmh NE 6.9 mph11.1 kmh 29.50 in999.0 mb 0.00 in0.0 mm 0.00 in/hr0.0 mm/hr 0.12 in3.0 mm
01:29 PM 53.1°F11.7°C 49.6°F9.8°C 88% 3.9 mph NE6.3 kmh NE 6.9 mph11.1 kmh 29.50 in999.0 mb 0.00 in0.0 mm 0.00 in/hr0.0 mm/hr 0.12 in3.0 mm
01:28 PM 53.2°F11.8°C 49.8°F9.9°C 88% 3.9 mph NNE6.3 kmh NNE 6.9 mph11.1 kmh 29.50 in999.0 mb 0.00 in0.0 mm 0.00 in/hr0.0 mm/hr 0.12 in3.0 mm
01:27 PM 53.2°F11.8°C 49.8°F9.9°C 88% 3.7 mph NNE6.0 kmh NNE 6.9 mph11.1 kmh 29.50 in999.0 mb 0.00 in0.0 mm 0.00 in/hr0.0 mm/hr 0.12 in3.0 mm
01:26 PM 53.6°F12.0°C 49.8°F9.9°C 87% 3.5 mph NNE5.6 kmh NNE 6.9 mph11.1 kmh 29.50 in999.0 mb 0.00 in0.0 mm 0.00 in/hr0.0 mm/hr 0.12 in3.0 mm
01:25 PM 53.6°F12.0°C 49.8°F9.9°C 87% 4.0 mph NE6.4 kmh NE 10.7 mph17.2 kmh 29.50 in999.0 mb 0.00 in0.0 mm 0.00 in/hr0.0 mm/hr 0.12 in3.0 mm
01:24 PM 53.4°F11.9°C 49.7°F9.8°C 87% 4.3 mph NNE6.9 kmh NNE 10.7 mph17.2 kmh 29.50 in999.0 mb 0.00 in0.0 mm 0.00 in/hr0.0 mm/hr 0.12 in3.0 mm
01:23 PM 53.6°F12.0°C 49.8°F9.9°C 87% 4.0 mph NNE6.4 kmh NNE 10.7 mph17.2 kmh 29.50 in999.0 mb 0.00 in0.0 mm 0.00 in/hr0.0 mm/hr 0.12 in3.0 mm
01:22 PM 53.4°F11.9°C 49.3°F9.6°C 86% 3.9 mph NNE6.3 kmh NNE 10.7 mph17.2 kmh 29.50 in999.0 mb 0.00 in0.0 mm 0.00 in/hr0.0 mm/hr 0.12 in3.0 mm
01:21 PM 53.4°F11.9°C 49.3°F9.6°C 86% 3.7 mph NNE6.0 kmh NNE 10.7 mph17.2 kmh 29.51 in999.3 mb 0.00 in0.0 mm 0.00 in/hr0.0 mm/hr 0.12 in3.0 mm
01:20 PM 53.4°F11.9°C 49.0°F9.4°C 85% 3.4 mph NE5.5 kmh NE 10.7 mph17.2 kmh 29.50 in999.0 mb 0.00 in0.0 mm 0.00 in/hr0.0 mm/hr 0.12 in3.0 mm
01:19 PM 53.6°F12.0°C 49.5°F9.7°C 86% 2.7 mph NE4.3 kmh NE 10.7 mph17.2 kmh 29.50 in999.0 mb 0.00 in0.0 mm 0.00 in/hr0.0 mm/hr 0.12 in3.0 mm
01:18 PM 53.6°F12.0°C 49.5°F9.7°C 86% 2.3 mph NE3.7 kmh NE 10.7 mph17.2 kmh 29.50 in999.0 mb 0.00 in0.0 mm 0.00 in/hr0.0 mm/hr 0.12 in3.0 mm
01:17 PM 53.6°F12.0°C 49.5°F9.7°C 86% 2.4 mph NE3.9 kmh NE 10.7 mph17.2 kmh 29.51 in999.3 mb 0.00 in0.0 mm 0.00 in/hr0.0 mm/hr 0.12 in3.0 mm
01:16 PM 53.6°F12.0°C 49.2°F9.6°C 85% 3.1 mph N5.0 kmh N 10.7 mph17.2 kmh 29.50 in999.0 mb 0.00 in0.0 mm 0.00 in/hr0.0 mm/hr 0.12 in3.0 mm
01:15 PM 54.0°F12.2°C 49.6°F9.8°C 85% 2.8 mph N4.5 kmh N 9.2 mph14.8 kmh 29.50 in999.0 mb 0.00 in0.0 mm 0.00 in/hr0.0 mm/hr 0.12 in3.0 mm
01:14 PM 54.1°F12.3°C 50.1°F10.1°C 86% 2.6 mph NNE4.2 kmh NNE 9.2 mph14.8 kmh 29.51 in999.3 mb 0.00 in0.0 mm 0.00 in/hr0.0 mm/hr 0.12 in3.0 mm
01:13 PM 54.0°F12.2°C 49.9°F9.9°C 86% 3.3 mph NNE5.3 kmh NNE 9.2 mph14.8 kmh 29.51 in999.3 mb 0.00 in0.0 mm 0.00 in/hr0.0 mm/hr 0.12 in3.0 mm
01:12 PM 54.1°F12.3°C 49.7°F9.8°C 85% 3.6 mph N5.8 kmh N 9.2 mph14.8 kmh 29.51 in999.3 mb 0.00 in0.0 mm 0.00 in/hr0.0 mm/hr 0.12 in3.0 mm
01:11 PM 54.1°F12.3°C 49.4°F9.7°C 84% 3.9 mph NNE6.3 kmh NNE 9.2 mph14.8 kmh 29.51 in999.3 mb 0.00 in0.0 mm 0.00 in/hr0.0 mm/hr 0.12 in3.0 mm
01:10 PM 54.1°F12.3°C 49.4°F9.7°C 84% 4.4 mph N7.1 kmh N 9.2 mph14.8 kmh 29.50 in999.0 mb 0.00 in0.0 mm 0.00 in/hr0.0 mm/hr 0.12 in3.0 mm
01:09 PM 54.3°F12.4°C 49.6°F9.8°C 84% 5.4 mph NNE8.7 kmh NNE 9.8 mph15.8 kmh 29.50 in999.0 mb 0.00 in0.0 mm 0.00 in/hr0.0 mm/hr 0.12 in3.0 mm
01:08 PM 54.3°F12.4°C 49.3°F9.6°C 83% 5.7 mph NE9.2 kmh NE 9.8 mph15.8 kmh 29.51 in999.3 mb 0.00 in0.0 mm 0.00 in/hr0.0 mm/hr 0.12 in3.0 mm
01:07 PM 54.3°F12.4°C 49.0°F9.4°C 82% 5.7 mph NE9.2 kmh NE 9.8 mph15.8 kmh 29.51 in999.3 mb 0.00 in0.0 mm 0.00 in/hr0.0 mm/hr 0.12 in3.0 mm
01:06 PM 54.5°F12.5°C 49.5°F9.7°C 83% 4.9 mph NE7.9 kmh NE 9.8 mph15.8 kmh 29.51 in999.3 mb 0.00 in0.0 mm 0.00 in/hr0.0 mm/hr 0.12 in3.0 mm
01:05 PM 54.1°F12.3°C 49.1°F9.5°C 83% 4.7 mph NE7.6 kmh NE 9.8 mph15.8 kmh 29.51 in999.3 mb 0.00 in0.0 mm 0.00 in/hr0.0 mm/hr 0.12 in3.0 mm
01:04 PM 54.3°F12.4°C 49.3°F9.6°C 83% 4.8 mph NE7.7 kmh NE 9.8 mph15.8 kmh 29.50 in999.0 mb 0.00 in0.0 mm 0.00 in/hr0.0 mm/hr 0.12 in3.0 mm
01:03 PM 54.5°F12.5°C 49.8°F9.9°C 84% 5.0 mph NE8.0 kmh NE 9.8 mph15.8 kmh 29.51 in999.3 mb 0.00 in0.0 mm 0.00 in/hr0.0 mm/hr 0.12 in3.0 mm
01:02 PM 54.3°F12.4°C 49.6°F9.8°C 84% 5.5 mph NE8.9 kmh NE 9.8 mph15.8 kmh 29.51 in999.3 mb 0.00 in0.0 mm 0.00 in/hr0.0 mm/hr 0.12 in3.0 mm
01:01 PM 54.1°F12.3°C 49.4°F9.7°C 84% 5.9 mph NE9.5 kmh NE 9.8 mph15.8 kmh 29.51 in999.3 mb 0.00 in0.0 mm 0.00 in/hr0.0 mm/hr 0.12 in3.0 mm
01:00 PM 54.5°F12.5°C 49.5°F9.7°C 83% 6.0 mph NE9.7 kmh NE 13.6 mph21.9 kmh 29.51 in999.3 mb 0.00 in0.0 mm 0.00 in/hr0.0 mm/hr 0.12 in3.0 mm
12:59 PM 54.1°F12.3°C 50.1°F10.1°C 86% 6.3 mph N10.1 kmh N 13.6 mph21.9 kmh 29.51 in999.3 mb 0.00 in0.0 mm 0.00 in/hr0.0 mm/hr 0.12 in3.0 mm
12:58 PM 53.8°F12.1°C 49.7°F9.8°C 86% 6.8 mph NNW10.9 kmh NNW 13.6 mph21.9 kmh 29.50 in999.0 mb 0.00 in0.0 mm 0.00 in/hr0.0 mm/hr 0.12 in3.0 mm
12:57 PM 54.0°F12.2°C 49.9°F9.9°C 86% 7.4 mph N11.9 kmh N 13.6 mph21.9 kmh 29.51 in999.3 mb 0.00 in0.0 mm 0.00 in/hr0.0 mm/hr 0.12 in3.0 mm
12:56 PM 54.0°F12.2°C 49.9°F9.9°C 86% 8.8 mph N14.2 kmh N 15.9 mph25.6 kmh 29.51 in999.3 mb 0.00 in0.0 mm 0.00 in/hr0.0 mm/hr 0.12 in3.0 mm
12:55 PM 53.8°F12.1°C 49.4°F9.7°C 85% 9.3 mph N15.0 kmh N 15.9 mph25.6 kmh 29.51 in999.3 mb 0.00 in0.0 mm 0.00 in/hr0.0 mm/hr 0.12 in3.0 mm
12:54 PM 53.8°F12.1°C 49.1°F9.5°C 84% 9.4 mph N15.1 kmh N 15.9 mph25.6 kmh 29.51 in999.3 mb 0.00 in0.0 mm 0.00 in/hr0.0 mm/hr 0.12 in3.0 mm
12:53 PM 53.4°F11.9°C 48.7°F9.3°C 84% 9.7 mph NNE15.6 kmh NNE 15.9 mph25.6 kmh 29.51 in999.3 mb 0.00 in0.0 mm 0.00 in/hr0.0 mm/hr 0.12 in3.0 mm
12:52 PM 53.6°F12.0°C 48.9°F9.4°C 84% 9.7 mph NNE15.6 kmh NNE 15.9 mph25.6 kmh 29.51 in999.3 mb 0.00 in0.0 mm 0.00 in/hr0.0 mm/hr 0.12 in3.0 mm
12:51 PM 53.4°F11.9°C 48.7°F9.3°C 84% 10.0 mph NE16.1 kmh NE 15.9 mph25.6 kmh 29.51 in999.3 mb 0.00 in0.0 mm 0.00 in/hr0.0 mm/hr 0.12 in3.0 mm
12:50 PM 53.6°F12.0°C 48.6°F9.2°C 83% 10.3 mph NE16.6 kmh NE 15.9 mph25.6 kmh 29.51 in999.3 mb 0.00 in0.0 mm 0.00 in/hr0.0 mm/hr 0.12 in3.0 mm
12:49 PM 53.6°F12.0°C 48.2°F9.0°C 82% 10.1 mph NE16.3 kmh NE 15.9 mph25.6 kmh 29.51 in999.3 mb 0.00 in0.0 mm 0.00 in/hr0.0 mm/hr 0.12 in3.0 mm
12:48 PM 54.0°F12.2°C 48.6°F9.2°C 82% 9.6 mph NE15.4 kmh NE 15.9 mph25.6 kmh 29.51 in999.3 mb 0.00 in0.0 mm 0.00 in/hr0.0 mm/hr 0.12 in3.0 mm
12:47 PM 54.0°F12.2°C 47.9°F8.8°C 80% 9.1 mph NE14.6 kmh NE 15.9 mph25.6 kmh 29.51 in999.3 mb 0.00 in0.0 mm 0.00 in/hr0.0 mm/hr 0.12 in3.0 mm
12:46 PM 54.0°F12.2°C 48.3°F9.1°C 81% 8.6 mph NE13.8 kmh NE 13.6 mph21.9 kmh 29.51 in999.3 mb 0.00 in0.0 mm 0.00 in/hr0.0 mm/hr 0.12 in3.0 mm
12:45 PM 54.1°F12.3°C 48.4°F9.1°C 81% 8.3 mph NE13.4 kmh NE 13.6 mph21.9 kmh 29.51 in999.3 mb 0.00 in0.0 mm 0.00 in/hr0.0 mm/hr 0.12 in3.0 mm
12:44 PM 54.7°F12.6°C 48.6°F9.2°C 80% 7.8 mph NE12.6 kmh NE 13.6 mph21.9 kmh 29.51 in999.3 mb 0.00 in0.0 mm 0.00 in/hr0.0 mm/hr 0.12 in3.0 mm
12:43 PM 54.9°F12.7°C 48.5°F9.2°C 79% 7.1 mph NNE11.4 kmh NNE 13.6 mph21.9 kmh 29.51 in999.3 mb 0.00 in0.0 mm 0.00 in/hr0.0 mm/hr 0.12 in3.0 mm
12:42 PM 55.0°F12.8°C 48.7°F9.3°C 79% 6.7 mph NNE10.8 kmh NNE 13.6 mph21.9 kmh 29.51 in999.3 mb 0.00 in0.0 mm 0.00 in/hr0.0 mm/hr 0.12 in3.0 mm
12:41 PM 54.9°F12.7°C 48.1°F8.9°C 78% 6.3 mph N10.1 kmh N 13.6 mph21.9 kmh 29.51 in999.3 mb 0.00 in0.0 mm 0.00 in/hr0.0 mm/hr 0.12 in3.0 mm
12:40 PM 55.2°F12.9°C 48.5°F9.2°C 78% 5.7 mph N9.2 kmh N 10.7 mph17.2 kmh 29.51 in999.3 mb 0.00 in0.0 mm 0.00 in/hr0.0 mm/hr 0.12 in3.0 mm
12:39 PM 55.8°F13.2°C 49.0°F9.4°C 78% 5.1 mph N8.2 kmh N 10.7 mph17.2 kmh 29.51 in999.3 mb 0.00 in0.0 mm 0.00 in/hr0.0 mm/hr 0.12 in3.0 mm
12:38 PM 55.4°F13.0°C 48.7°F9.3°C 78% 4.8 mph N7.7 kmh N 10.7 mph17.2 kmh 29.51 in999.3 mb 0.00 in0.0 mm 0.00 in/hr0.0 mm/hr 0.12 in3.0 mm
12:37 PM 55.8°F13.2°C 48.7°F9.3°C 77% 4.3 mph N6.9 kmh N 10.7 mph17.2 kmh 29.51 in999.3 mb 0.00 in0.0 mm 0.00 in/hr0.0 mm/hr 0.12 in3.0 mm
12:36 PM 55.9°F13.3°C 48.8°F9.3°C 77% 3.6 mph NNW5.8 kmh NNW 10.7 mph17.2 kmh 29.51 in999.3 mb 0.00 in0.0 mm 0.00 in/hr0.0 mm/hr 0.12 in3.0 mm
12:35 PM 55.6°F13.1°C 48.8°F9.3°C 78% 3.5 mph NNW5.6 kmh NNW 6.0 mph9.7 kmh 29.51 in999.3 mb 0.00 in0.0 mm 0.00 in/hr0.0 mm/hr 0.12 in3.0 mm
12:34 PM 55.8°F13.2°C 49.0°F9.4°C 78% 3.7 mph N6.0 kmh N 6.0 mph9.7 kmh 29.51 in999.3 mb 0.00 in0.0 mm 0.00 in/hr0.0 mm/hr 0.12 in3.0 mm
12:33 PM 55.8°F13.2°C 49.0°F9.4°C 78% 4.2 mph N6.8 kmh N 9.8 mph15.8 kmh 29.51 in999.3 mb 0.00 in0.0 mm 0.00 in/hr0.0 mm/hr 0.12 in3.0 mm
12:32 PM 55.6°F13.1°C 48.5°F9.2°C 77% 4.8 mph NNE7.7 kmh NNE 11.4 mph18.3 kmh 29.51 in999.3 mb 0.00 in0.0 mm 0.00 in/hr0.0 mm/hr 0.12 in3.0 mm
12:31 PM 55.9°F13.3°C 48.8°F9.3°C 77% 5.0 mph NE8.0 kmh NE 11.4 mph18.3 kmh 29.51 in999.3 mb 0.00 in0.0 mm 0.00 in/hr0.0 mm/hr 0.12 in3.0 mm
12:30 PM 55.8°F13.2°C 49.4°F9.7°C 79% 5.2 mph NE8.4 kmh NE 11.4 mph18.3 kmh 29.51 in999.3 mb 0.00 in0.0 mm 0.00 in/hr0.0 mm/hr 0.12 in3.0 mm
12:29 PM 55.8°F13.2°C 49.4°F9.7°C 79% 5.4 mph NE8.7 kmh NE 11.4 mph18.3 kmh 29.51 in999.3 mb 0.00 in0.0 mm 0.00 in/hr0.0 mm/hr 0.12 in3.0 mm
12:28 PM 55.4°F13.0°C 49.3°F9.6°C 80% 5.8 mph NE9.3 kmh NE 11.4 mph18.3 kmh 29.51 in999.3 mb 0.00 in0.0 mm 0.00 in/hr0.0 mm/hr 0.12 in3.0 mm
12:27 PM 55.4°F13.0°C 49.3°F9.6°C 80% 6.4 mph NE10.3 kmh NE 11.4 mph18.3 kmh 29.51 in999.3 mb 0.00 in0.0 mm 0.00 in/hr0.0 mm/hr 0.12 in3.0 mm
12:26 PM 55.4°F13.0°C 49.0°F9.4°C 79% 6.5 mph NE10.5 kmh NE 11.4 mph18.3 kmh 29.51 in999.3 mb 0.00 in0.0 mm 0.00 in/hr0.0 mm/hr 0.12 in3.0 mm
12:25 PM 54.7°F12.6°C 48.0°F8.9°C 78% 6.3 mph NE10.1 kmh NE 11.4 mph18.3 kmh 29.51 in999.3 mb 0.00 in0.0 mm 0.00 in/hr0.0 mm/hr 0.12 in3.0 mm
12:24 PM 55.0°F12.8°C 48.0°F8.9°C 77% 6.2 mph NE10.0 kmh NE 11.4 mph18.3 kmh 29.51 in999.3 mb 0.00 in0.0 mm 0.00 in/hr0.0 mm/hr 0.12 in3.0 mm
12:23 PM 55.2°F12.9°C 48.1°F8.9°C 77% 5.9 mph NE9.5 kmh NE 11.4 mph18.3 kmh 29.51 in999.3 mb 0.00 in0.0 mm 0.00 in/hr0.0 mm/hr 0.12 in3.0 mm
12:22 PM 55.4°F13.0°C 48.3°F9.1°C 77% 5.1 mph NE8.2 kmh NE 8.3 mph13.4 kmh 29.52 in999.7 mb 0.00 in0.0 mm 0.00 in/hr0.0 mm/hr 0.12 in3.0 mm
12:21 PM 55.8°F13.2°C 48.3°F9.1°C 76% 5.0 mph NE8.0 kmh NE 8.3 mph13.4 kmh 29.51 in999.3 mb 0.00 in0.0 mm 0.00 in/hr0.0 mm/hr 0.12 in3.0 mm
12:20 PM 55.6°F13.1°C 48.5°F9.2°C 77% 5.0 mph NE8.0 kmh NE 9.8 mph15.8 kmh 29.51 in999.3 mb 0.00 in0.0 mm 0.00 in/hr0.0 mm/hr 0.12 in3.0 mm
12:19 PM 55.9°F13.3°C 48.8°F9.3°C 77% 5.0 mph NE8.0 kmh NE 9.8 mph15.8 kmh 29.52 in999.7 mb 0.00 in0.0 mm 0.00 in/hr0.0 mm/hr 0.12 in3.0 mm
12:18 PM 55.9°F13.3°C 48.5°F9.2°C 76% 5.5 mph NE8.9 kmh NE 10.7 mph17.2 kmh 29.51 in999.3 mb 0.00 in0.0 mm 0.00 in/hr0.0 mm/hr 0.12 in3.0 mm
12:17 PM 55.8°F13.2°C 48.7°F9.3°C 77% 5.5 mph NE8.9 kmh NE 10.7 mph17.2 kmh 29.51 in999.3 mb 0.00 in0.0 mm 0.00 in/hr0.0 mm/hr 0.12 in3.0 mm
12:16 PM 55.9°F13.3°C 49.5°F9.7°C 79% 5.3 mph NE8.5 kmh NE 10.7 mph17.2 kmh 29.51 in999.3 mb 0.00 in0.0 mm 0.00 in/hr0.0 mm/hr 0.12 in3.0 mm
12:15 PM 55.8°F13.2°C 49.4°F9.7°C 79% 5.6 mph NE9.0 kmh NE 10.7 mph17.2 kmh 29.52 in999.7 mb 0.00 in0.0 mm 0.00 in/hr0.0 mm/hr 0.12 in3.0 mm
12:14 PM 55.4°F13.0°C 48.3°F9.1°C 77% 5.8 mph NE9.3 kmh NE 10.7 mph17.2 kmh 29.52 in999.7 mb 0.00 in0.0 mm 0.00 in/hr0.0 mm/hr 0.12 in3.0 mm
12:13 PM 55.4°F13.0°C 48.7°F9.3°C 78% 5.7 mph NE9.2 kmh NE 10.7 mph17.2 kmh 29.52 in999.7 mb 0.00 in0.0 mm 0.00 in/hr0.0 mm/hr 0.12 in3.0 mm
12:12 PM 55.4°F13.0°C 48.7°F9.3°C 78% 5.8 mph ENE9.3 kmh ENE 10.7 mph17.2 kmh 29.52 in999.7 mb 0.00 in0.0 mm 0.00 in/hr0.0 mm/hr 0.12 in3.0 mm
12:11 PM 55.4°F13.0°C 49.0°F9.4°C 79% 5.8 mph ENE9.3 kmh ENE 10.7 mph17.2 kmh 29.52 in999.7 mb 0.00 in0.0 mm 0.00 in/hr0.0 mm/hr 0.12 in3.0 mm
12:10 PM 55.4°F13.0°C 48.7°F9.3°C 78% 5.7 mph NE9.2 kmh NE 10.7 mph17.2 kmh 29.51 in999.3 mb 0.00 in0.0 mm 0.00 in/hr0.0 mm/hr 0.12 in3.0 mm
12:09 PM 55.4°F13.0°C 48.3°F9.1°C 77% 6.1 mph NE9.8 kmh NE 10.7 mph17.2 kmh 29.51 in999.3 mb 0.00 in0.0 mm 0.00 in/hr0.0 mm/hr 0.12 in3.0 mm
12:08 PM 55.4°F13.0°C 48.3°F9.1°C 77% 5.7 mph NE9.2 kmh NE 10.7 mph17.2 kmh 29.52 in999.7 mb 0.00 in0.0 mm 0.00 in/hr0.0 mm/hr 0.12 in3.0 mm
12:07 PM 55.8°F13.2°C 49.4°F9.7°C 79% 5.7 mph NE9.2 kmh NE 8.3 mph13.4 kmh 29.52 in999.7 mb 0.00 in0.0 mm 0.00 in/hr0.0 mm/hr 0.12 in3.0 mm
12:06 PM 55.6°F13.1°C 48.8°F9.3°C 78% 5.8 mph NE9.3 kmh NE 8.3 mph13.4 kmh 29.52 in999.7 mb 0.00 in0.0 mm 0.00 in/hr0.0 mm/hr 0.12 in3.0 mm
12:05 PM 55.6°F13.1°C 48.8°F9.3°C 78% 6.0 mph NNE9.7 kmh NNE 9.2 mph14.8 kmh 29.51 in999.3 mb 0.00 in0.0 mm 0.00 in/hr0.0 mm/hr 0.12 in3.0 mm
12:04 PM 55.4°F13.0°C 48.7°F9.3°C 78% 6.1 mph NNE9.8 kmh NNE 9.2 mph14.8 kmh 29.51 in999.3 mb 0.00 in0.0 mm 0.00 in/hr0.0 mm/hr 0.12 in3.0 mm
12:03 PM 55.4°F13.0°C 49.3°F9.6°C 80% 6.1 mph NNE9.8 kmh NNE 9.2 mph14.8 kmh 29.52 in999.7 mb 0.00 in0.0 mm 0.00 in/hr0.0 mm/hr 0.12 in3.0 mm
12:02 PM 55.0°F12.8°C 48.7°F9.3°C 79% 6.3 mph NNE10.1 kmh NNE 9.2 mph14.8 kmh 29.52 in999.7 mb 0.00 in0.0 mm 0.00 in/hr0.0 mm/hr 0.12 in3.0 mm
12:01 PM 55.2°F12.9°C 48.8°F9.3°C 79% 6.4 mph NNE10.3 kmh NNE 9.2 mph14.8 kmh 29.52 in999.7 mb 0.00 in0.0 mm 0.00 in/hr0.0 mm/hr 0.12 in3.0 mm
12:00 PM 55.0°F12.8°C 48.7°F9.3°C 79% 6.7 mph NNE10.8 kmh NNE 10.7 mph17.2 kmh 29.52 in999.7 mb 0.00 in0.0 mm 0.00 in/hr0.0 mm/hr 0.12 in3.0 mm
11:59 AM 54.9°F12.7°C 48.8°F9.3°C 80% 6.8 mph NE10.9 kmh NE 10.7 mph17.2 kmh 29.52 in999.7 mb 0.00 in0.0 mm 0.00 in/hr0.0 mm/hr 0.12 in3.0 mm
11:58 AM 54.7°F12.6°C 48.3°F9.1°C 79% 6.7 mph NE10.8 kmh NE 10.7 mph17.2 kmh 29.52 in999.7 mb 0.00 in0.0 mm 0.00 in/hr0.0 mm/hr 0.12 in3.0 mm
11:57 AM 54.7°F12.6°C 48.6°F9.2°C 80% 6.7 mph NE10.8 kmh NE 10.7 mph17.2 kmh 29.52 in999.7 mb 0.00 in0.0 mm 0.00 in/hr0.0 mm/hr 0.12 in3.0 mm
11:56 AM 54.5°F12.5°C 48.8°F9.3°C 81% 6.8 mph NE10.9 kmh NE 10.7 mph17.2 kmh 29.52 in999.7 mb 0.00 in0.0 mm 0.00 in/hr0.0 mm/hr 0.12 in3.0 mm
11:55 AM 54.5°F12.5°C 48.8°F9.3°C 81% 6.5 mph NE10.5 kmh NE 10.7 mph17.2 kmh 29.52 in999.7 mb 0.00 in0.0 mm 0.00 in/hr0.0 mm/hr 0.12 in3.0 mm
11:54 AM 54.5°F12.5°C 49.5°F9.7°C 83% 6.2 mph ENE10.0 kmh ENE 10.7 mph17.2 kmh 29.52 in999.7 mb 0.00 in0.0 mm 0.00 in/hr0.0 mm/hr 0.12 in3.0 mm
11:53 AM 54.0°F12.2°C 48.6°F9.2°C 82% 6.2 mph ENE10.0 kmh ENE 10.7 mph17.2 kmh 29.52 in999.7 mb 0.00 in0.0 mm 0.00 in/hr0.0 mm/hr 0.12 in3.0 mm
11:52 AM 54.0°F12.2°C 48.6°F9.2°C 82% 6.7 mph ENE10.8 kmh ENE 12.1 mph19.5 kmh 29.52 in999.7 mb 0.00 in0.0 mm 0.00 in/hr0.0 mm/hr 0.12 in3.0 mm
11:51 AM 53.6°F12.0°C 48.2°F9.0°C 82% 6.9 mph ENE11.1 kmh ENE 12.1 mph19.5 kmh 29.52 in999.7 mb 0.00 in0.0 mm 0.00 in/hr0.0 mm/hr 0.12 in3.0 mm
11:50 AM 53.6°F12.0°C 48.2°F9.0°C 82% 6.5 mph ENE10.5 kmh ENE 12.1 mph19.5 kmh 29.52 in999.7 mb 0.00 in0.0 mm 0.00 in/hr0.0 mm/hr 0.12 in3.0 mm
11:49 AM 53.4°F11.9°C 48.7°F9.3°C 84% 6.9 mph E11.1 kmh E 13.6 mph21.9 kmh 29.52 in999.7 mb 0.00 in0.0 mm 0.00 in/hr0.0 mm/hr 0.12 in3.0 mm
11:48 AM 53.6°F12.0°C 48.9°F9.4°C 84% 7.6 mph ENE12.2 kmh ENE 14.5 mph23.3 kmh 29.52 in999.7 mb 0.00 in0.0 mm 0.00 in/hr0.0 mm/hr 0.12 in3.0 mm
11:47 AM 53.2°F11.8°C 48.5°F9.2°C 84% 7.8 mph NE12.6 kmh NE 14.5 mph23.3 kmh 29.52 in999.7 mb 0.00 in0.0 mm 0.00 in/hr0.0 mm/hr 0.12 in3.0 mm
11:46 AM 53.2°F11.8°C 48.9°F9.4°C 85% 8.0 mph NE12.9 kmh NE 14.5 mph23.3 kmh 29.52 in999.7 mb 0.00 in0.0 mm 0.00 in/hr0.0 mm/hr 0.12 in3.0 mm
11:45 AM 53.1°F11.7°C 48.4°F9.1°C 84% 8.9 mph NE14.3 kmh NE 15.2 mph24.5 kmh 29.52 in999.7 mb 0.00 in0.0 mm 0.00 in/hr0.0 mm/hr 0.12 in3.0 mm
11:44 AM 53.2°F11.8°C 48.5°F9.2°C 84% 9.5 mph NE15.3 kmh NE 15.2 mph24.5 kmh 29.52 in999.7 mb 0.00 in0.0 mm 0.00 in/hr0.0 mm/hr 0.12 in3.0 mm
11:43 AM 52.9°F11.6°C 47.9°F8.8°C 83% 10.1 mph NE16.3 kmh NE 16.8 mph27.0 kmh 29.52 in999.7 mb 0.00 in0.0 mm 0.00 in/hr0.0 mm/hr 0.12 in3.0 mm
11:42 AM 52.9°F11.6°C 47.9°F8.8°C 83% 10.5 mph NE16.9 kmh NE 16.8 mph27.0 kmh 29.52 in999.7 mb 0.00 in0.0 mm 0.00 in/hr0.0 mm/hr 0.12 in3.0 mm
11:41 AM 53.2°F11.8°C 48.9°F9.4°C 85% 10.1 mph NE16.3 kmh NE 16.8 mph27.0 kmh 29.52 in999.7 mb 0.00 in0.0 mm 0.00 in/hr0.0 mm/hr 0.12 in3.0 mm
11:40 AM 52.9°F11.6°C 48.5°F9.2°C 85% 10.0 mph NE16.1 kmh NE 16.8 mph27.0 kmh 29.52 in999.7 mb 0.00 in0.0 mm 0.00 in/hr0.0 mm/hr 0.12 in3.0 mm
11:39 AM 52.7°F11.5°C 48.3°F9.1°C 85% 9.4 mph NE15.1 kmh NE 16.8 mph27.0 kmh 29.52 in999.7 mb 0.00 in0.0 mm 0.00 in/hr0.0 mm/hr 0.12 in3.0 mm
11:38 AM 52.7°F11.5°C 48.3°F9.1°C 85% 8.9 mph NE14.3 kmh NE 16.8 mph27.0 kmh 29.52 in999.7 mb 0.00 in0.0 mm 0.00 in/hr0.0 mm/hr 0.12 in3.0 mm
11:37 AM 52.5°F11.4°C 48.1°F8.9°C 85% 9.5 mph ENE15.3 kmh ENE 16.8 mph27.0 kmh 29.52 in999.7 mb 0.00 in0.0 mm 0.00 in/hr0.0 mm/hr 0.12 in3.0 mm
11:36 AM 52.5°F11.4°C 48.1°F8.9°C 85% 9.3 mph E15.0 kmh E 16.8 mph27.0 kmh 29.52 in999.7 mb 0.00 in0.0 mm 0.00 in/hr0.0 mm/hr 0.12 in3.0 mm
11:35 AM 52.5°F11.4°C 47.8°F8.8°C 84% 8.9 mph E14.3 kmh E 16.8 mph27.0 kmh 29.52 in999.7 mb 0.00 in0.0 mm 0.00 in/hr0.0 mm/hr 0.12 in3.0 mm
11:34 AM 52.5°F11.4°C 48.1°F8.9°C 85% 8.6 mph E13.8 kmh E 16.8 mph27.0 kmh 29.52 in999.7 mb 0.00 in0.0 mm 0.00 in/hr0.0 mm/hr 0.12 in3.0 mm
11:33 AM 52.3°F11.3°C 48.0°F8.9°C 85% 7.8 mph E12.6 kmh E 16.8 mph27.0 kmh 29.52 in999.7 mb 0.00 in0.0 mm 0.00 in/hr0.0 mm/hr 0.12 in3.0 mm
11:32 AM 52.3°F11.3°C 48.3°F9.1°C 86% 6.9 mph E11.1 kmh E 15.2 mph24.5 kmh 29.52 in999.7 mb 0.00 in0.0 mm 0.00 in/hr0.0 mm/hr 0.12 in3.0 mm
11:31 AM 52.3°F11.3°C 48.3°F9.1°C 86% 6.7 mph E10.8 kmh E 13.0 mph20.9 kmh 29.52 in999.7 mb 0.00 in0.0 mm 0.00 in/hr0.0 mm/hr 0.12 in3.0 mm
11:30 AM 52.3°F11.3°C 48.3°F9.1°C 86% 6.5 mph E10.5 kmh E 13.0 mph20.9 kmh 29.52 in999.7 mb 0.00 in0.0 mm 0.00 in/hr0.0 mm/hr 0.12 in3.0 mm
11:29 AM 52.3°F11.3°C 48.3°F9.1°C 86% 6.2 mph E10.0 kmh E 13.0 mph20.9 kmh 29.52 in999.7 mb 0.00 in0.0 mm 0.00 in/hr0.0 mm/hr 0.12 in3.0 mm
11:28 AM 52.3°F11.3°C 48.3°F9.1°C 86% 5.8 mph E9.3 kmh E 13.0 mph20.9 kmh 29.52 in999.7 mb 0.00 in0.0 mm 0.00 in/hr0.0 mm/hr 0.12 in3.0 mm
11:27 AM 52.2°F11.2°C 48.1°F8.9°C 86% 5.0 mph E8.0 kmh E 13.0 mph20.9 kmh 29.52 in999.7 mb 0.00 in0.0 mm 0.00 in/hr0.0 mm/hr 0.12 in3.0 mm
11:26 AM 52.5°F11.4°C 48.5°F9.2°C 86% 4.6 mph E7.4 kmh E 9.2 mph14.8 kmh 29.52 in999.7 mb 0.00 in0.0 mm 0.00 in/hr0.0 mm/hr 0.12 in3.0 mm
11:25 AM 52.5°F11.4°C 48.5°F9.2°C 86% 4.2 mph ENE6.8 kmh ENE 9.2 mph14.8 kmh 29.52 in999.7 mb 0.00 in0.0 mm 0.00 in/hr0.0 mm/hr 0.12 in3.0 mm
11:24 AM 52.5°F11.4°C 48.8°F9.3°C 87% 4.2 mph ENE6.8 kmh ENE 7.6 mph12.2 kmh 29.52 in999.7 mb 0.00 in0.0 mm 0.00 in/hr0.0 mm/hr 0.12 in3.0 mm
11:23 AM 52.2°F11.2°C 48.4°F9.1°C 87% 4.1 mph ENE6.6 kmh ENE 7.6 mph12.2 kmh 29.52 in999.7 mb 0.00 in0.0 mm 0.00 in/hr0.0 mm/hr 0.12 in3.0 mm
11:22 AM 52.3°F11.3°C 49.2°F9.6°C 89% 3.9 mph ENE6.3 kmh ENE 7.6 mph12.2 kmh 29.52 in999.7 mb 0.00 in0.0 mm 0.00 in/hr0.0 mm/hr 0.12 in3.0 mm
11:21 AM 52.3°F11.3°C 49.2°F9.6°C 89% 4.2 mph NE6.8 kmh NE 7.6 mph12.2 kmh 29.52 in999.7 mb 0.00 in0.0 mm 0.00 in/hr0.0 mm/hr 0.12 in3.0 mm
11:20 AM 52.3°F11.3°C 49.2°F9.6°C 89% 4.1 mph NE6.6 kmh NE 7.6 mph12.2 kmh 29.52 in999.7 mb 0.00 in0.0 mm 0.00 in/hr0.0 mm/hr 0.12 in3.0 mm
11:19 AM 52.0°F11.1°C 48.5°F9.2°C 88% 4.1 mph NE6.6 kmh NE 7.6 mph12.2 kmh 29.52 in999.7 mb 0.00 in0.0 mm 0.00 in/hr0.0 mm/hr 0.12 in3.0 mm
11:18 AM 52.0°F11.1°C 48.5°F9.2°C 88% 4.3 mph NE6.9 kmh NE 7.6 mph12.2 kmh 29.52 in999.7 mb 0.00 in0.0 mm 0.00 in/hr0.0 mm/hr 0.12 in3.0 mm
11:17 AM 52.0°F11.1°C 48.2°F9.0°C 87% 4.7 mph NE7.6 kmh NE 8.3 mph13.4 kmh 29.52 in999.7 mb 0.00 in0.0 mm 0.00 in/hr0.0 mm/hr 0.12 in3.0 mm
11:16 AM 52.0°F11.1°C 48.2°F9.0°C 87% 5.1 mph NE8.2 kmh NE 8.3 mph13.4 kmh 29.52 in999.7 mb 0.00 in0.0 mm 0.00 in/hr0.0 mm/hr 0.12 in3.0 mm
11:15 AM 52.2°F11.2°C 48.4°F9.1°C 87% 5.5 mph NE8.9 kmh NE 9.2 mph14.8 kmh 29.52 in999.7 mb 0.00 in0.0 mm 0.00 in/hr0.0 mm/hr 0.12 in3.0 mm
11:14 AM 51.8°F11.0°C 48.7°F9.3°C 89% 5.4 mph NE8.7 kmh NE 9.2 mph14.8 kmh 29.52 in999.7 mb 0.00 in0.0 mm 0.00 in/hr0.0 mm/hr 0.12 in3.0 mm
11:13 AM 52.0°F11.1°C 48.8°F9.3°C 89% 5.8 mph NE9.3 kmh NE 9.2 mph14.8 kmh 29.52 in999.7 mb 0.00 in0.0 mm 0.00 in/hr0.0 mm/hr 0.12 in3.0 mm
11:12 AM 51.8°F11.0°C 48.1°F8.9°C 87% 5.5 mph NE8.9 kmh NE 9.2 mph14.8 kmh 29.52 in999.7 mb 0.00 in0.0 mm 0.00 in/hr0.0 mm/hr 0.12 in3.0 mm
11:11 AM 51.6°F10.9°C 48.5°F9.2°C 89% 5.7 mph ENE9.2 kmh ENE 11.4 mph18.3 kmh 29.52 in999.7 mb 0.00 in0.0 mm 0.00 in/hr0.0 mm/hr 0.12 in3.0 mm
11:10 AM 51.4°F10.8°C 48.3°F9.1°C 89% 6.4 mph NE10.3 kmh NE 11.4 mph18.3 kmh 29.52 in999.7 mb 0.00 in0.0 mm 0.00 in/hr0.0 mm/hr 0.12 in3.0 mm
11:09 AM 51.4°F10.8°C 48.3°F9.1°C 89% 7.4 mph NNE11.9 kmh NNE 17.4 mph28.0 kmh 29.52 in999.7 mb 0.00 in0.0 mm 0.00 in/hr0.0 mm/hr 0.12 in3.0 mm
11:08 AM 51.4°F10.8°C 48.0°F8.9°C 88% 7.4 mph N11.9 kmh N 17.4 mph28.0 kmh 29.52 in999.7 mb 0.00 in0.0 mm 0.00 in/hr0.0 mm/hr 0.12 in3.0 mm
11:07 AM 51.8°F11.0°C 48.7°F9.3°C 89% 7.1 mph N11.4 kmh N 17.4 mph28.0 kmh 29.52 in999.7 mb 0.00 in0.0 mm 0.00 in/hr0.0 mm/hr 0.12 in3.0 mm
11:06 AM 51.6°F10.9°C 48.2°F9.0°C 88% 7.4 mph N11.9 kmh N 17.4 mph28.0 kmh 29.52 in999.7 mb 0.00 in0.0 mm 0.00 in/hr0.0 mm/hr 0.12 in3.0 mm
11:05 AM 51.6°F10.9°C 48.2°F9.0°C 88% 7.0 mph N11.3 kmh N 17.4 mph28.0 kmh 29.52 in999.7 mb 0.00 in0.0 mm 0.00 in/hr0.0 mm/hr 0.12 in3.0 mm
11:04 AM 51.6°F10.9°C 48.2°F9.0°C 88% 6.8 mph N10.9 kmh N 17.4 mph28.0 kmh 29.52 in999.7 mb 0.00 in0.0 mm 0.00 in/hr0.0 mm/hr 0.12 in3.0 mm
11:03 AM 51.6°F10.9°C 47.9°F8.8°C 87% 6.3 mph N10.1 kmh N 17.4 mph28.0 kmh 29.52 in999.7 mb 0.00 in0.0 mm 0.00 in/hr0.0 mm/hr 0.12 in3.0 mm
11:02 AM 51.8°F11.0°C 47.8°F8.8°C 86% 6.4 mph N10.3 kmh N 17.4 mph28.0 kmh 29.52 in999.7 mb 0.00 in0.0 mm 0.00 in/hr0.0 mm/hr 0.12 in3.0 mm
11:01 AM 52.0°F11.1°C 48.2°F9.0°C 87% 6.1 mph N9.8 kmh N 17.4 mph28.0 kmh 29.52 in999.7 mb 0.00 in0.0 mm 0.00 in/hr0.0 mm/hr 0.12 in3.0 mm
11:00 AM 52.0°F11.1°C 48.2°F9.0°C 87% 5.2 mph N8.4 kmh N 17.4 mph28.0 kmh 29.52 in999.7 mb 0.00 in0.0 mm 0.00 in/hr0.0 mm/hr 0.12 in3.0 mm
10:59 AM 52.3°F11.3°C 48.6°F9.2°C 87% 4.4 mph NNE7.1 kmh NNE 12.1 mph19.5 kmh 29.52 in999.7 mb 0.00 in0.0 mm 0.00 in/hr0.0 mm/hr 0.12 in3.0 mm
10:58 AM 52.3°F11.3°C 48.6°F9.2°C 87% 5.1 mph NNE8.2 kmh NNE 13.0 mph20.9 kmh 29.52 in999.7 mb 0.00 in0.0 mm 0.00 in/hr0.0 mm/hr 0.12 in3.0 mm
10:57 AM 52.3°F11.3°C 48.0°F8.9°C 85% 5.3 mph NNE8.5 kmh NNE 13.0 mph20.9 kmh 29.52 in999.7 mb 0.00 in0.0 mm 0.00 in/hr0.0 mm/hr 0.12 in3.0 mm
10:56 AM 52.7°F11.5°C 49.6°F9.8°C 89% 4.7 mph NE7.6 kmh NE 13.0 mph20.9 kmh 29.52 in999.7 mb 0.00 in0.0 mm 0.00 in/hr0.0 mm/hr 0.12 in3.0 mm
10:55 AM 52.5°F11.4°C 49.1°F9.5°C 88% 4.7 mph NE7.6 kmh NE 13.0 mph20.9 kmh 29.52 in999.7 mb 0.00 in0.0 mm 0.00 in/hr0.0 mm/hr 0.12 in3.0 mm
10:54 AM 52.7°F11.5°C 49.6°F9.8°C 89% 4.7 mph NE7.6 kmh NE 13.0 mph20.9 kmh 29.52 in999.7 mb 0.00 in0.0 mm 0.00 in/hr0.0 mm/hr 0.12 in3.0 mm
10:53 AM 52.5°F11.4°C 49.4°F9.7°C 89% 4.9 mph NE7.9 kmh NE 13.0 mph20.9 kmh 29.52 in999.7 mb 0.00 in0.0 mm 0.00 in/hr0.0 mm/hr 0.12 in3.0 mm
10:52 AM 52.7°F11.5°C 49.3°F9.6°C 88% 4.9 mph NE7.9 kmh NE 13.0 mph20.9 kmh 29.52 in999.7 mb 0.00 in0.0 mm 0.00 in/hr0.0 mm/hr 0.12 in3.0 mm
10:51 AM 52.5°F11.4°C 49.7°F9.8°C 90% 4.9 mph NE7.9 kmh NE 13.0 mph20.9 kmh 29.52 in999.7 mb 0.00 in0.0 mm 0.00 in/hr0.0 mm/hr 0.12 in3.0 mm
10:50 AM 52.7°F11.5°C 49.6°F9.8°C 89% 5.3 mph NE8.5 kmh NE 13.0 mph20.9 kmh 29.52 in999.7 mb 0.00 in0.0 mm 0.00 in/hr0.0 mm/hr 0.12 in3.0 mm
10:49 AM 52.3°F11.3°C 49.2°F9.6°C 89% 5.0 mph NE8.0 kmh NE 13.0 mph20.9 kmh 29.52 in999.7 mb 0.00 in0.0 mm 0.00 in/hr0.0 mm/hr 0.12 in3.0 mm
10:48 AM 52.5°F11.4°C 49.7°F9.8°C 90% 4.2 mph NE6.8 kmh NE 13.0 mph20.9 kmh 29.52 in999.7 mb 0.00 in0.0 mm 0.00 in/hr0.0 mm/hr 0.12 in3.0 mm
10:47 AM 52.2°F11.2°C 49.6°F9.8°C 91% 4.1 mph NE6.6 kmh NE 8.3 mph13.4 kmh 29.52 in999.7 mb 0.00 in0.0 mm 0.00 in/hr0.0 mm/hr 0.12 in3.0 mm
10:46 AM 52.0°F11.1°C 49.4°F9.7°C 91% 4.6 mph NE7.4 kmh NE 9.8 mph15.8 kmh 29.52 in999.7 mb 0.00 in0.0 mm 0.00 in/hr0.0 mm/hr 0.12 in3.0 mm
10:45 AM 52.2°F11.2°C 49.6°F9.8°C 91% 5.0 mph NE8.0 kmh NE 9.8 mph15.8 kmh 29.52 in999.7 mb 0.00 in0.0 mm 0.00 in/hr0.0 mm/hr 0.12 in3.0 mm
10:44 AM 52.0°F11.1°C 49.7°F9.8°C 92% 5.3 mph NNE8.5 kmh NNE 9.8 mph15.8 kmh 29.52 in999.7 mb 0.00 in0.0 mm 0.00 in/hr0.0 mm/hr 0.12 in3.0 mm
10:43 AM 51.3°F10.7°C 49.0°F9.4°C 92% 5.6 mph NE9.0 kmh NE 11.4 mph18.3 kmh 29.52 in999.7 mb 0.00 in0.0 mm 0.00 in/hr0.0 mm/hr 0.12 in3.0 mm
10:42 AM 51.3°F10.7°C 49.0°F9.4°C 92% 6.2 mph NE10.0 kmh NE 11.4 mph18.3 kmh 29.52 in999.7 mb 0.00 in0.0 mm 0.00 in/hr0.0 mm/hr 0.12 in3.0 mm
10:41 AM 51.1°F10.6°C 49.1°F9.5°C 93% 6.5 mph NE10.5 kmh NE 11.4 mph18.3 kmh 29.52 in999.7 mb 0.00 in0.0 mm 0.00 in/hr0.0 mm/hr 0.12 in3.0 mm
10:40 AM 51.1°F10.6°C 49.4°F9.7°C 94% 6.9 mph NE11.1 kmh NE 11.4 mph18.3 kmh 29.52 in999.7 mb 0.00 in0.0 mm 0.00 in/hr0.0 mm/hr 0.12 in3.0 mm
10:39 AM 50.5°F10.3°C 48.6°F9.2°C 93% 7.6 mph NE12.2 kmh NE 11.4 mph18.3 kmh 29.52 in999.7 mb 0.00 in0.0 mm 0.00 in/hr0.0 mm/hr 0.12 in3.0 mm
10:38 AM 50.4°F10.2°C 48.1°F8.9°C 92% 8.2 mph NE13.2 kmh NE 11.4 mph18.3 kmh 29.52 in999.7 mb 0.00 in0.0 mm 0.00 in/hr0.0 mm/hr 0.12 in3.0 mm
10:37 AM 50.7°F10.4°C 48.2°F9.0°C 91% 8.8 mph NE14.2 kmh NE 11.4 mph18.3 kmh 29.52 in999.7 mb 0.00 in0.0 mm 0.00 in/hr0.0 mm/hr 0.12 in3.0 mm
10:36 AM 50.5°F10.3°C 48.0°F8.9°C 91% 8.9 mph NE14.3 kmh NE 11.4 mph18.3 kmh 29.52 in999.7 mb 0.00 in0.0 mm 0.00 in/hr0.0 mm/hr 0.12 in3.0 mm
10:35 AM 50.5°F10.3°C 48.3°F9.1°C 92% 9.1 mph NE14.6 kmh NE 11.4 mph18.3 kmh 29.52 in999.7 mb 0.00 in0.0 mm 0.00 in/hr0.0 mm/hr 0.12 in3.0 mm
10:34 AM 50.4°F10.2°C 47.8°F8.8°C 91% 9.2 mph NE14.8 kmh NE 11.4 mph18.3 kmh 29.52 in999.7 mb 0.00 in0.0 mm 0.00 in/hr0.0 mm/hr 0.12 in3.0 mm
10:33 AM 50.5°F10.3°C 48.3°F9.1°C 92% 9.0 mph NE14.5 kmh NE 11.4 mph18.3 kmh 29.52 in999.7 mb 0.00 in0.0 mm 0.00 in/hr0.0 mm/hr 0.12 in3.0 mm
10:32 AM 50.5°F10.3°C 48.3°F9.1°C 92% 9.3 mph NE15.0 kmh NE 11.4 mph18.3 kmh 29.52 in999.7 mb 0.00 in0.0 mm 0.00 in/hr0.0 mm/hr 0.12 in3.0 mm
10:31 AM 50.5°F10.3°C 48.3°F9.1°C 92% 9.1 mph NE14.6 kmh NE 13.0 mph20.9 kmh 29.52 in999.7 mb 0.00 in0.0 mm 0.00 in/hr0.0 mm/hr 0.12 in3.0 mm
10:30 AM 50.5°F10.3°C 48.6°F9.2°C 93% 9.3 mph NNE15.0 kmh NNE 13.0 mph20.9 kmh 29.52 in999.7 mb 0.00 in0.0 mm 0.00 in/hr0.0 mm/hr 0.12 in3.0 mm
10:29 AM 50.5°F10.3°C 48.3°F9.1°C 92% 9.1 mph NNE14.6 kmh NNE 13.0 mph20.9 kmh 29.52 in999.7 mb 0.00 in0.0 mm 0.00 in/hr0.0 mm/hr 0.12 in3.0 mm
10:28 AM 50.7°F10.4°C 48.5°F9.2°C 92% 8.7 mph NNE14.0 kmh NNE 13.0 mph20.9 kmh 29.52 in999.7 mb 0.00 in0.0 mm 0.00 in/hr0.0 mm/hr 0.12 in3.0 mm
10:27 AM 50.7°F10.4°C 48.2°F9.0°C 91% 8.0 mph NNE12.9 kmh NNE 13.0 mph20.9 kmh 29.52 in999.7 mb 0.00 in0.0 mm 0.00 in/hr0.0 mm/hr 0.12 in3.0 mm
10:26 AM 50.7°F10.4°C 47.9°F8.8°C 90% 7.8 mph NE12.6 kmh NE 13.0 mph20.9 kmh 29.52 in999.7 mb 0.00 in0.0 mm 0.00 in/hr0.0 mm/hr 0.12 in3.0 mm
10:25 AM 51.1°F10.6°C 48.5°F9.2°C 91% 6.8 mph NE10.9 kmh NE 13.0 mph20.9 kmh 29.52 in999.7 mb 0.00 in0.0 mm 0.00 in/hr0.0 mm/hr 0.12 in3.0 mm
10:24 AM 50.9°F10.5°C 48.7°F9.3°C 92% 6.2 mph NE10.0 kmh NE 13.0 mph20.9 kmh 29.52 in999.7 mb 0.00 in0.0 mm 0.00 in/hr0.0 mm/hr 0.12 in3.0 mm
10:23 AM 50.9°F10.5°C 48.4°F9.1°C 91% 6.3 mph NE10.1 kmh NE 13.0 mph20.9 kmh 29.52 in999.7 mb 0.00 in0.0 mm 0.00 in/hr0.0 mm/hr 0.12 in3.0 mm
10:22 AM 51.4°F10.8°C 48.9°F9.4°C 91% 6.1 mph NE9.8 kmh NE 13.0 mph20.9 kmh 29.52 in999.7 mb 0.00 in0.0 mm 0.00 in/hr0.0 mm/hr 0.12 in3.0 mm
10:21 AM 51.3°F10.7°C 48.7°F9.3°C 91% 6.1 mph NE9.8 kmh NE 13.0 mph20.9 kmh 29.52 in999.7 mb 0.00 in0.0 mm 0.00 in/hr0.0 mm/hr 0.12 in3.0 mm
10:20 AM 51.6°F10.9°C 49.4°F9.7°C 92% 5.7 mph NE9.2 kmh NE 12.1 mph19.5 kmh 29.52 in999.7 mb 0.00 in0.0 mm 0.00 in/hr0.0 mm/hr 0.12 in3.0 mm
10:19 AM 51.4°F10.8°C 49.5°F9.7°C 93% 5.6 mph ENE9.0 kmh ENE 12.1 mph19.5 kmh 29.52 in999.7 mb 0.00 in0.0 mm 0.00 in/hr0.0 mm/hr 0.12 in3.0 mm
10:18 AM 51.6°F10.9°C 49.7°F9.8°C 93% 5.5 mph ENE8.9 kmh ENE 12.1 mph19.5 kmh 29.52 in999.7 mb 0.00 in0.0 mm 0.00 in/hr0.0 mm/hr 0.12 in3.0 mm
10:17 AM 51.4°F10.8°C 49.5°F9.7°C 93% 5.4 mph NE8.7 kmh NE 12.1 mph19.5 kmh 29.52 in999.7 mb 0.00 in0.0 mm 0.00 in/hr0.0 mm/hr 0.12 in3.0 mm
10:16 AM 51.4°F10.8°C 49.5°F9.7°C 93% 5.5 mph NE8.9 kmh NE 12.1 mph19.5 kmh 29.52 in999.7 mb 0.00 in0.0 mm 0.00 in/hr0.0 mm/hr 0.12 in3.0 mm
10:15 AM 51.3°F10.7°C 49.3°F9.6°C 93% 6.5 mph NE10.5 kmh NE 13.6 mph21.9 kmh 29.52 in999.7 mb 0.00 in0.0 mm 0.00 in/hr0.0 mm/hr 0.12 in3.0 mm
10:14 AM 51.3°F10.7°C 49.3°F9.6°C 93% 7.3 mph NE11.7 kmh NE 13.6 mph21.9 kmh 29.52 in999.7 mb 0.00 in0.0 mm 0.00 in/hr0.0 mm/hr 0.12 in3.0 mm
10:13 AM 51.1°F10.6°C 48.8°F9.3°C 92% 7.6 mph NE12.2 kmh NE 13.6 mph21.9 kmh 29.52 in999.7 mb 0.00 in0.0 mm 0.00 in/hr0.0 mm/hr 0.12 in3.0 mm
10:12 AM 51.3°F10.7°C 49.0°F9.4°C 92% 7.1 mph NNE11.4 kmh NNE 13.6 mph21.9 kmh 29.52 in999.7 mb 0.00 in0.0 mm 0.00 in/hr0.0 mm/hr 0.12 in3.0 mm
10:11 AM 51.1°F10.6°C 49.1°F9.5°C 93% 6.8 mph NE10.9 kmh NE 13.6 mph21.9 kmh 29.52 in999.7 mb 0.00 in0.0 mm 0.00 in/hr0.0 mm/hr 0.12 in3.0 mm
10:10 AM 51.3°F10.7°C 49.9°F9.9°C 95% 6.9 mph NE11.1 kmh NE 13.6 mph21.9 kmh 29.53 in1000.0 mb 0.00 in0.0 mm 0.00 in/hr0.0 mm/hr 0.12 in3.0 mm
10:09 AM 50.9°F10.5°C 49.5°F9.7°C 95% 6.9 mph NE11.1 kmh NE 13.6 mph21.9 kmh 29.52 in999.7 mb 0.00 in0.0 mm 0.00 in/hr0.0 mm/hr 0.12 in3.0 mm
10:08 AM 50.7°F10.4°C 49.3°F9.6°C 95% 6.8 mph NE10.9 kmh NE 13.6 mph21.9 kmh 29.52 in999.7 mb 0.00 in0.0 mm 0.00 in/hr0.0 mm/hr 0.12 in3.0 mm
10:07 AM 50.5°F10.3°C 48.9°F9.4°C 94% 7.3 mph NE11.7 kmh NE 13.6 mph21.9 kmh 29.52 in999.7 mb 0.00 in0.0 mm 0.00 in/hr0.0 mm/hr 0.12 in3.0 mm
10:06 AM 50.4°F10.2°C 48.4°F9.1°C 93% 7.1 mph NE11.4 kmh NE 13.6 mph21.9 kmh 29.52 in999.7 mb 0.00 in0.0 mm 0.00 in/hr0.0 mm/hr 0.12 in3.0 mm
10:05 AM 50.4°F10.2°C 49.0°F9.4°C 95% 6.1 mph NE9.8 kmh NE 13.6 mph21.9 kmh 29.53 in1000.0 mb 0.00 in0.0 mm 0.00 in/hr0.0 mm/hr 0.12 in3.0 mm
10:04 AM 50.7°F10.4°C 49.6°F9.8°C 96% 5.5 mph ENE8.9 kmh ENE 9.2 mph14.8 kmh 29.52 in999.7 mb 0.00 in0.0 mm 0.00 in/hr0.0 mm/hr 0.12 in3.0 mm
10:03 AM 50.4°F10.2°C 49.5°F9.7°C 97% 5.5 mph E8.9 kmh E 9.2 mph14.8 kmh 29.52 in999.7 mb 0.00 in0.0 mm 0.00 in/hr0.0 mm/hr 0.12 in3.0 mm
10:02 AM 50.0°F10.0°C 49.2°F9.6°C 97% 5.5 mph E8.9 kmh E 9.2 mph14.8 kmh 29.52 in999.7 mb 0.00 in0.0 mm 0.00 in/hr0.0 mm/hr 0.12 in3.0 mm
10:01 AM 49.6°F9.8°C 48.8°F9.3°C 97% 5.4 mph ENE8.7 kmh ENE 9.2 mph14.8 kmh 29.52 in999.7 mb 0.00 in0.0 mm 0.00 in/hr0.0 mm/hr 0.12 in3.0 mm
10:00 AM 49.5°F9.7°C 48.6°F9.2°C 97% 5.1 mph ENE8.2 kmh ENE 8.3 mph13.4 kmh 29.52 in999.7 mb 0.00 in0.0 mm 0.00 in/hr0.0 mm/hr 0.12 in3.0 mm
09:59 AM 49.8°F9.9°C 49.0°F9.4°C 97% 5.1 mph E8.2 kmh E 8.3 mph13.4 kmh 29.52 in999.7 mb 0.00 in0.0 mm 0.00 in/hr0.0 mm/hr 0.12 in3.0 mm
09:58 AM 49.5°F9.7°C 48.6°F9.2°C 97% 5.4 mph E8.7 kmh E 9.2 mph14.8 kmh 29.52 in999.7 mb 0.00 in0.0 mm 0.00 in/hr0.0 mm/hr 0.12 in3.0 mm
09:57 AM 49.5°F9.7°C 48.9°F9.4°C 98% 5.4 mph SE8.7 kmh SE 9.2 mph14.8 kmh 29.52 in999.7 mb 0.00 in0.0 mm 0.00 in/hr0.0 mm/hr 0.12 in3.0 mm
09:56 AM 49.3°F9.6°C 49.0°F9.4°C 99% 5.5 mph E8.9 kmh E 9.2 mph14.8 kmh 29.52 in999.7 mb 0.00 in0.0 mm 0.00 in/hr0.0 mm/hr 0.12 in3.0 mm
09:55 AM 49.1°F9.5°C 48.8°F9.3°C 99% 5.7 mph E9.2 kmh E 9.2 mph14.8 kmh 29.52 in999.7 mb 0.00 in0.0 mm 0.00 in/hr0.0 mm/hr 0.12 in3.0 mm
09:54 AM 48.9°F9.4°C 48.7°F9.3°C 99% 6.0 mph E9.7 kmh E 9.2 mph14.8 kmh 29.52 in999.7 mb 0.00 in0.0 mm 0.00 in/hr0.0 mm/hr 0.12 in3.0 mm
09:53 AM 49.1°F9.5°C 48.8°F9.3°C 99% 5.7 mph ENE9.2 kmh ENE 9.2 mph14.8 kmh 29.52 in999.7 mb 0.00 in0.0 mm 0.00 in/hr0.0 mm/hr 0.12 in3.0 mm
09:52 AM 48.7°F9.3°C 48.5°F9.2°C 99% 5.7 mph NE9.2 kmh NE 9.2 mph14.8 kmh 29.52 in999.7 mb 0.00 in0.0 mm 0.00 in/hr0.0 mm/hr 0.12 in3.0 mm
09:51 AM 48.6°F9.2°C 48.3°F9.1°C 99% 6.1 mph NE9.8 kmh NE 9.8 mph15.8 kmh 29.52 in999.7 mb 0.00 in0.0 mm 0.00 in/hr0.0 mm/hr 0.12 in3.0 mm
09:50 AM 48.7°F9.3°C 48.5°F9.2°C 99% 6.4 mph N10.3 kmh N 9.8 mph15.8 kmh 29.52 in999.7 mb 0.01 in0.3 mm 0.00 in/hr0.0 mm/hr 0.12 in3.0 mm
09:49 AM 48.6°F9.2°C 48.3°F9.1°C 99% 6.1 mph N9.8 kmh N 9.8 mph15.8 kmh 29.52 in999.7 mb 0.01 in0.3 mm 0.00 in/hr0.0 mm/hr 0.12 in3.0 mm
09:48 AM 48.4°F9.1°C 48.1°F8.9°C 99% 5.6 mph N9.0 kmh N 9.8 mph15.8 kmh 29.52 in999.7 mb 0.01 in0.3 mm 0.00 in/hr0.0 mm/hr 0.12 in3.0 mm
09:47 AM 48.6°F9.2°C 48.3°F9.1°C 99% 5.3 mph N8.5 kmh N 9.8 mph15.8 kmh 29.52 in999.7 mb 0.01 in0.3 mm 0.00 in/hr0.0 mm/hr 0.12 in3.0 mm
09:46 AM 48.4°F9.1°C 48.1°F8.9°C 99% 5.6 mph N9.0 kmh N 9.8 mph15.8 kmh 29.52 in999.7 mb 0.01 in0.3 mm 0.00 in/hr0.0 mm/hr 0.12 in3.0 mm
09:45 AM 48.0°F8.9°C 47.8°F8.8°C 99% 5.9 mph N9.5 kmh N 9.8 mph15.8 kmh 29.52 in999.7 mb 0.01 in0.3 mm 0.00 in/hr0.0 mm/hr 0.12 in3.0 mm
09:44 AM 47.8°F8.8°C 47.6°F8.7°C 99% 5.6 mph N9.0 kmh N 9.8 mph15.8 kmh 29.52 in999.7 mb 0.01 in0.3 mm 0.00 in/hr0.0 mm/hr 0.12 in3.0 mm
09:43 AM 47.8°F8.8°C 47.6°F8.7°C 99% 5.6 mph N9.0 kmh N 9.8 mph15.8 kmh 29.52 in999.7 mb 0.01 in0.3 mm 0.00 in/hr0.0 mm/hr 0.12 in3.0 mm
09:42 AM 47.8°F8.8°C 47.6°F8.7°C 99% 5.3 mph N8.5 kmh N 9.8 mph15.8 kmh 29.53 in1000.0 mb 0.01 in0.3 mm 0.00 in/hr0.0 mm/hr 0.12 in3.0 mm
09:41 AM 47.8°F8.8°C 47.6°F8.7°C 99% 4.8 mph NNE7.7 kmh NNE 9.8 mph15.8 kmh 29.53 in1000.0 mb 0.01 in0.3 mm 0.00 in/hr0.0 mm/hr 0.12 in3.0 mm
09:40 AM 47.7°F8.7°C 47.4°F8.6°C 99% 4.6 mph NE7.4 kmh NE 9.8 mph15.8 kmh 29.53 in1000.0 mb 0.01 in0.3 mm 0.00 in/hr0.0 mm/hr 0.12 in3.0 mm
09:39 AM 47.7°F8.7°C 47.4°F8.6°C 99% 5.2 mph NE8.4 kmh NE 9.8 mph15.8 kmh 29.52 in999.7 mb 0.01 in0.3 mm 0.00 in/hr0.0 mm/hr 0.12 in3.0 mm
09:38 AM 47.7°F8.7°C 47.4°F8.6°C 99% 5.3 mph NE8.5 kmh NE 9.8 mph15.8 kmh 29.52 in999.7 mb 0.01 in0.3 mm 0.00 in/hr0.0 mm/hr 0.12 in3.0 mm
09:37 AM 47.7°F8.7°C 47.4°F8.6°C 99% 5.2 mph NE8.4 kmh NE 9.8 mph15.8 kmh 29.52 in999.7 mb 0.01 in0.3 mm 0.00 in/hr0.0 mm/hr 0.12 in3.0 mm
09:36 AM 47.7°F8.7°C 47.4°F8.6°C 99% 4.7 mph NE7.6 kmh NE 9.8 mph15.8 kmh 29.52 in999.7 mb 0.01 in0.3 mm 0.00 in/hr0.0 mm/hr 0.12 in3.0 mm
09:35 AM 47.7°F8.7°C 47.4°F8.6°C 99% 4.8 mph NE7.7 kmh NE 10.7 mph17.2 kmh 29.53 in1000.0 mb 0.01 in0.3 mm 0.00 in/hr0.0 mm/hr 0.12 in3.0 mm
09:34 AM 47.3°F8.5°C 47.0°F8.3°C 99% 5.1 mph NE8.2 kmh NE 10.7 mph17.2 kmh 29.53 in1000.0 mb 0.01 in0.3 mm 0.00 in/hr0.0 mm/hr 0.12 in3.0 mm
09:33 AM 47.5°F8.6°C 47.2°F8.4°C 99% 5.1 mph NE8.2 kmh NE 10.7 mph17.2 kmh 29.53 in1000.0 mb 0.01 in0.3 mm 0.00 in/hr0.0 mm/hr 0.12 in3.0 mm
09:32 AM 47.3°F8.5°C 47.0°F8.3°C 99% 5.3 mph NE8.5 kmh NE 10.7 mph17.2 kmh 29.53 in1000.0 mb 0.01 in0.3 mm 0.00 in/hr0.0 mm/hr 0.12 in3.0 mm
09:31 AM 47.5°F8.6°C 47.2°F8.4°C 99% 5.5 mph NE8.9 kmh NE 10.7 mph17.2 kmh 29.52 in999.7 mb 0.01 in0.3 mm 0.00 in/hr0.0 mm/hr 0.12 in3.0 mm
09:30 AM 47.1°F8.4°C 46.9°F8.3°C 99% 5.1 mph NE8.2 kmh NE 10.7 mph17.2 kmh 29.53 in1000.0 mb 0.01 in0.3 mm 0.00 in/hr0.0 mm/hr 0.12 in3.0 mm
09:29 AM 47.5°F8.6°C 47.2°F8.4°C 99% 4.3 mph NE6.9 kmh NE 10.7 mph17.2 kmh 29.53 in1000.0 mb 0.01 in0.3 mm 0.00 in/hr0.0 mm/hr 0.12 in3.0 mm
09:28 AM 47.5°F8.6°C 47.2°F8.4°C 99% 4.6 mph NE7.4 kmh NE 10.7 mph17.2 kmh 29.53 in1000.0 mb 0.01 in0.3 mm 0.00 in/hr0.0 mm/hr 0.12 in3.0 mm
09:27 AM 47.5°F8.6°C 47.2°F8.4°C 99% 5.2 mph NE8.4 kmh NE 10.7 mph17.2 kmh 29.52 in999.7 mb 0.01 in0.3 mm 0.00 in/hr0.0 mm/hr 0.12 in3.0 mm
09:26 AM 47.5°F8.6°C 47.2°F8.4°C 99% 5.3 mph NE8.5 kmh NE 10.7 mph17.2 kmh 29.52 in999.7 mb 0.01 in0.3 mm 0.00 in/hr0.0 mm/hr 0.12 in3.0 mm
09:25 AM 47.1°F8.4°C 46.9°F8.3°C 99% 4.9 mph NE7.9 kmh NE 10.7 mph17.2 kmh 29.53 in1000.0 mb 0.01 in0.3 mm 0.00 in/hr0.0 mm/hr 0.12 in3.0 mm
09:24 AM 47.7°F8.7°C 47.4°F8.6°C 99% 4.6 mph NE7.4 kmh NE 9.8 mph15.8 kmh 29.52 in999.7 mb 0.01 in0.3 mm 0.00 in/hr0.0 mm/hr 0.12 in3.0 mm
09:23 AM 47.3°F8.5°C 47.0°F8.3°C 99% 4.6 mph NNE7.4 kmh NNE 9.8 mph15.8 kmh 29.53 in1000.0 mb 0.01 in0.3 mm 0.00 in/hr0.0 mm/hr 0.12 in3.0 mm
09:22 AM 47.3°F8.5°C 47.0°F8.3°C 99% 4.7 mph NNE7.6 kmh NNE 9.8 mph15.8 kmh 29.53 in1000.0 mb 0.01 in0.3 mm 0.00 in/hr0.0 mm/hr 0.12 in3.0 mm
09:21 AM 47.3°F8.5°C 47.0°F8.3°C 99% 4.6 mph N7.4 kmh N 9.8 mph15.8 kmh 29.53 in1000.0 mb 0.01 in0.3 mm 0.00 in/hr0.0 mm/hr 0.12 in3.0 mm
09:20 AM 47.1°F8.4°C 46.9°F8.3°C 99% 5.1 mph N8.2 kmh N 9.8 mph15.8 kmh 29.53 in1000.0 mb 0.01 in0.3 mm 0.00 in/hr0.0 mm/hr 0.12 in3.0 mm
09:19 AM 47.3°F8.5°C 47.0°F8.3°C 99% 5.3 mph N8.5 kmh N 9.8 mph15.8 kmh 29.53 in1000.0 mb 0.01 in0.3 mm 0.00 in/hr0.0 mm/hr 0.12 in3.0 mm
09:18 AM 47.1°F8.4°C 46.9°F8.3°C 99% 5.3 mph N8.5 kmh N 9.8 mph15.8 kmh 29.53 in1000.0 mb 0.01 in0.3 mm 0.00 in/hr0.0 mm/hr 0.12 in3.0 mm
09:17 AM 47.3°F8.5°C 47.0°F8.3°C 99% 4.9 mph N7.9 kmh N 9.8 mph15.8 kmh 29.53 in1000.0 mb 0.01 in0.3 mm 0.00 in/hr0.0 mm/hr 0.12 in3.0 mm
09:16 AM 47.1°F8.4°C 46.9°F8.3°C 99% 5.1 mph N8.2 kmh N 9.2 mph14.8 kmh 29.53 in1000.0 mb 0.01 in0.3 mm 0.00 in/hr0.0 mm/hr 0.12 in3.0 mm
09:15 AM 46.9°F8.3°C 46.7°F8.2°C 99% 5.2 mph NNW8.4 kmh NNW 9.2 mph14.8 kmh 29.53 in1000.0 mb 0.01 in0.3 mm 0.00 in/hr0.0 mm/hr 0.12 in3.0 mm
09:14 AM 46.9°F8.3°C 46.7°F8.2°C 99% 5.1 mph N8.2 kmh N 9.2 mph14.8 kmh 29.53 in1000.0 mb 0.01 in0.3 mm 0.00 in/hr0.0 mm/hr 0.12 in3.0 mm
09:13 AM 46.9°F8.3°C 46.7°F8.2°C 99% 4.9 mph N7.9 kmh N 9.2 mph14.8 kmh 29.53 in1000.0 mb 0.01 in0.3 mm 0.00 in/hr0.0 mm/hr 0.12 in3.0 mm
09:12 AM 46.8°F8.2°C 46.5°F8.1°C 99% 4.8 mph N7.7 kmh N 9.2 mph14.8 kmh 29.53 in1000.0 mb 0.01 in0.3 mm 0.00 in/hr0.0 mm/hr 0.12 in3.0 mm
09:11 AM 46.9°F8.3°C 46.7°F8.2°C 99% 4.7 mph N7.6 kmh N 9.2 mph14.8 kmh 29.52 in999.7 mb 0.01 in0.3 mm 0.00 in/hr0.0 mm/hr 0.12 in3.0 mm
09:10 AM 46.9°F8.3°C 46.7°F8.2°C 99% 4.3 mph N6.9 kmh N 9.2 mph14.8 kmh 29.53 in1000.0 mb 0.01 in0.3 mm 0.00 in/hr0.0 mm/hr 0.12 in3.0 mm
09:09 AM 46.9°F8.3°C 46.7°F8.2°C 99% 4.2 mph N6.8 kmh N 9.2 mph14.8 kmh 29.53 in1000.0 mb 0.01 in0.3 mm 0.00 in/hr0.0 mm/hr 0.12 in3.0 mm
09:08 AM 46.9°F8.3°C 46.7°F8.2°C 99% 4.1 mph N6.6 kmh N 9.2 mph14.8 kmh 29.53 in1000.0 mb 0.01 in0.3 mm 0.00 in/hr0.0 mm/hr 0.12 in3.0 mm
09:07 AM 47.1°F8.4°C 46.9°F8.3°C 99% 4.0 mph N6.4 kmh N 9.2 mph14.8 kmh 29.53 in1000.0 mb 0.01 in0.3 mm 0.00 in/hr0.0 mm/hr 0.12 in3.0 mm
09:06 AM 46.8°F8.2°C 46.5°F8.1°C 99% 3.2 mph N5.1 kmh N 6.0 mph9.7 kmh 29.53 in1000.0 mb 0.01 in0.3 mm 0.00 in/hr0.0 mm/hr 0.12 in3.0 mm
09:05 AM 46.8°F8.2°C 46.5°F8.1°C 99% 3.1 mph NNE5.0 kmh NNE 6.0 mph9.7 kmh 29.53 in1000.0 mb 0.01 in0.3 mm 0.00 in/hr0.0 mm/hr 0.12 in3.0 mm
09:04 AM 46.8°F8.2°C 46.5°F8.1°C 99% 3.0 mph N4.8 kmh N 6.0 mph9.7 kmh 29.53 in1000.0 mb 0.01 in0.3 mm 0.00 in/hr0.0 mm/hr 0.12 in3.0 mm
09:03 AM 46.6°F8.1°C 46.3°F7.9°C 99% 2.9 mph NNE4.7 kmh NNE 6.0 mph9.7 kmh 29.53 in1000.0 mb 0.01 in0.3 mm 0.00 in/hr0.0 mm/hr 0.12 in3.0 mm
09:02 AM 46.6°F8.1°C 46.3°F7.9°C 99% 2.8 mph NNE4.5 kmh NNE 6.0 mph9.7 kmh 29.53 in1000.0 mb 0.01 in0.3 mm 0.00 in/hr0.0 mm/hr 0.12 in3.0 mm
09:01 AM 46.4°F8.0°C 46.1°F7.8°C 99% 2.4 mph NNE3.9 kmh NNE 6.0 mph9.7 kmh 29.53 in1000.0 mb 0.01 in0.3 mm 0.00 in/hr0.0 mm/hr 0.12 in3.0 mm
09:00 AM 46.4°F8.0°C 46.1°F7.8°C 99% 2.3 mph NE3.7 kmh NE 6.0 mph9.7 kmh 29.53 in1000.0 mb 0.01 in0.3 mm 0.00 in/hr0.0 mm/hr 0.12 in3.0 mm
08:59 AM 46.4°F8.0°C 46.1°F7.8°C 99% 2.4 mph NE3.9 kmh NE 6.0 mph9.7 kmh 29.53 in1000.0 mb 0.01 in0.3 mm 0.00 in/hr0.0 mm/hr 0.12 in3.0 mm
08:58 AM 46.2°F7.9°C 46.0°F7.8°C 99% 2.3 mph NE3.7 kmh NE 6.0 mph9.7 kmh 29.53 in1000.0 mb 0.01 in0.3 mm 0.00 in/hr0.0 mm/hr 0.12 in3.0 mm
08:57 AM 46.2°F7.9°C 46.0°F7.8°C 99% 2.2 mph ENE3.5 kmh ENE 3.8 mph6.1 kmh 29.53 in1000.0 mb 0.01 in0.3 mm 0.00 in/hr0.0 mm/hr 0.12 in3.0 mm
08:56 AM 46.2°F7.9°C 46.0°F7.8°C 99% 2.5 mph ENE4.0 kmh ENE 5.4 mph8.7 kmh 29.53 in1000.0 mb 0.01 in0.3 mm 0.00 in/hr0.0 mm/hr 0.12 in3.0 mm
08:55 AM 46.2°F7.9°C 46.0°F7.8°C 99% 2.5 mph E4.0 kmh E 5.4 mph8.7 kmh 29.53 in1000.0 mb 0.01 in0.3 mm 0.00 in/hr0.0 mm/hr 0.12 in3.0 mm
08:54 AM 46.2°F7.9°C 46.0°F7.8°C 99% 2.7 mph E4.3 kmh E 5.4 mph8.7 kmh 29.53 in1000.0 mb 0.01 in0.3 mm 0.00 in/hr0.0 mm/hr 0.12 in3.0 mm
08:53 AM 46.0°F7.8°C 45.8°F7.7°C 99% 3.0 mph E4.8 kmh E 5.4 mph8.7 kmh 29.53 in1000.0 mb 0.01 in0.3 mm 0.00 in/hr0.0 mm/hr 0.12 in3.0 mm
08:52 AM 46.2°F7.9°C 46.0°F7.8°C 99% 3.2 mph E5.1 kmh E 5.4 mph8.7 kmh 29.54 in1000.3 mb 0.01 in0.3 mm 0.00 in/hr0.0 mm/hr 0.12 in3.0 mm
08:51 AM 46.0°F7.8°C 45.8°F7.7°C 99% 3.7 mph E6.0 kmh E 5.4 mph8.7 kmh 29.54 in1000.3 mb 0.01 in0.3 mm 0.60 in/hr15.2 mm/hr 0.12 in3.0 mm
08:50 AM 46.2°F7.9°C 46.0°F7.8°C 99% 3.9 mph E6.3 kmh E 5.4 mph8.7 kmh 29.54 in1000.3 mb 0.00 in0.0 mm 0.00 in/hr0.0 mm/hr 0.11 in2.8 mm
08:49 AM 46.0°F7.8°C 45.8°F7.7°C 99% 4.0 mph E6.4 kmh E 5.4 mph8.7 kmh 29.54 in1000.3 mb 0.00 in0.0 mm 0.00 in/hr0.0 mm/hr 0.11 in2.8 mm
08:48 AM 46.0°F7.8°C 45.8°F7.7°C 99% 4.4 mph ENE7.1 kmh ENE 8.3 mph13.4 kmh 29.53 in1000.0 mb 0.00 in0.0 mm 0.00 in/hr0.0 mm/hr 0.11 in2.8 mm
08:47 AM 46.2°F7.9°C 46.0°F7.8°C 99% 4.9 mph ENE7.9 kmh ENE 8.3 mph13.4 kmh 29.54 in1000.3 mb 0.00 in0.0 mm 0.00 in/hr0.0 mm/hr 0.11 in2.8 mm
08:46 AM 46.4°F8.0°C 46.1°F7.8°C 99% 5.0 mph NE8.0 kmh NE 8.3 mph13.4 kmh 29.54 in1000.3 mb 0.00 in0.0 mm 0.00 in/hr0.0 mm/hr 0.11 in2.8 mm
08:45 AM 46.0°F7.8°C 45.8°F7.7°C 99% 5.0 mph NE8.0 kmh NE 8.3 mph13.4 kmh 29.54 in1000.3 mb 0.00 in0.0 mm 0.00 in/hr0.0 mm/hr 0.11 in2.8 mm
08:44 AM 46.2°F7.9°C 46.0°F7.8°C 99% 4.8 mph NE7.7 kmh NE 8.3 mph13.4 kmh 29.54 in1000.3 mb 0.00 in0.0 mm 0.00 in/hr0.0 mm/hr 0.11 in2.8 mm
08:43 AM 46.2°F7.9°C 46.0°F7.8°C 99% 4.9 mph NE7.9 kmh NE 8.3 mph13.4 kmh 29.54 in1000.3 mb 0.00 in0.0 mm 0.00 in/hr0.0 mm/hr 0.11 in2.8 mm
08:42 AM 46.2°F7.9°C 46.0°F7.8°C 99% 4.9 mph NE7.9 kmh NE 8.3 mph13.4 kmh 29.54 in1000.3 mb 0.00 in0.0 mm 0.00 in/hr0.0 mm/hr 0.11 in2.8 mm
08:41 AM 46.2°F7.9°C 46.0°F7.8°C 99% 4.8 mph NE7.7 kmh NE 8.3 mph13.4 kmh 29.54 in1000.3 mb 0.00 in0.0 mm 0.00 in/hr0.0 mm/hr 0.11 in2.8 mm
08:40 AM 46.0°F7.8°C 45.8°F7.7°C 99% 4.8 mph NE7.7 kmh NE 8.3 mph13.4 kmh 29.54 in1000.3 mb 0.00 in0.0 mm 0.00 in/hr0.0 mm/hr 0.11 in2.8 mm
08:39 AM 46.0°F7.8°C 45.8°F7.7°C 99% 4.7 mph NE7.6 kmh NE 8.3 mph13.4 kmh 29.54 in1000.3 mb 0.00 in0.0 mm 0.00 in/hr0.0 mm/hr 0.11 in2.8 mm
08:38 AM 45.7°F7.6°C 45.4°F7.4°C 99% 4.2 mph NE6.8 kmh NE 8.3 mph13.4 kmh 29.54 in1000.3 mb 0.00 in0.0 mm 0.00 in/hr0.0 mm/hr 0.11 in2.8 mm
08:37 AM 46.2°F7.9°C 46.0°F7.8°C 99% 3.7 mph ENE6.0 kmh ENE 6.9 mph11.1 kmh 29.54 in1000.3 mb 0.00 in0.0 mm 0.00 in/hr0.0 mm/hr 0.11 in2.8 mm
08:36 AM 46.2°F7.9°C 46.0°F7.8°C 99% 3.5 mph E5.6 kmh E 6.9 mph11.1 kmh 29.54 in1000.3 mb 0.00 in0.0 mm 0.00 in/hr0.0 mm/hr 0.11 in2.8 mm
08:35 AM 46.0°F7.8°C 45.8°F7.7°C 99% 3.6 mph ENE5.8 kmh ENE 6.9 mph11.1 kmh 29.54 in1000.3 mb 0.00 in0.0 mm 0.00 in/hr0.0 mm/hr 0.11 in2.8 mm
08:34 AM 46.0°F7.8°C 45.8°F7.7°C 99% 4.1 mph NE6.6 kmh NE 7.6 mph12.2 kmh 29.54 in1000.3 mb 0.01 in0.3 mm 0.00 in/hr0.0 mm/hr 0.11 in2.8 mm
08:33 AM 46.2°F7.9°C 46.0°F7.8°C 99% 4.0 mph NE6.4 kmh NE 7.6 mph12.2 kmh 29.54 in1000.3 mb 0.01 in0.3 mm 0.00 in/hr0.0 mm/hr 0.11 in2.8 mm
08:32 AM 46.2°F7.9°C 46.0°F7.8°C 99% 3.9 mph NE6.3 kmh NE 7.6 mph12.2 kmh 29.54 in1000.3 mb 0.01 in0.3 mm 0.00 in/hr0.0 mm/hr 0.11 in2.8 mm
08:31 AM 45.9°F7.7°C 45.6°F7.6°C 99% 3.7 mph NE6.0 kmh NE 7.6 mph12.2 kmh 29.54 in1000.3 mb 0.01 in0.3 mm 0.00 in/hr0.0 mm/hr 0.11 in2.8 mm
08:30 AM 46.0°F7.8°C 45.8°F7.7°C 99% 3.4 mph NE5.5 kmh NE 7.6 mph12.2 kmh 29.54 in1000.3 mb 0.01 in0.3 mm 0.00 in/hr0.0 mm/hr 0.11 in2.8 mm
08:29 AM 45.9°F7.7°C 45.6°F7.6°C 99% 3.1 mph NE5.0 kmh NE 7.6 mph12.2 kmh 29.54 in1000.3 mb 0.01 in0.3 mm 0.00 in/hr0.0 mm/hr 0.11 in2.8 mm
08:28 AM 45.9°F7.7°C 45.6°F7.6°C 99% 2.9 mph NE4.7 kmh NE 7.6 mph12.2 kmh 29.54 in1000.3 mb 0.01 in0.3 mm 0.00 in/hr0.0 mm/hr 0.11 in2.8 mm
08:27 AM 45.5°F7.5°C 45.2°F7.3°C 99% 3.1 mph NE5.0 kmh NE 7.6 mph12.2 kmh 29.54 in1000.3 mb 0.01 in0.3 mm 0.00 in/hr0.0 mm/hr 0.11 in2.8 mm
08:26 AM 45.7°F7.6°C 45.4°F7.4°C 99% 3.4 mph NE5.5 kmh NE 7.6 mph12.2 kmh 29.54 in1000.3 mb 0.01 in0.3 mm 0.00 in/hr0.0 mm/hr 0.11 in2.8 mm
08:25 AM 45.9°F7.7°C 45.6°F7.6°C 99% 3.2 mph NE5.1 kmh NE 7.6 mph12.2 kmh 29.53 in1000.0 mb 0.01 in0.3 mm 0.00 in/hr0.0 mm/hr 0.11 in2.8 mm
08:24 AM 45.9°F7.7°C 45.6°F7.6°C 99% 2.5 mph NE4.0 kmh NE 7.6 mph12.2 kmh 29.54 in1000.3 mb 0.01 in0.3 mm 0.00 in/hr0.0 mm/hr 0.11 in2.8 mm
08:23 AM 45.7°F7.6°C 45.4°F7.4°C 99% 2.2 mph NE3.5 kmh NE 6.9 mph11.1 kmh 29.54 in1000.3 mb 0.01 in0.3 mm 0.00 in/hr0.0 mm/hr 0.11 in2.8 mm
08:22 AM 45.7°F7.6°C 45.4°F7.4°C 99% 2.0 mph NE3.2 kmh NE 6.9 mph11.1 kmh 29.54 in1000.3 mb 0.01 in0.3 mm 0.00 in/hr0.0 mm/hr 0.11 in2.8 mm
08:21 AM 45.9°F7.7°C 45.6°F7.6°C 99% 2.2 mph NE3.5 kmh NE 6.9 mph11.1 kmh 29.54 in1000.3 mb 0.01 in0.3 mm 0.00 in/hr0.0 mm/hr 0.11 in2.8 mm
08:20 AM 45.7°F7.6°C 45.4°F7.4°C 99% 3.1 mph NE5.0 kmh NE 9.8 mph15.8 kmh 29.54 in1000.3 mb 0.01 in0.3 mm 0.00 in/hr0.0 mm/hr 0.11 in2.8 mm
08:19 AM 45.9°F7.7°C 45.6°F7.6°C 99% 3.4 mph NE5.5 kmh NE 9.8 mph15.8 kmh 29.54 in1000.3 mb 0.01 in0.3 mm 0.00 in/hr0.0 mm/hr 0.11 in2.8 mm
08:18 AM 45.7°F7.6°C 45.4°F7.4°C 99% 3.7 mph NE6.0 kmh NE 9.8 mph15.8 kmh 29.54 in1000.3 mb 0.01 in0.3 mm 0.00 in/hr0.0 mm/hr 0.11 in2.8 mm
08:17 AM 45.3°F7.4°C 45.1°F7.3°C 99% 3.7 mph NNE6.0 kmh NNE 9.8 mph15.8 kmh 29.54 in1000.3 mb 0.01 in0.3 mm 0.00 in/hr0.0 mm/hr 0.11 in2.8 mm
08:16 AM 45.5°F7.5°C 45.2°F7.3°C 99% 3.2 mph NE5.1 kmh NE 9.8 mph15.8 kmh 29.54 in1000.3 mb 0.01 in0.3 mm 0.00 in/hr0.0 mm/hr 0.11 in2.8 mm
08:15 AM 45.5°F7.5°C 45.2°F7.3°C 99% 3.2 mph NE5.1 kmh NE 9.8 mph15.8 kmh 29.54 in1000.3 mb 0.01 in0.3 mm 0.00 in/hr0.0 mm/hr 0.11 in2.8 mm
08:14 AM 45.9°F7.7°C 45.6°F7.6°C 99% 3.4 mph NE5.5 kmh NE 9.8 mph15.8 kmh 29.54 in1000.3 mb 0.01 in0.3 mm 0.00 in/hr0.0 mm/hr 0.11 in2.8 mm
08:13 AM 45.7°F7.6°C 45.4°F7.4°C 99% 3.5 mph NE5.6 kmh NE 9.8 mph15.8 kmh 29.54 in1000.3 mb 0.01 in0.3 mm 0.00 in/hr0.0 mm/hr 0.11 in2.8 mm
08:12 AM 45.5°F7.5°C 45.2°F7.3°C 99% 3.7 mph NE6.0 kmh NE 9.8 mph15.8 kmh 29.54 in1000.3 mb 0.01 in0.3 mm 0.00 in/hr0.0 mm/hr 0.11 in2.8 mm
08:11 AM 45.5°F7.5°C 45.2°F7.3°C 99% 3.6 mph NE5.8 kmh NE 9.8 mph15.8 kmh 29.54 in1000.3 mb 0.01 in0.3 mm 0.00 in/hr0.0 mm/hr 0.11 in2.8 mm
08:10 AM 45.3°F7.4°C 45.1°F7.3°C 99% 3.0 mph ENE4.8 kmh ENE 5.4 mph8.7 kmh 29.54 in1000.3 mb 0.01 in0.3 mm 0.00 in/hr0.0 mm/hr 0.11 in2.8 mm
08:09 AM 45.5°F7.5°C 45.2°F7.3°C 99% 3.3 mph NE5.3 kmh NE 9.2 mph14.8 kmh 29.54 in1000.3 mb 0.01 in0.3 mm 0.00 in/hr0.0 mm/hr 0.11 in2.8 mm
08:08 AM 45.3°F7.4°C 45.1°F7.3°C 99% 4.0 mph NE6.4 kmh NE 9.8 mph15.8 kmh 29.54 in1000.3 mb 0.01 in0.3 mm 0.00 in/hr0.0 mm/hr 0.11 in2.8 mm
08:07 AM 45.5°F7.5°C 45.2°F7.3°C 99% 3.5 mph NE5.6 kmh NE 9.8 mph15.8 kmh 29.54 in1000.3 mb 0.01 in0.3 mm 0.00 in/hr0.0 mm/hr 0.11 in2.8 mm
08:06 AM 45.7°F7.6°C 45.4°F7.4°C 99% 3.8 mph NE6.1 kmh NE 9.8 mph15.8 kmh 29.54 in1000.3 mb 0.01 in0.3 mm 0.00 in/hr0.0 mm/hr 0.11 in2.8 mm
08:05 AM 45.5°F7.5°C 45.2°F7.3°C 99% 4.1 mph NE6.6 kmh NE 9.8 mph15.8 kmh 29.54 in1000.3 mb 0.01 in0.3 mm 0.00 in/hr0.0 mm/hr 0.11 in2.8 mm
08:04 AM 45.5°F7.5°C 45.2°F7.3°C 99% 4.9 mph NE7.9 kmh NE 9.8 mph15.8 kmh 29.55 in1000.7 mb 0.01 in0.3 mm 0.00 in/hr0.0 mm/hr 0.11 in2.8 mm
08:03 AM 45.7°F7.6°C 45.4°F7.4°C 99% 5.1 mph NE8.2 kmh NE 9.8 mph15.8 kmh 29.55 in1000.7 mb 0.01 in0.3 mm 0.00 in/hr0.0 mm/hr 0.11 in2.8 mm
08:02 AM 45.9°F7.7°C 45.6°F7.6°C 99% 5.2 mph NNE8.4 kmh NNE 9.8 mph15.8 kmh 29.54 in1000.3 mb 0.01 in0.3 mm 0.00 in/hr0.0 mm/hr 0.11 in2.8 mm
08:01 AM 45.5°F7.5°C 45.2°F7.3°C 99% 5.2 mph NNE8.4 kmh NNE 9.8 mph15.8 kmh 29.54 in1000.3 mb 0.01 in0.3 mm 0.00 in/hr0.0 mm/hr 0.11 in2.8 mm
08:00 AM 45.3°F7.4°C 45.1°F7.3°C 99% 5.5 mph NE8.9 kmh NE 9.8 mph15.8 kmh 29.54 in1000.3 mb 0.01 in0.3 mm 0.00 in/hr0.0 mm/hr 0.11 in2.8 mm
07:59 AM 45.5°F7.5°C 45.2°F7.3°C 99% 5.7 mph NNE9.2 kmh NNE 9.8 mph15.8 kmh 29.54 in1000.3 mb 0.01 in0.3 mm 0.00 in/hr0.0 mm/hr 0.11 in2.8 mm
07:58 AM 45.3°F7.4°C 45.1°F7.3°C 99% 5.4 mph NNE8.7 kmh NNE 9.8 mph15.8 kmh 29.54 in1000.3 mb 0.01 in0.3 mm 0.00 in/hr0.0 mm/hr 0.11 in2.8 mm
07:57 AM 45.5°F7.5°C 45.2°F7.3°C 99% 5.7 mph NNE9.2 kmh NNE 9.8 mph15.8 kmh 29.54 in1000.3 mb 0.01 in0.3 mm 0.00 in/hr0.0 mm/hr 0.11 in2.8 mm
07:56 AM 45.5°F7.5°C 45.2°F7.3°C 99% 5.5 mph NNE8.9 kmh NNE 9.8 mph15.8 kmh 29.54 in1000.3 mb 0.02 in0.5 mm 0.00 in/hr0.0 mm/hr 0.11 in2.8 mm
07:55 AM 45.3°F7.4°C 45.1°F7.3°C 99% 5.7 mph NNE9.2 kmh NNE 9.8 mph15.8 kmh 29.54 in1000.3 mb 0.02 in0.5 mm 0.00 in/hr0.0 mm/hr 0.11 in2.8 mm
07:54 AM 45.3°F7.4°C 45.1°F7.3°C 99% 5.8 mph NNE9.3 kmh NNE 13.6 mph21.9 kmh 29.54 in1000.3 mb 0.02 in0.5 mm 0.00 in/hr0.0 mm/hr 0.11 in2.8 mm
07:53 AM 45.3°F7.4°C 45.1°F7.3°C 99% 6.3 mph N10.1 kmh N 13.6 mph21.9 kmh 29.54 in1000.3 mb 0.02 in0.5 mm 0.00 in/hr0.0 mm/hr 0.11 in2.8 mm
07:52 AM 45.5°F7.5°C 45.2°F7.3°C 99% 7.1 mph NNE11.4 kmh NNE 13.6 mph21.9 kmh 29.54 in1000.3 mb 0.02 in0.5 mm 0.00 in/hr0.0 mm/hr 0.11 in2.8 mm
07:51 AM 45.3°F7.4°C 45.1°F7.3°C 99% 7.1 mph NNE11.4 kmh NNE 13.6 mph21.9 kmh 29.54 in1000.3 mb 0.02 in0.5 mm 0.00 in/hr0.0 mm/hr 0.11 in2.8 mm
07:50 AM 45.3°F7.4°C 45.1°F7.3°C 99% 7.0 mph NNE11.3 kmh NNE 13.6 mph21.9 kmh 29.54 in1000.3 mb 0.02 in0.5 mm 0.00 in/hr0.0 mm/hr 0.11 in2.8 mm
07:49 AM 45.1°F7.3°C 44.9°F7.2°C 99% 7.0 mph NE11.3 kmh NE 13.6 mph21.9 kmh 29.54 in1000.3 mb 0.02 in0.5 mm 0.00 in/hr0.0 mm/hr 0.11 in2.8 mm
07:48 AM 45.3°F7.4°C 45.1°F7.3°C 99% 6.7 mph NE10.8 kmh NE 13.6 mph21.9 kmh 29.54 in1000.3 mb 0.02 in0.5 mm 0.00 in/hr0.0 mm/hr 0.11 in2.8 mm
07:47 AM 44.8°F7.1°C 44.5°F6.9°C 99% 6.9 mph NE11.1 kmh NE 13.6 mph21.9 kmh 29.54 in1000.3 mb 0.02 in0.5 mm 0.00 in/hr0.0 mm/hr 0.11 in2.8 mm
07:46 AM 45.3°F7.4°C 45.1°F7.3°C 99% 7.5 mph NE12.1 kmh NE 13.6 mph21.9 kmh 29.54 in1000.3 mb 0.02 in0.5 mm 0.00 in/hr0.0 mm/hr 0.11 in2.8 mm
07:45 AM 45.3°F7.4°C 45.1°F7.3°C 99% 7.5 mph NE12.1 kmh NE 13.6 mph21.9 kmh 29.54 in1000.3 mb 0.02 in0.5 mm 0.00 in/hr0.0 mm/hr 0.11 in2.8 mm
07:44 AM 45.1°F7.3°C 44.9°F7.2°C 99% 7.4 mph NNE11.9 kmh NNE 13.6 mph21.9 kmh 29.54 in1000.3 mb 0.02 in0.5 mm 0.00 in/hr0.0 mm/hr 0.11 in2.8 mm
07:43 AM 45.3°F7.4°C 45.1°F7.3°C 99% 7.1 mph NE11.4 kmh NE 13.0 mph20.9 kmh 29.54 in1000.3 mb 0.02 in0.5 mm 0.00 in/hr0.0 mm/hr 0.11 in2.8 mm
07:42 AM 45.3°F7.4°C 45.1°F7.3°C 99% 6.2 mph NNE10.0 kmh NNE 9.8 mph15.8 kmh 29.54 in1000.3 mb 0.02 in0.5 mm 0.00 in/hr0.0 mm/hr 0.11 in2.8 mm
07:41 AM 45.3°F7.4°C 45.1°F7.3°C 99% 6.3 mph NNE10.1 kmh NNE 9.8 mph15.8 kmh 29.55 in1000.7 mb 0.02 in0.5 mm 0.00 in/hr0.0 mm/hr 0.11 in2.8 mm
07:40 AM 45.1°F7.3°C 44.9°F7.2°C 99% 6.1 mph NNE9.8 kmh NNE 9.8 mph15.8 kmh 29.54 in1000.3 mb 0.02 in0.5 mm 0.00 in/hr0.0 mm/hr 0.11 in2.8 mm
07:39 AM 45.3°F7.4°C 45.1°F7.3°C 99% 5.4 mph NNE8.7 kmh NNE 9.8 mph15.8 kmh 29.54 in1000.3 mb 0.02 in0.5 mm 0.00 in/hr0.0 mm/hr 0.11 in2.8 mm
07:38 AM 45.1°F7.3°C 44.9°F7.2°C 99% 5.3 mph NNE8.5 kmh NNE 9.8 mph15.8 kmh 29.54 in1000.3 mb 0.02 in0.5 mm 0.00 in/hr0.0 mm/hr 0.11 in2.8 mm
07:37 AM 45.1°F7.3°C 44.9°F7.2°C 99% 5.1 mph NNE8.2 kmh NNE 9.8 mph15.8 kmh 29.54 in1000.3 mb 0.02 in0.5 mm 0.00 in/hr0.0 mm/hr 0.11 in2.8 mm
07:36 AM 45.1°F7.3°C 44.9°F7.2°C 99% 4.5 mph NNE7.2 kmh NNE 9.8 mph15.8 kmh 29.54 in1000.3 mb 0.02 in0.5 mm 0.60 in/hr15.2 mm/hr 0.11 in2.8 mm
07:35 AM 45.0°F7.2°C 44.7°F7.1°C 99% 4.4 mph NNE7.1 kmh NNE 9.8 mph15.8 kmh 29.54 in1000.3 mb 0.01 in0.3 mm 0.00 in/hr0.0 mm/hr 0.09 in2.3 mm
07:34 AM 45.1°F7.3°C 44.9°F7.2°C 99% 4.2 mph NE6.8 kmh NE 9.8 mph15.8 kmh 29.54 in1000.3 mb 0.01 in0.3 mm 0.00 in/hr0.0 mm/hr 0.09 in2.3 mm
07:33 AM 45.1°F7.3°C 44.9°F7.2°C 99% 4.1 mph NE6.6 kmh NE 9.8 mph15.8 kmh 29.54 in1000.3 mb 0.01 in0.3 mm 0.00 in/hr0.0 mm/hr 0.09 in2.3 mm
07:32 AM 45.0°F7.2°C 44.7°F7.1°C 99% 4.2 mph ENE6.8 kmh ENE 9.8 mph15.8 kmh 29.54 in1000.3 mb 0.01 in0.3 mm 0.00 in/hr0.0 mm/hr 0.09 in2.3 mm
07:31 AM 45.0°F7.2°C 44.7°F7.1°C 99% 4.6 mph NE7.4 kmh NE 11.4 mph18.3 kmh 29.54 in1000.3 mb 0.01 in0.3 mm 0.00 in/hr0.0 mm/hr 0.09 in2.3 mm
07:30 AM 45.1°F7.3°C 44.9°F7.2°C 99% 5.4 mph NE8.7 kmh NE 11.4 mph18.3 kmh 29.54 in1000.3 mb 0.01 in0.3 mm 0.00 in/hr0.0 mm/hr 0.09 in2.3 mm
07:29 AM 45.1°F7.3°C 44.9°F7.2°C 99% 5.9 mph NE9.5 kmh NE 11.4 mph18.3 kmh 29.54 in1000.3 mb 0.01 in0.3 mm 0.00 in/hr0.0 mm/hr 0.09 in2.3 mm
07:28 AM 45.1°F7.3°C 44.9°F7.2°C 99% 6.5 mph NNE10.5 kmh NNE 11.4 mph18.3 kmh 29.54 in1000.3 mb 0.01 in0.3 mm 0.00 in/hr0.0 mm/hr 0.09 in2.3 mm
07:27 AM 45.1°F7.3°C 44.9°F7.2°C 99% 6.1 mph NNE9.8 kmh NNE 11.4 mph18.3 kmh 29.55 in1000.7 mb 0.01 in0.3 mm 0.00 in/hr0.0 mm/hr 0.09 in2.3 mm
07:26 AM 45.1°F7.3°C 44.9°F7.2°C 99% 5.8 mph NNE9.3 kmh NNE 11.4 mph18.3 kmh 29.54 in1000.3 mb 0.01 in0.3 mm 0.00 in/hr0.0 mm/hr 0.09 in2.3 mm
07:25 AM 45.1°F7.3°C 44.9°F7.2°C 99% 5.4 mph NNE8.7 kmh NNE 11.4 mph18.3 kmh 29.54 in1000.3 mb 0.01 in0.3 mm 0.00 in/hr0.0 mm/hr 0.09 in2.3 mm
07:24 AM 45.1°F7.3°C 44.9°F7.2°C 99% 4.7 mph NNE7.6 kmh NNE 11.4 mph18.3 kmh 29.54 in1000.3 mb 0.01 in0.3 mm 0.00 in/hr0.0 mm/hr 0.09 in2.3 mm
07:23 AM 45.0°F7.2°C 44.7°F7.1°C 99% 4.4 mph N7.1 kmh N 11.4 mph18.3 kmh 29.54 in1000.3 mb 0.01 in0.3 mm 0.00 in/hr0.0 mm/hr 0.09 in2.3 mm
07:22 AM 45.0°F7.2°C 44.7°F7.1°C 99% 4.3 mph NNE6.9 kmh NNE 11.4 mph18.3 kmh 29.54 in1000.3 mb 0.01 in0.3 mm 0.00 in/hr0.0 mm/hr 0.09 in2.3 mm
07:21 AM 45.0°F7.2°C 44.7°F7.1°C 99% 3.8 mph NNE6.1 kmh NNE 11.4 mph18.3 kmh 29.54 in1000.3 mb 0.01 in0.3 mm 0.00 in/hr0.0 mm/hr 0.09 in2.3 mm
07:20 AM 45.0°F7.2°C 44.7°F7.1°C 99% 3.0 mph NNE4.8 kmh NNE 8.3 mph13.4 kmh 29.54 in1000.3 mb 0.01 in0.3 mm 0.00 in/hr0.0 mm/hr 0.09 in2.3 mm
07:19 AM 45.0°F7.2°C 44.7°F7.1°C 99% 2.6 mph NE4.2 kmh NE 8.3 mph13.4 kmh 29.54 in1000.3 mb 0.01 in0.3 mm 0.00 in/hr0.0 mm/hr 0.09 in2.3 mm
07:18 AM 45.0°F7.2°C 44.7°F7.1°C 99% 2.0 mph E3.2 kmh E 3.8 mph6.1 kmh 29.55 in1000.7 mb 0.02 in0.5 mm 0.00 in/hr0.0 mm/hr 0.09 in2.3 mm
07:17 AM 45.0°F7.2°C 44.7°F7.1°C 99% 2.0 mph E3.2 kmh E 3.8 mph6.1 kmh 29.54 in1000.3 mb 0.02 in0.5 mm 0.00 in/hr0.0 mm/hr 0.09 in2.3 mm
07:16 AM 45.1°F7.3°C 44.9°F7.2°C 99% 2.0 mph E3.2 kmh E 3.8 mph6.1 kmh 29.55 in1000.7 mb 0.02 in0.5 mm 0.00 in/hr0.0 mm/hr 0.09 in2.3 mm
07:15 AM 44.8°F7.1°C 44.5°F6.9°C 99% 2.3 mph E3.7 kmh E 3.8 mph6.1 kmh 29.55 in1000.7 mb 0.02 in0.5 mm 0.00 in/hr0.0 mm/hr 0.09 in2.3 mm
07:14 AM 44.8°F7.1°C 44.5°F6.9°C 99% 2.5 mph ESE4.0 kmh ESE 3.8 mph6.1 kmh 29.55 in1000.7 mb 0.02 in0.5 mm 0.00 in/hr0.0 mm/hr 0.09 in2.3 mm
07:13 AM 45.0°F7.2°C 44.7°F7.1°C 99% 2.5 mph E4.0 kmh E 3.8 mph6.1 kmh 29.55 in1000.7 mb 0.02 in0.5 mm 0.00 in/hr0.0 mm/hr 0.09 in2.3 mm
07:12 AM 45.0°F7.2°C 44.7°F7.1°C 99% 2.8 mph ENE4.5 kmh ENE 6.9 mph11.1 kmh 29.55 in1000.7 mb 0.02 in0.5 mm 0.00 in/hr0.0 mm/hr 0.09 in2.3 mm
07:11 AM 45.0°F7.2°C 44.7°F7.1°C 99% 3.2 mph NE5.1 kmh NE 6.9 mph11.1 kmh 29.55 in1000.7 mb 0.02 in0.5 mm 0.00 in/hr0.0 mm/hr 0.09 in2.3 mm
07:10 AM 45.0°F7.2°C 44.7°F7.1°C 99% 3.6 mph NE5.8 kmh NE 6.9 mph11.1 kmh 29.55 in1000.7 mb 0.02 in0.5 mm 0.00 in/hr0.0 mm/hr 0.09 in2.3 mm
07:09 AM 45.0°F7.2°C 44.7°F7.1°C 99% 3.9 mph NNE6.3 kmh NNE 6.9 mph11.1 kmh 29.55 in1000.7 mb 0.02 in0.5 mm 0.00 in/hr0.0 mm/hr 0.09 in2.3 mm
07:08 AM 45.0°F7.2°C 44.7°F7.1°C 99% 4.1 mph NNE6.6 kmh NNE 6.9 mph11.1 kmh 29.55 in1000.7 mb 0.02 in0.5 mm 0.00 in/hr0.0 mm/hr 0.09 in2.3 mm
07:07 AM 45.1°F7.3°C 44.9°F7.2°C 99% 4.1 mph NNE6.6 kmh NNE 6.9 mph11.1 kmh 29.55 in1000.7 mb 0.02 in0.5 mm 0.00 in/hr0.0 mm/hr 0.09 in2.3 mm
07:06 AM 45.0°F7.2°C 44.7°F7.1°C 99% 4.0 mph NNE6.4 kmh NNE 6.9 mph11.1 kmh 29.55 in1000.7 mb 0.02 in0.5 mm 0.00 in/hr0.0 mm/hr 0.09 in2.3 mm
07:05 AM 45.1°F7.3°C 44.9°F7.2°C 99% 3.6 mph N5.8 kmh N 6.9 mph11.1 kmh 29.54 in1000.3 mb 0.02 in0.5 mm 0.00 in/hr0.0 mm/hr 0.09 in2.3 mm
07:04 AM 44.8°F7.1°C 44.5°F6.9°C 99% 3.5 mph N5.6 kmh N 6.9 mph11.1 kmh 29.55 in1000.7 mb 0.02 in0.5 mm 0.00 in/hr0.0 mm/hr 0.09 in2.3 mm
07:03 AM 45.0°F7.2°C 44.7°F7.1°C 99% 3.6 mph N5.8 kmh N 6.9 mph11.1 kmh 29.55 in1000.7 mb 0.02 in0.5 mm 0.00 in/hr0.0 mm/hr 0.09 in2.3 mm
07:02 AM 44.6°F7.0°C 44.3°F6.8°C 99% 3.0 mph N4.8 kmh N 6.9 mph11.1 kmh 29.55 in1000.7 mb 0.02 in0.5 mm 0.00 in/hr0.0 mm/hr 0.09 in2.3 mm
07:01 AM 44.8°F7.1°C 44.5°F6.9°C 99% 2.5 mph N4.0 kmh N 6.0 mph9.7 kmh 29.55 in1000.7 mb 0.02 in0.5 mm 0.00 in/hr0.0 mm/hr 0.09 in2.3 mm
07:00 AM 45.0°F7.2°C 44.7°F7.1°C 99% 2.1 mph N3.4 kmh N 6.0 mph9.7 kmh 29.55 in1000.7 mb 0.02 in0.5 mm 0.00 in/hr0.0 mm/hr 0.09 in2.3 mm
06:59 AM 44.6°F7.0°C 44.3°F6.8°C 99% 1.7 mph NNE2.7 kmh NNE 5.4 mph8.7 kmh 29.55 in1000.7 mb 0.02 in0.5 mm 0.00 in/hr0.0 mm/hr 0.09 in2.3 mm
06:58 AM 44.6°F7.0°C 44.3°F6.8°C 99% 1.3 mph N2.1 kmh N 5.4 mph8.7 kmh 29.54 in1000.3 mb 0.02 in0.5 mm 0.00 in/hr0.0 mm/hr 0.09 in2.3 mm
06:57 AM 44.8°F7.1°C 44.5°F6.9°C 99% 1.7 mph NNE2.7 kmh NNE 5.4 mph8.7 kmh 29.55 in1000.7 mb 0.02 in0.5 mm 0.60 in/hr15.2 mm/hr 0.09 in2.3 mm
06:56 AM 45.3°F7.4°C 45.1°F7.3°C 99% 2.1 mph N3.4 kmh N 5.4 mph8.7 kmh 29.54 in1000.3 mb 0.01 in0.3 mm 0.00 in/hr0.0 mm/hr 0.08 in2.0 mm
06:55 AM 44.6°F7.0°C 44.3°F6.8°C 99% 2.4 mph NNE3.9 kmh NNE 5.4 mph8.7 kmh 29.55 in1000.7 mb 0.01 in0.3 mm 0.00 in/hr0.0 mm/hr 0.08 in2.0 mm
06:54 AM 45.0°F7.2°C 44.7°F7.1°C 99% 2.6 mph NNE4.2 kmh NNE 6.0 mph9.7 kmh 29.55 in1000.7 mb 0.02 in0.5 mm 0.00 in/hr0.0 mm/hr 0.08 in2.0 mm
06:53 AM 45.0°F7.2°C 44.7°F7.1°C 99% 2.7 mph NNE4.3 kmh NNE 6.0 mph9.7 kmh 29.55 in1000.7 mb 0.02 in0.5 mm 0.00 in/hr0.0 mm/hr 0.08 in2.0 mm
06:52 AM 45.0°F7.2°C 44.7°F7.1°C 99% 2.8 mph NNE4.5 kmh NNE 6.0 mph9.7 kmh 29.55 in1000.7 mb 0.02 in0.5 mm 0.00 in/hr0.0 mm/hr 0.08 in2.0 mm
06:51 AM 44.8°F7.1°C 44.5°F6.9°C 99% 2.6 mph NNE4.2 kmh NNE 6.0 mph9.7 kmh 29.55 in1000.7 mb 0.02 in0.5 mm 0.00 in/hr0.0 mm/hr 0.08 in2.0 mm
06:50 AM 44.8°F7.1°C 44.5°F6.9°C 99% 2.6 mph NE4.2 kmh NE 6.0 mph9.7 kmh 29.55 in1000.7 mb 0.02 in0.5 mm 0.00 in/hr0.0 mm/hr 0.08 in2.0 mm
06:49 AM 44.8°F7.1°C 44.5°F6.9°C 99% 2.8 mph NNE4.5 kmh NNE 6.0 mph9.7 kmh 29.55 in1000.7 mb 0.02 in0.5 mm 0.00 in/hr0.0 mm/hr 0.08 in2.0 mm
06:48 AM 44.6°F7.0°C 44.3°F6.8°C 99% 3.1 mph NNE5.0 kmh NNE 6.0 mph9.7 kmh 29.55 in1000.7 mb 0.02 in0.5 mm 0.00 in/hr0.0 mm/hr 0.08 in2.0 mm
06:47 AM 44.8°F7.1°C 44.5°F6.9°C 99% 2.6 mph NNE4.2 kmh NNE 6.0 mph9.7 kmh 29.55 in1000.7 mb 0.02 in0.5 mm 0.00 in/hr0.0 mm/hr 0.08 in2.0 mm
06:46 AM 44.6°F7.0°C 44.3°F6.8°C 99% 2.2 mph NNE3.5 kmh NNE 6.0 mph9.7 kmh 29.55 in1000.7 mb 0.02 in0.5 mm 0.00 in/hr0.0 mm/hr 0.08 in2.0 mm
06:45 AM 44.8°F7.1°C 44.5°F6.9°C 99% 2.0 mph NNE3.2 kmh NNE 6.0 mph9.7 kmh 29.55 in1000.7 mb 0.02 in0.5 mm 0.00 in/hr0.0 mm/hr 0.08 in2.0 mm
06:44 AM 44.8°F7.1°C 44.5°F6.9°C 99% 1.7 mph N2.7 kmh N 6.0 mph9.7 kmh 29.55 in1000.7 mb 0.02 in0.5 mm 0.00 in/hr0.0 mm/hr 0.08 in2.0 mm
06:43 AM 44.8°F7.1°C 44.5°F6.9°C 99% 1.5 mph NNE2.4 kmh NNE 3.8 mph6.1 kmh 29.55 in1000.7 mb 0.02 in0.5 mm 0.00 in/hr0.0 mm/hr 0.08 in2.0 mm
06:42 AM 45.0°F7.2°C 44.7°F7.1°C 99% 1.4 mph NNE2.3 kmh NNE 3.8 mph6.1 kmh 29.55 in1000.7 mb 0.02 in0.5 mm 0.00 in/hr0.0 mm/hr 0.08 in2.0 mm
06:41 AM 44.4°F6.9°C 44.2°F6.8°C 99% 1.4 mph NNE2.3 kmh NNE 3.8 mph6.1 kmh 29.55 in1000.7 mb 0.02 in0.5 mm 0.00 in/hr0.0 mm/hr 0.08 in2.0 mm
06:40 AM 44.8°F7.1°C 44.5°F6.9°C 99% 1.2 mph N1.9 kmh N 3.8 mph6.1 kmh 29.55 in1000.7 mb 0.02 in0.5 mm 0.00 in/hr0.0 mm/hr 0.08 in2.0 mm
06:39 AM 44.6°F7.0°C 44.3°F6.8°C 99% 1.2 mph NNE1.9 kmh NNE 3.8 mph6.1 kmh 29.55 in1000.7 mb 0.02 in0.5 mm 0.00 in/hr0.0 mm/hr 0.08 in2.0 mm
06:38 AM 44.6°F7.0°C 44.3°F6.8°C 99% 0.9 mph NE1.4 kmh NE 3.1 mph5.0 kmh 29.55 in1000.7 mb 0.02 in0.5 mm 0.00 in/hr0.0 mm/hr 0.08 in2.0 mm
06:37 AM 45.0°F7.2°C 44.7°F7.1°C 99% 0.9 mph NE1.4 kmh NE 3.1 mph5.0 kmh 29.55 in1000.7 mb 0.02 in0.5 mm 0.00 in/hr0.0 mm/hr 0.08 in2.0 mm
06:36 AM 44.8°F7.1°C 44.5°F6.9°C 99% 0.9 mph NE1.4 kmh NE 3.1 mph5.0 kmh 29.55 in1000.7 mb 0.02 in0.5 mm 0.00 in/hr0.0 mm/hr 0.08 in2.0 mm
06:35 AM 44.6°F7.0°C 44.3°F6.8°C 99% 1.0 mph NE1.6 kmh NE 3.1 mph5.0 kmh 29.55 in1000.7 mb 0.02 in0.5 mm 0.00 in/hr0.0 mm/hr 0.08 in2.0 mm
06:34 AM 44.8°F7.1°C 44.5°F6.9°C 99% 0.9 mph NE1.4 kmh NE 3.1 mph5.0 kmh 29.55 in1000.7 mb 0.02 in0.5 mm 0.00 in/hr0.0 mm/hr 0.08 in2.0 mm
06:33 AM 44.6°F7.0°C 44.3°F6.8°C 99% 0.6 mph NE1.0 kmh NE 3.1 mph5.0 kmh 29.55 in1000.7 mb 0.02 in0.5 mm 0.00 in/hr0.0 mm/hr 0.08 in2.0 mm
06:32 AM 44.6°F7.0°C 44.3°F6.8°C 99% 0.6 mph NE1.0 kmh NE 3.1 mph5.0 kmh 29.55 in1000.7 mb 0.02 in0.5 mm 0.00 in/hr0.0 mm/hr 0.08 in2.0 mm
06:31 AM 44.4°F6.9°C 44.2°F6.8°C 99% 0.8 mph E1.3 kmh E 4.5 mph7.2 kmh 29.55 in1000.7 mb 0.02 in0.5 mm 0.00 in/hr0.0 mm/hr 0.08 in2.0 mm
06:30 AM 44.6°F7.0°C 44.3°F6.8°C 99% 1.0 mph ESE1.6 kmh ESE 4.5 mph7.2 kmh 29.55 in1000.7 mb 0.02 in0.5 mm 0.00 in/hr0.0 mm/hr 0.08 in2.0 mm
06:29 AM 44.8°F7.1°C 44.5°F6.9°C 99% 1.3 mph NNE2.1 kmh NNE 7.6 mph12.2 kmh 29.55 in1000.7 mb 0.02 in0.5 mm 0.00 in/hr0.0 mm/hr 0.08 in2.0 mm
06:28 AM 44.8°F7.1°C 44.5°F6.9°C 99% 1.6 mph N2.6 kmh N 7.6 mph12.2 kmh 29.55 in1000.7 mb 0.02 in0.5 mm 0.00 in/hr0.0 mm/hr 0.08 in2.0 mm
06:27 AM 44.6°F7.0°C 44.3°F6.8°C 99% 1.8 mph NNE2.9 kmh NNE 7.6 mph12.2 kmh 29.55 in1000.7 mb 0.02 in0.5 mm 0.00 in/hr0.0 mm/hr 0.08 in2.0 mm
06:26 AM 44.6°F7.0°C 44.3°F6.8°C 99% 2.2 mph NNE3.5 kmh NNE 7.6 mph12.2 kmh 29.55 in1000.7 mb 0.02 in0.5 mm 0.00 in/hr0.0 mm/hr 0.08 in2.0 mm
06:25 AM 44.8°F7.1°C 44.5°F6.9°C 99% 2.7 mph N4.3 kmh N 7.6 mph12.2 kmh 29.55 in1000.7 mb 0.02 in0.5 mm 0.00 in/hr0.0 mm/hr 0.08 in2.0 mm
06:24 AM 44.6°F7.0°C 44.3°F6.8°C 99% 3.1 mph NNE5.0 kmh NNE 7.6 mph12.2 kmh 29.55 in1000.7 mb 0.04 in1.0 mm 0.00 in/hr0.0 mm/hr 0.08 in2.0 mm
06:23 AM 44.4°F6.9°C 44.2°F6.8°C 99% 3.1 mph NNE5.0 kmh NNE 7.6 mph12.2 kmh 29.55 in1000.7 mb 0.04 in1.0 mm 0.00 in/hr0.0 mm/hr 0.08 in2.0 mm
06:22 AM 45.0°F7.2°C 44.7°F7.1°C 99% 3.1 mph NNE5.0 kmh NNE 7.6 mph12.2 kmh 29.55 in1000.7 mb 0.04 in1.0 mm 0.00 in/hr0.0 mm/hr 0.08 in2.0 mm
06:21 AM 44.4°F6.9°C 44.2°F6.8°C 99% 2.9 mph NNE4.7 kmh NNE 7.6 mph12.2 kmh 29.55 in1000.7 mb 0.04 in1.0 mm 0.00 in/hr0.0 mm/hr 0.08 in2.0 mm
06:20 AM 44.6°F7.0°C 44.3°F6.8°C 99% 2.9 mph NNE4.7 kmh NNE 7.6 mph12.2 kmh 29.55 in1000.7 mb 0.04 in1.0 mm 1.20 in/hr30.5 mm/hr 0.08 in2.0 mm
06:19 AM 44.6°F7.0°C 44.3°F6.8°C 99% 2.3 mph NNE3.7 kmh NNE 6.0 mph9.7 kmh 29.56 in1001.0 mb 0.02 in0.5 mm 0.00 in/hr0.0 mm/hr 0.07 in1.8 mm
06:18 AM 44.4°F6.9°C 44.2°F6.8°C 99% 1.9 mph NNE3.1 kmh NNE 6.0 mph9.7 kmh 29.55 in1000.7 mb 0.04 in1.0 mm 0.00 in/hr0.0 mm/hr 0.07 in1.8 mm
06:17 AM 44.8°F7.1°C 44.5°F6.9°C 99% 1.7 mph NNE2.7 kmh NNE 6.0 mph9.7 kmh 29.55 in1000.7 mb 0.04 in1.0 mm 0.00 in/hr0.0 mm/hr 0.07 in1.8 mm
06:16 AM 44.4°F6.9°C 44.2°F6.8°C 99% 1.3 mph NNE2.1 kmh NNE 6.0 mph9.7 kmh 29.55 in1000.7 mb 0.04 in1.0 mm 0.00 in/hr0.0 mm/hr 0.07 in1.8 mm
06:15 AM 44.1°F6.7°C 43.8°F6.6°C 99% 0.8 mph NE1.3 kmh NE 6.0 mph9.7 kmh 29.55 in1000.7 mb 0.04 in1.0 mm 0.00 in/hr0.0 mm/hr 0.07 in1.8 mm
06:14 AM 44.1°F6.7°C 43.8°F6.6°C 99% 0.3 mph NE0.5 kmh NE 2.2 mph3.5 kmh 29.55 in1000.7 mb 0.04 in1.0 mm 0.00 in/hr0.0 mm/hr 0.07 in1.8 mm
06:13 AM 44.4°F6.9°C 44.2°F6.8°C 99% 0.3 mph NE0.5 kmh NE 2.2 mph3.5 kmh 29.56 in1001.0 mb 0.04 in1.0 mm 0.00 in/hr0.0 mm/hr 0.07 in1.8 mm
06:12 AM 44.4°F6.9°C 44.2°F6.8°C 99% 0.3 mph NNE0.5 kmh NNE 2.2 mph3.5 kmh 29.56 in1001.0 mb 0.04 in1.0 mm 0.00 in/hr0.0 mm/hr 0.07 in1.8 mm
06:11 AM 44.6°F7.0°C 44.3°F6.8°C 99% 0.5 mph N0.8 kmh N 4.5 mph7.2 kmh 29.55 in1000.7 mb 0.05 in1.3 mm 0.00 in/hr0.0 mm/hr 0.07 in1.8 mm
06:10 AM 44.2°F6.8°C 44.0°F6.7°C 99% 0.6 mph N1.0 kmh N 4.5 mph7.2 kmh 29.56 in1001.0 mb 0.05 in1.3 mm 0.00 in/hr0.0 mm/hr 0.07 in1.8 mm
06:09 AM 44.4°F6.9°C 44.2°F6.8°C 99% 0.7 mph N1.1 kmh N 4.5 mph7.2 kmh 29.56 in1001.0 mb 0.05 in1.3 mm 0.00 in/hr0.0 mm/hr 0.07 in1.8 mm
06:08 AM 44.4°F6.9°C 44.2°F6.8°C 99% 0.7 mph N1.1 kmh N 4.5 mph7.2 kmh 29.56 in1001.0 mb 0.05 in1.3 mm 0.00 in/hr0.0 mm/hr 0.07 in1.8 mm
06:07 AM 44.4°F6.9°C 44.2°F6.8°C 99% 0.9 mph NNE1.4 kmh NNE 4.5 mph7.2 kmh 29.55 in1000.7 mb 0.05 in1.3 mm 0.00 in/hr0.0 mm/hr 0.07 in1.8 mm
06:06 AM 44.4°F6.9°C 44.2°F6.8°C 99% 1.0 mph NNE1.6 kmh NNE 4.5 mph7.2 kmh 29.55 in1000.7 mb 0.05 in1.3 mm 0.00 in/hr0.0 mm/hr 0.07 in1.8 mm
06:05 AM 44.4°F6.9°C 44.2°F6.8°C 99% 1.0 mph NNE1.6 kmh NNE 4.5 mph7.2 kmh 29.55 in1000.7 mb 0.05 in1.3 mm 0.00 in/hr0.0 mm/hr 0.07 in1.8 mm
06:04 AM 44.2°F6.8°C 44.0°F6.7°C 99% 1.1 mph NNE1.8 kmh NNE 4.5 mph7.2 kmh 29.55 in1000.7 mb 0.05 in1.3 mm 0.00 in/hr0.0 mm/hr 0.07 in1.8 mm
06:03 AM 44.4°F6.9°C 44.2°F6.8°C 99% 1.2 mph NNE1.9 kmh NNE 4.5 mph7.2 kmh 29.55 in1000.7 mb 0.05 in1.3 mm 0.00 in/hr0.0 mm/hr 0.07 in1.8 mm
06:02 AM 44.4°F6.9°C 44.2°F6.8°C 99% 1.2 mph NNE1.9 kmh NNE 4.5 mph7.2 kmh 29.55 in1000.7 mb 0.06 in1.5 mm 0.00 in/hr0.0 mm/hr 0.07 in1.8 mm
06:01 AM 44.4°F6.9°C 44.2°F6.8°C 99% 0.8 mph NNE1.3 kmh NNE 4.5 mph7.2 kmh 29.56 in1001.0 mb 0.06 in1.5 mm 0.00 in/hr0.0 mm/hr 0.07 in1.8 mm
06:00 AM 44.2°F6.8°C 44.0°F6.7°C 99% 0.6 mph NNE1.0 kmh NNE 2.2 mph3.5 kmh 29.55 in1000.7 mb 0.06 in1.5 mm 0.00 in/hr0.0 mm/hr 0.07 in1.8 mm
05:59 AM 44.2°F6.8°C 44.0°F6.7°C 99% 0.5 mph NNE0.8 kmh NNE 2.2 mph3.5 kmh 29.56 in1001.0 mb 0.06 in1.5 mm 0.00 in/hr0.0 mm/hr 0.07 in1.8 mm
05:58 AM 44.6°F7.0°C 44.3°F6.8°C 99% 0.5 mph NNE0.8 kmh NNE 2.2 mph3.5 kmh 29.55 in1000.7 mb 0.06 in1.5 mm 0.00 in/hr0.0 mm/hr 0.07 in1.8 mm
05:57 AM 44.2°F6.8°C 44.0°F6.7°C 99% 0.5 mph NNE0.8 kmh NNE 2.2 mph3.5 kmh 29.55 in1000.7 mb 0.06 in1.5 mm 0.00 in/hr0.0 mm/hr 0.07 in1.8 mm
05:56 AM 44.4°F6.9°C 44.2°F6.8°C 99% 0.9 mph N1.4 kmh N 8.3 mph13.4 kmh 29.55 in1000.7 mb 0.06 in1.5 mm 0.60 in/hr15.2 mm/hr 0.07 in1.8 mm
05:55 AM 44.4°F6.9°C 44.2°F6.8°C 99% 1.5 mph N2.4 kmh N 8.3 mph13.4 kmh 29.55 in1000.7 mb 0.05 in1.3 mm 0.00 in/hr0.0 mm/hr 0.06 in1.5 mm
05:54 AM 44.2°F6.8°C 44.0°F6.7°C 99% 1.5 mph NNE2.4 kmh NNE 8.3 mph13.4 kmh 29.55 in1000.7 mb 0.05 in1.3 mm 0.00 in/hr0.0 mm/hr 0.06 in1.5 mm
05:53 AM 44.4°F6.9°C 44.2°F6.8°C 99% 1.4 mph NNE2.3 kmh NNE 8.3 mph13.4 kmh 29.55 in1000.7 mb 0.05 in1.3 mm 0.00 in/hr0.0 mm/hr 0.06 in1.5 mm
05:52 AM 44.4°F6.9°C 44.2°F6.8°C 99% 1.6 mph NNE2.6 kmh NNE 8.3 mph13.4 kmh 29.55 in1000.7 mb 0.05 in1.3 mm 0.00 in/hr0.0 mm/hr 0.06 in1.5 mm
05:51 AM 44.4°F6.9°C 44.2°F6.8°C 99% 2.2 mph NNE3.5 kmh NNE 8.3 mph13.4 kmh 29.55 in1000.7 mb 0.05 in1.3 mm 0.00 in/hr0.0 mm/hr 0.06 in1.5 mm
05:50 AM 44.4°F6.9°C 44.2°F6.8°C 99% 2.5 mph N4.0 kmh N 8.3 mph13.4 kmh 29.55 in1000.7 mb 0.05 in1.3 mm 0.00 in/hr0.0 mm/hr 0.06 in1.5 mm
05:49 AM 44.4°F6.9°C 44.2°F6.8°C 99% 2.5 mph N4.0 kmh N 8.3 mph13.4 kmh 29.55 in1000.7 mb 0.05 in1.3 mm 0.00 in/hr0.0 mm/hr 0.06 in1.5 mm
05:48 AM 44.6°F7.0°C 44.3°F6.8°C 99% 2.7 mph N4.3 kmh N 8.3 mph13.4 kmh 29.55 in1000.7 mb 0.05 in1.3 mm 0.00 in/hr0.0 mm/hr 0.06 in1.5 mm
05:47 AM 44.4°F6.9°C 44.2°F6.8°C 99% 2.7 mph N4.3 kmh N 8.3 mph13.4 kmh 29.55 in1000.7 mb 0.05 in1.3 mm 0.00 in/hr0.0 mm/hr 0.06 in1.5 mm
05:46 AM 44.2°F6.8°C 44.0°F6.7°C 99% 2.2 mph N3.5 kmh N 8.3 mph13.4 kmh 29.55 in1000.7 mb 0.05 in1.3 mm 0.00 in/hr0.0 mm/hr 0.06 in1.5 mm
05:45 AM 44.4°F6.9°C 44.2°F6.8°C 99% 1.7 mph N2.7 kmh N 6.9 mph11.1 kmh 29.55 in1000.7 mb 0.05 in1.3 mm 0.00 in/hr0.0 mm/hr 0.06 in1.5 mm
05:44 AM 44.2°F6.8°C 44.0°F6.7°C 99% 1.9 mph N3.1 kmh N 6.9 mph11.1 kmh 29.55 in1000.7 mb 0.05 in1.3 mm 0.00 in/hr0.0 mm/hr 0.06 in1.5 mm
05:43 AM 44.4°F6.9°C 44.2°F6.8°C 99% 2.5 mph N4.0 kmh N 6.9 mph11.1 kmh 29.55 in1000.7 mb 0.05 in1.3 mm 0.00 in/hr0.0 mm/hr 0.06 in1.5 mm
05:42 AM 44.4°F6.9°C 44.2°F6.8°C 99% 2.6 mph N4.2 kmh N 6.9 mph11.1 kmh 29.56 in1001.0 mb 0.05 in1.3 mm 0.00 in/hr0.0 mm/hr 0.06 in1.5 mm
05:41 AM 44.2°F6.8°C 44.0°F6.7°C 99% 2.6 mph NNE4.2 kmh NNE 6.9 mph11.1 kmh 29.55 in1000.7 mb 0.05 in1.3 mm 0.00 in/hr0.0 mm/hr 0.06 in1.5 mm
05:40 AM 44.2°F6.8°C 44.0°F6.7°C 99% 2.7 mph NNE4.3 kmh NNE 6.9 mph11.1 kmh 29.55 in1000.7 mb 0.05 in1.3 mm 0.00 in/hr0.0 mm/hr 0.06 in1.5 mm
05:39 AM 44.2°F6.8°C 44.0°F6.7°C 99% 2.9 mph NNE4.7 kmh NNE 6.9 mph11.1 kmh 29.56 in1001.0 mb 0.05 in1.3 mm 0.00 in/hr0.0 mm/hr 0.06 in1.5 mm
05:38 AM 44.6°F7.0°C 44.3°F6.8°C 99% 2.7 mph NNE4.3 kmh NNE 6.9 mph11.1 kmh 29.55 in1000.7 mb 0.05 in1.3 mm 0.00 in/hr0.0 mm/hr 0.06 in1.5 mm
05:37 AM 44.2°F6.8°C 44.0°F6.7°C 99% 2.6 mph NE4.2 kmh NE 6.9 mph11.1 kmh 29.55 in1000.7 mb 0.05 in1.3 mm 0.00 in/hr0.0 mm/hr 0.06 in1.5 mm
05:36 AM 44.4°F6.9°C 44.2°F6.8°C 99% 2.6 mph NNE4.2 kmh NNE 6.9 mph11.1 kmh 29.55 in1000.7 mb 0.05 in1.3 mm 0.00 in/hr0.0 mm/hr 0.06 in1.5 mm
05:35 AM 44.2°F6.8°C 44.0°F6.7°C 99% 2.7 mph NNE4.3 kmh NNE 6.9 mph11.1 kmh 29.55 in1000.7 mb 0.05 in1.3 mm 0.00 in/hr0.0 mm/hr 0.06 in1.5 mm
05:34 AM 44.1°F6.7°C 43.8°F6.6°C 99% 2.4 mph NE3.9 kmh NE 6.9 mph11.1 kmh 29.55 in1000.7 mb 0.05 in1.3 mm 0.00 in/hr0.0 mm/hr 0.06 in1.5 mm
05:33 AM 44.6°F7.0°C 44.3°F6.8°C 99% 2.1 mph NE3.4 kmh NE 6.0 mph9.7 kmh 29.55 in1000.7 mb 0.05 in1.3 mm 0.00 in/hr0.0 mm/hr 0.06 in1.5 mm
05:32 AM 44.4°F6.9°C 44.2°F6.8°C 99% 1.8 mph NE2.9 kmh NE 6.0 mph9.7 kmh 29.55 in1000.7 mb 0.05 in1.3 mm 0.00 in/hr0.0 mm/hr 0.06 in1.5 mm
05:31 AM 44.4°F6.9°C 44.2°F6.8°C 99% 1.8 mph NE2.9 kmh NE 5.4 mph8.7 kmh 29.55 in1000.7 mb 0.05 in1.3 mm 0.00 in/hr0.0 mm/hr 0.06 in1.5 mm
05:30 AM 44.6°F7.0°C 44.3°F6.8°C 99% 2.1 mph NE3.4 kmh NE 8.3 mph13.4 kmh 29.55 in1000.7 mb 0.05 in1.3 mm 0.00 in/hr0.0 mm/hr 0.06 in1.5 mm
05:29 AM 44.4°F6.9°C 44.2°F6.8°C 99% 2.6 mph NNE4.2 kmh NNE 8.3 mph13.4 kmh 29.55 in1000.7 mb 0.05 in1.3 mm 0.00 in/hr0.0 mm/hr 0.06 in1.5 mm
05:28 AM 44.6°F7.0°C 44.3°F6.8°C 99% 2.9 mph NNE4.7 kmh NNE 8.3 mph13.4 kmh 29.55 in1000.7 mb 0.05 in1.3 mm 0.00 in/hr0.0 mm/hr 0.06 in1.5 mm
05:27 AM 44.4°F6.9°C 44.2°F6.8°C 99% 3.1 mph NNE5.0 kmh NNE 8.3 mph13.4 kmh 29.55 in1000.7 mb 0.05 in1.3 mm 0.00 in/hr0.0 mm/hr 0.06 in1.5 mm
05:26 AM 44.4°F6.9°C 44.2°F6.8°C 99% 3.4 mph NNE5.5 kmh NNE 8.3 mph13.4 kmh 29.55 in1000.7 mb 0.05 in1.3 mm 0.60 in/hr15.2 mm/hr 0.06 in1.5 mm
05:25 AM 44.6°F7.0°C 44.3°F6.8°C 99% 3.7 mph NE6.0 kmh NE 8.3 mph13.4 kmh 29.55 in1000.7 mb 0.04 in1.0 mm 0.00 in/hr0.0 mm/hr 0.05 in1.3 mm
05:24 AM 44.4°F6.9°C 44.2°F6.8°C 99% 4.2 mph NE6.8 kmh NE 8.3 mph13.4 kmh 29.55 in1000.7 mb 0.04 in1.0 mm 0.00 in/hr0.0 mm/hr 0.05 in1.3 mm
05:23 AM 44.4°F6.9°C 44.2°F6.8°C 99% 4.5 mph NNE7.2 kmh NNE 8.3 mph13.4 kmh 29.55 in1000.7 mb 0.04 in1.0 mm 0.00 in/hr0.0 mm/hr 0.05 in1.3 mm
05:22 AM 44.2°F6.8°C 44.0°F6.7°C 99% 4.7 mph NNE7.6 kmh NNE 8.3 mph13.4 kmh 29.56 in1001.0 mb 0.04 in1.0 mm 0.00 in/hr0.0 mm/hr 0.05 in1.3 mm
05:21 AM 44.8°F7.1°C 44.5°F6.9°C 99% 4.5 mph NE7.2 kmh NE 8.3 mph13.4 kmh 29.55 in1000.7 mb 0.04 in1.0 mm 0.00 in/hr0.0 mm/hr 0.05 in1.3 mm
05:20 AM 44.2°F6.8°C 44.0°F6.7°C 99% 4.2 mph NE6.8 kmh NE 8.3 mph13.4 kmh 29.55 in1000.7 mb 0.04 in1.0 mm 1.20 in/hr30.5 mm/hr 0.05 in1.3 mm
05:19 AM 44.2°F6.8°C 44.0°F6.7°C 99% 3.8 mph NE6.1 kmh NE 6.9 mph11.1 kmh 29.56 in1001.0 mb 0.02 in0.5 mm 0.00 in/hr0.0 mm/hr 0.04 in1.0 mm
05:18 AM 44.6°F7.0°C 44.3°F6.8°C 99% 3.6 mph NE5.8 kmh NE 6.9 mph11.1 kmh 29.55 in1000.7 mb 0.02 in0.5 mm 0.00 in/hr0.0 mm/hr 0.04 in1.0 mm
05:17 AM 44.4°F6.9°C 44.2°F6.8°C 99% 3.6 mph NE5.8 kmh NE 6.9 mph11.1 kmh 29.56 in1001.0 mb 0.02 in0.5 mm 0.00 in/hr0.0 mm/hr 0.04 in1.0 mm
05:16 AM 44.4°F6.9°C 44.2°F6.8°C 99% 3.3 mph NE5.3 kmh NE 6.9 mph11.1 kmh 29.56 in1001.0 mb 0.02 in0.5 mm 0.00 in/hr0.0 mm/hr 0.04 in1.0 mm
05:15 AM 44.4°F6.9°C 44.2°F6.8°C 99% 3.0 mph NE4.8 kmh NE 6.9 mph11.1 kmh 29.56 in1001.0 mb 0.02 in0.5 mm 0.00 in/hr0.0 mm/hr 0.04 in1.0 mm
05:14 AM 44.6°F7.0°C 44.3°F6.8°C 99% 2.9 mph NE4.7 kmh NE 6.9 mph11.1 kmh 29.56 in1001.0 mb 0.02 in0.5 mm 0.00 in/hr0.0 mm/hr 0.04 in1.0 mm
05:13 AM 44.4°F6.9°C 44.2°F6.8°C 99% 3.1 mph NE5.0 kmh NE 9.2 mph14.8 kmh 29.56 in1001.0 mb 0.02 in0.5 mm 0.60 in/hr15.2 mm/hr 0.04 in1.0 mm
05:12 AM 44.4°F6.9°C 44.2°F6.8°C 99% 3.1 mph NE5.0 kmh NE 9.2 mph14.8 kmh 29.56 in1001.0 mb 0.01 in0.3 mm 0.00 in/hr0.0 mm/hr 0.02 in0.5 mm
05:11 AM 44.4°F6.9°C 44.2°F6.8°C 99% 3.1 mph NE5.0 kmh NE 9.2 mph14.8 kmh 29.56 in1001.0 mb 0.01 in0.3 mm 0.00 in/hr0.0 mm/hr 0.02 in0.5 mm
05:10 AM 44.4°F6.9°C 44.2°F6.8°C 99% 3.0 mph ENE4.8 kmh ENE 9.2 mph14.8 kmh 29.56 in1001.0 mb 0.01 in0.3 mm 0.00 in/hr0.0 mm/hr 0.02 in0.5 mm
05:09 AM 44.2°F6.8°C 44.0°F6.7°C 99% 2.8 mph E4.5 kmh E 9.2 mph14.8 kmh 29.57 in1001.4 mb 0.01 in0.3 mm 0.00 in/hr0.0 mm/hr 0.02 in0.5 mm
05:08 AM 44.4°F6.9°C 44.2°F6.8°C 99% 2.9 mph ENE4.7 kmh ENE 9.2 mph14.8 kmh 29.56 in1001.0 mb 0.01 in0.3 mm 0.00 in/hr0.0 mm/hr 0.02 in0.5 mm
05:07 AM 44.4°F6.9°C 44.2°F6.8°C 99% 2.7 mph ENE4.3 kmh ENE 9.2 mph14.8 kmh 29.57 in1001.4 mb 0.01 in0.3 mm 0.00 in/hr0.0 mm/hr 0.02 in0.5 mm
05:06 AM 44.4°F6.9°C 44.2°F6.8°C 99% 2.8 mph ENE4.5 kmh ENE 9.2 mph14.8 kmh 29.57 in1001.4 mb 0.01 in0.3 mm 0.00 in/hr0.0 mm/hr 0.02 in0.5 mm
05:05 AM 44.4°F6.9°C 44.2°F6.8°C 99% 3.0 mph NE4.8 kmh NE 9.2 mph14.8 kmh 29.57 in1001.4 mb 0.01 in0.3 mm 0.00 in/hr0.0 mm/hr 0.02 in0.5 mm
05:04 AM 44.4°F6.9°C 44.2°F6.8°C 99% 2.8 mph NE4.5 kmh NE 9.2 mph14.8 kmh 29.56 in1001.0 mb 0.01 in0.3 mm 0.00 in/hr0.0 mm/hr 0.02 in0.5 mm
05:03 AM 44.4°F6.9°C 44.2°F6.8°C 99% 2.5 mph ENE4.0 kmh ENE 7.6 mph12.2 kmh 29.56 in1001.0 mb 0.01 in0.3 mm 0.00 in/hr0.0 mm/hr 0.01 in0.3 mm
05:02 AM 44.6°F7.0°C 44.3°F6.8°C 99% 2.8 mph NE4.5 kmh NE 7.6 mph12.2 kmh 29.56 in1001.0 mb 0.01 in0.3 mm 0.00 in/hr0.0 mm/hr 0.01 in0.3 mm
05:01 AM 44.6°F7.0°C 44.3°F6.8°C 99% 2.5 mph NE4.0 kmh NE 7.6 mph12.2 kmh 29.56 in1001.0 mb 0.01 in0.3 mm 0.00 in/hr0.0 mm/hr 0.01 in0.3 mm
05:00 AM 44.4°F6.9°C 44.2°F6.8°C 99% 2.2 mph NE3.5 kmh NE 7.6 mph12.2 kmh 29.56 in1001.0 mb 0.01 in0.3 mm 0.00 in/hr0.0 mm/hr 0.01 in0.3 mm
04:59 AM 44.6°F7.0°C 44.3°F6.8°C 99% 2.2 mph NE3.5 kmh NE 7.6 mph12.2 kmh 29.56 in1001.0 mb 0.01 in0.3 mm 0.00 in/hr0.0 mm/hr 0.01 in0.3 mm
04:58 AM 44.4°F6.9°C 44.2°F6.8°C 99% 2.1 mph NE3.4 kmh NE 7.6 mph12.2 kmh 29.56 in1001.0 mb 0.01 in0.3 mm 0.00 in/hr0.0 mm/hr 0.01 in0.3 mm
04:57 AM 44.6°F7.0°C 44.3°F6.8°C 99% 2.7 mph NE4.3 kmh NE 7.6 mph12.2 kmh 29.56 in1001.0 mb 0.01 in0.3 mm 0.00 in/hr0.0 mm/hr 0.01 in0.3 mm
04:56 AM 44.4°F6.9°C 44.2°F6.8°C 99% 3.1 mph NNE5.0 kmh NNE 7.6 mph12.2 kmh 29.56 in1001.0 mb 0.01 in0.3 mm 0.00 in/hr0.0 mm/hr 0.01 in0.3 mm
04:55 AM 44.4°F6.9°C 44.2°F6.8°C 99% 2.9 mph NNE4.7 kmh NNE 7.6 mph12.2 kmh 29.56 in1001.0 mb 0.01 in0.3 mm 0.00 in/hr0.0 mm/hr 0.01 in0.3 mm
04:54 AM 44.4°F6.9°C 44.2°F6.8°C 99% 3.0 mph NNE4.8 kmh NNE 7.6 mph12.2 kmh 29.56 in1001.0 mb 0.01 in0.3 mm 0.00 in/hr0.0 mm/hr 0.01 in0.3 mm
04:53 AM 44.6°F7.0°C 44.3°F6.8°C 99% 3.0 mph NNE4.8 kmh NNE 7.6 mph12.2 kmh 29.56 in1001.0 mb 0.01 in0.3 mm 0.00 in/hr0.0 mm/hr 0.01 in0.3 mm
04:52 AM 44.4°F6.9°C 44.2°F6.8°C 99% 2.4 mph N3.9 kmh N 6.0 mph9.7 kmh 29.55 in1000.7 mb 0.01 in0.3 mm 0.00 in/hr0.0 mm/hr 0.01 in0.3 mm
04:51 AM 44.4°F6.9°C 44.2°F6.8°C 99% 2.5 mph N4.0 kmh N 6.9 mph11.1 kmh 29.55 in1000.7 mb 0.01 in0.3 mm 0.00 in/hr0.0 mm/hr 0.01 in0.3 mm
04:50 AM 44.4°F6.9°C 44.2°F6.8°C 99% 3.0 mph N4.8 kmh N 6.9 mph11.1 kmh 29.55 in1000.7 mb 0.01 in0.3 mm 0.00 in/hr0.0 mm/hr 0.01 in0.3 mm
04:49 AM 43.9°F6.6°C 43.6°F6.4°C 99% 3.2 mph N5.1 kmh N 6.9 mph11.1 kmh 29.55 in1000.7 mb 0.01 in0.3 mm 0.00 in/hr0.0 mm/hr 0.01 in0.3 mm
04:48 AM 44.4°F6.9°C 44.2°F6.8°C 99% 3.0 mph N4.8 kmh N 6.9 mph11.1 kmh 29.55 in1000.7 mb 0.01 in0.3 mm 0.00 in/hr0.0 mm/hr 0.01 in0.3 mm
04:47 AM 44.6°F7.0°C 44.3°F6.8°C 99% 2.5 mph N4.0 kmh N 6.9 mph11.1 kmh 29.55 in1000.7 mb 0.01 in0.3 mm 0.00 in/hr0.0 mm/hr 0.01 in0.3 mm
04:46 AM 44.6°F7.0°C 44.3°F6.8°C 99% 2.3 mph N3.7 kmh N 6.9 mph11.1 kmh 29.55 in1000.7 mb 0.01 in0.3 mm 0.00 in/hr0.0 mm/hr 0.01 in0.3 mm
04:45 AM 44.8°F7.1°C 44.5°F6.9°C 99% 2.5 mph N4.0 kmh N 6.9 mph11.1 kmh 29.56 in1001.0 mb 0.01 in0.3 mm 0.00 in/hr0.0 mm/hr 0.01 in0.3 mm
04:44 AM 44.4°F6.9°C 44.2°F6.8°C 99% 2.7 mph N4.3 kmh N 6.9 mph11.1 kmh 29.56 in1001.0 mb 0.01 in0.3 mm 0.00 in/hr0.0 mm/hr 0.01 in0.3 mm
04:43 AM 44.4°F6.9°C 44.2°F6.8°C 99% 2.8 mph NNE4.5 kmh NNE 6.9 mph11.1 kmh 29.55 in1000.7 mb 0.01 in0.3 mm 0.00 in/hr0.0 mm/hr 0.01 in0.3 mm
04:42 AM 44.4°F6.9°C 44.2°F6.8°C 99% 3.2 mph NE5.1 kmh NE 6.9 mph11.1 kmh 29.55 in1000.7 mb 0.01 in0.3 mm 0.00 in/hr0.0 mm/hr 0.01 in0.3 mm
04:41 AM 44.4°F6.9°C 44.2°F6.8°C 99% 3.0 mph NE4.8 kmh NE 6.9 mph11.1 kmh 29.55 in1000.7 mb 0.01 in0.3 mm 0.00 in/hr0.0 mm/hr 0.01 in0.3 mm
04:40 AM 44.2°F6.8°C 44.0°F6.7°C 99% 2.6 mph NE4.2 kmh NE 6.9 mph11.1 kmh 29.55 in1000.7 mb 0.01 in0.3 mm 0.00 in/hr0.0 mm/hr 0.01 in0.3 mm
04:39 AM 44.4°F6.9°C 44.2°F6.8°C 99% 2.5 mph NE4.0 kmh NE 6.9 mph11.1 kmh 29.55 in1000.7 mb 0.01 in0.3 mm 0.00 in/hr0.0 mm/hr 0.01 in0.3 mm
04:38 AM 44.2°F6.8°C 44.0°F6.7°C 99% 2.9 mph NE4.7 kmh NE 6.9 mph11.1 kmh 29.55 in1000.7 mb 0.01 in0.3 mm 0.00 in/hr0.0 mm/hr 0.01 in0.3 mm
04:37 AM 44.4°F6.9°C 44.2°F6.8°C 99% 3.2 mph NE5.1 kmh NE 6.9 mph11.1 kmh 29.55 in1000.7 mb 0.01 in0.3 mm 0.00 in/hr0.0 mm/hr 0.01 in0.3 mm
04:36 AM 44.4°F6.9°C 44.2°F6.8°C 99% 3.6 mph NE5.8 kmh NE 6.9 mph11.1 kmh 29.56 in1001.0 mb 0.01 in0.3 mm 0.00 in/hr0.0 mm/hr 0.01 in0.3 mm
04:35 AM 44.4°F6.9°C 44.2°F6.8°C 99% 3.9 mph NE6.3 kmh NE 6.9 mph11.1 kmh 29.56 in1001.0 mb 0.01 in0.3 mm 0.00 in/hr0.0 mm/hr 0.01 in0.3 mm
04:34 AM 44.4°F6.9°C 44.2°F6.8°C 99% 3.7 mph NNE6.0 kmh NNE 6.9 mph11.1 kmh 29.56 in1001.0 mb 0.01 in0.3 mm 0.00 in/hr0.0 mm/hr 0.01 in0.3 mm
04:33 AM 44.2°F6.8°C 44.0°F6.7°C 99% 3.2 mph NNE5.1 kmh NNE 6.9 mph11.1 kmh 29.56 in1001.0 mb 0.01 in0.3 mm 0.00 in/hr0.0 mm/hr 0.01 in0.3 mm
04:32 AM 44.4°F6.9°C 44.2°F6.8°C 99% 3.4 mph NNE5.5 kmh NNE 6.9 mph11.1 kmh 29.56 in1001.0 mb 0.01 in0.3 mm 0.00 in/hr0.0 mm/hr 0.01 in0.3 mm
04:31 AM 44.4°F6.9°C 44.2°F6.8°C 99% 3.7 mph NNE6.0 kmh NNE 6.9 mph11.1 kmh 29.56 in1001.0 mb 0.01 in0.3 mm 0.00 in/hr0.0 mm/hr 0.01 in0.3 mm
04:30 AM 44.2°F6.8°C 44.0°F6.7°C 99% 3.8 mph NNE6.1 kmh NNE 6.9 mph11.1 kmh 29.56 in1001.0 mb 0.01 in0.3 mm 0.00 in/hr0.0 mm/hr 0.01 in0.3 mm
04:29 AM 44.4°F6.9°C 44.2°F6.8°C 99% 3.7 mph NNE6.0 kmh NNE 6.9 mph11.1 kmh 29.56 in1001.0 mb 0.01 in0.3 mm 0.00 in/hr0.0 mm/hr 0.01 in0.3 mm
04:28 AM 44.6°F7.0°C 44.3°F6.8°C 99% 3.3 mph NE5.3 kmh NE 6.9 mph11.1 kmh 29.56 in1001.0 mb 0.01 in0.3 mm 0.00 in/hr0.0 mm/hr 0.01 in0.3 mm
04:27 AM 44.4°F6.9°C 44.2°F6.8°C 99% 3.0 mph NE4.8 kmh NE 6.9 mph11.1 kmh 29.56 in1001.0 mb 0.01 in0.3 mm 0.00 in/hr0.0 mm/hr 0.01 in0.3 mm
04:26 AM 44.4°F6.9°C 44.2°F6.8°C 99% 2.6 mph NE4.2 kmh NE 6.9 mph11.1 kmh 29.56 in1001.0 mb 0.01 in0.3 mm 0.00 in/hr0.0 mm/hr 0.01 in0.3 mm
04:25 AM 44.1°F6.7°C 43.8°F6.6°C 99% 2.3 mph NE3.7 kmh NE 6.0 mph9.7 kmh 29.56 in1001.0 mb 0.01 in0.3 mm 0.00 in/hr0.0 mm/hr 0.01 in0.3 mm
04:24 AM 44.2°F6.8°C 44.0°F6.7°C 99% 2.7 mph NE4.3 kmh NE 6.0 mph9.7 kmh 29.56 in1001.0 mb 0.01 in0.3 mm 0.00 in/hr0.0 mm/hr 0.01 in0.3 mm
04:23 AM 44.2°F6.8°C 44.0°F6.7°C 99% 2.8 mph NE4.5 kmh NE 6.0 mph9.7 kmh 29.56 in1001.0 mb 0.01 in0.3 mm 0.00 in/hr0.0 mm/hr 0.01 in0.3 mm
04:22 AM 44.4°F6.9°C 44.2°F6.8°C 99% 2.2 mph NE3.5 kmh NE 6.0 mph9.7 kmh 29.56 in1001.0 mb 0.01 in0.3 mm 0.00 in/hr0.0 mm/hr 0.01 in0.3 mm
04:21 AM 44.4°F6.9°C 44.2°F6.8°C 99% 1.7 mph NE2.7 kmh NE 6.0 mph9.7 kmh 29.56 in1001.0 mb 0.01 in0.3 mm 0.00 in/hr0.0 mm/hr 0.01 in0.3 mm
04:20 AM 44.2°F6.8°C 44.0°F6.7°C 99% 1.7 mph NE2.7 kmh NE 6.0 mph9.7 kmh 29.56 in1001.0 mb 0.01 in0.3 mm 0.00 in/hr0.0 mm/hr 0.01 in0.3 mm
04:19 AM 44.4°F6.9°C 44.2°F6.8°C 99% 2.0 mph NE3.2 kmh NE 6.0 mph9.7 kmh 29.56 in1001.0 mb 0.01 in0.3 mm 0.00 in/hr0.0 mm/hr 0.01 in0.3 mm
04:18 AM 44.2°F6.8°C 44.0°F6.7°C 99% 2.6 mph NE4.2 kmh NE 9.2 mph14.8 kmh 29.56 in1001.0 mb 0.01 in0.3 mm 0.00 in/hr0.0 mm/hr 0.01 in0.3 mm
04:17 AM 44.6°F7.0°C 44.3°F6.8°C 99% 3.0 mph NE4.8 kmh NE 9.2 mph14.8 kmh 29.56 in1001.0 mb 0.01 in0.3 mm 0.00 in/hr0.0 mm/hr 0.01 in0.3 mm
04:16 AM 44.1°F6.7°C 43.8°F6.6°C 99% 3.1 mph NE5.0 kmh NE 9.2 mph14.8 kmh 29.56 in1001.0 mb 0.01 in0.3 mm 0.00 in/hr0.0 mm/hr 0.01 in0.3 mm
04:15 AM 44.1°F6.7°C 43.8°F6.6°C 99% 3.1 mph NE5.0 kmh NE 9.2 mph14.8 kmh 29.56 in1001.0 mb 0.01 in0.3 mm 0.00 in/hr0.0 mm/hr 0.01 in0.3 mm
04:14 AM 44.4°F6.9°C 44.2°F6.8°C 99% 2.8 mph NNE4.5 kmh NNE 9.2 mph14.8 kmh 29.56 in1001.0 mb 0.01 in0.3 mm 0.00 in/hr0.0 mm/hr 0.01 in0.3 mm
04:13 AM 44.4°F6.9°C 44.2°F6.8°C 99% 2.6 mph NE4.2 kmh NE 9.2 mph14.8 kmh 29.56 in1001.0 mb 0.01 in0.3 mm 0.00 in/hr0.0 mm/hr 0.01 in0.3 mm
04:12 AM 44.1°F6.7°C 43.8°F6.6°C 99% 2.8 mph NE4.5 kmh NE 9.2 mph14.8 kmh 29.56 in1001.0 mb 0.01 in0.3 mm 0.00 in/hr0.0 mm/hr 0.01 in0.3 mm
04:11 AM 44.4°F6.9°C 44.2°F6.8°C 99% 3.0 mph NE4.8 kmh NE 9.2 mph14.8 kmh 29.56 in1001.0 mb 0.01 in0.3 mm 0.00 in/hr0.0 mm/hr 0.01 in0.3 mm
04:10 AM 44.4°F6.9°C 44.2°F6.8°C 99% 2.9 mph NE4.7 kmh NE 9.2 mph14.8 kmh 29.56 in1001.0 mb 0.01 in0.3 mm 0.00 in/hr0.0 mm/hr 0.01 in0.3 mm
04:09 AM 44.2°F6.8°C 44.0°F6.7°C 99% 2.9 mph NNE4.7 kmh NNE 9.2 mph14.8 kmh 29.56 in1001.0 mb 0.01 in0.3 mm 0.00 in/hr0.0 mm/hr 0.01 in0.3 mm
04:08 AM 44.4°F6.9°C 44.2°F6.8°C 99% 2.6 mph NNE4.2 kmh NNE 9.2 mph14.8 kmh 29.56 in1001.0 mb 0.01 in0.3 mm 0.00 in/hr0.0 mm/hr 0.01 in0.3 mm
04:07 AM 44.6°F7.0°C 44.3°F6.8°C 99% 2.4 mph NNE3.9 kmh NNE 5.4 mph8.7 kmh 29.56 in1001.0 mb 0.01 in0.3 mm 0.00 in/hr0.0 mm/hr 0.01 in0.3 mm
04:06 AM 44.4°F6.9°C 44.2°F6.8°C 99% 2.3 mph NNE3.7 kmh NNE 5.4 mph8.7 kmh 29.56 in1001.0 mb 0.01 in0.3 mm 0.00 in/hr0.0 mm/hr 0.01 in0.3 mm
04:05 AM 44.4°F6.9°C 44.2°F6.8°C 99% 1.9 mph NE3.1 kmh NE 4.5 mph7.2 kmh 29.56 in1001.0 mb 0.01 in0.3 mm 0.00 in/hr0.0 mm/hr 0.01 in0.3 mm
04:04 AM 44.4°F6.9°C 44.2°F6.8°C 99% 1.9 mph NNE3.1 kmh NNE 4.5 mph7.2 kmh 29.56 in1001.0 mb 0.01 in0.3 mm 0.60 in/hr15.2 mm/hr 0.01 in0.3 mm
04:03 AM 44.2°F6.8°C 44.0°F6.7°C 99% 1.8 mph NNE2.9 kmh NNE 3.1 mph5.0 kmh 29.56 in1001.0 mb 0.00 in0.0 mm 0.00 in/hr0.0 mm/hr 0.01 in0.3 mm
04:02 AM 44.4°F6.9°C 44.2°F6.8°C 99% 1.6 mph NNE2.6 kmh NNE 3.1 mph5.0 kmh 29.56 in1001.0 mb 0.00 in0.0 mm 0.00 in/hr0.0 mm/hr 0.01 in0.3 mm
04:01 AM 44.4°F6.9°C 44.2°F6.8°C 99% 1.8 mph NE2.9 kmh NE 4.5 mph7.2 kmh 29.56 in1001.0 mb 0.00 in0.0 mm 0.00 in/hr0.0 mm/hr 0.01 in0.3 mm
04:00 AM 44.2°F6.8°C 44.0°F6.7°C 99% 2.1 mph NE3.4 kmh NE 4.5 mph7.2 kmh 29.56 in1001.0 mb 0.00 in0.0 mm 0.00 in/hr0.0 mm/hr 0.01 in0.3 mm
03:59 AM 44.4°F6.9°C 44.2°F6.8°C 99% 2.5 mph ENE4.0 kmh ENE 7.6 mph12.2 kmh 29.56 in1001.0 mb 0.00 in0.0 mm 0.00 in/hr0.0 mm/hr 0.01 in0.3 mm
03:58 AM 44.4°F6.9°C 44.2°F6.8°C 99% 2.4 mph ENE3.9 kmh ENE 7.6 mph12.2 kmh 29.56 in1001.0 mb 0.00 in0.0 mm 0.00 in/hr0.0 mm/hr 0.01 in0.3 mm
03:57 AM 44.4°F6.9°C 44.2°F6.8°C 99% 2.6 mph ENE4.2 kmh ENE 7.6 mph12.2 kmh 29.56 in1001.0 mb 0.00 in0.0 mm 0.00 in/hr0.0 mm/hr 0.01 in0.3 mm
03:56 AM 44.6°F7.0°C 44.3°F6.8°C 99% 2.9 mph E4.7 kmh E 7.6 mph12.2 kmh 29.56 in1001.0 mb 0.00 in0.0 mm 0.00 in/hr0.0 mm/hr 0.01 in0.3 mm
03:55 AM 44.4°F6.9°C 44.2°F6.8°C 99% 3.4 mph E5.5 kmh E 7.6 mph12.2 kmh 29.56 in1001.0 mb 0.00 in0.0 mm 0.00 in/hr0.0 mm/hr 0.01 in0.3 mm
03:54 AM 44.4°F6.9°C 44.2°F6.8°C 99% 3.4 mph E5.5 kmh E 7.6 mph12.2 kmh 29.56 in1001.0 mb 0.00 in0.0 mm 0.00 in/hr0.0 mm/hr 0.01 in0.3 mm
03:53 AM 44.4°F6.9°C 44.2°F6.8°C 99% 3.4 mph E5.5 kmh E 7.6 mph12.2 kmh 29.56 in1001.0 mb 0.00 in0.0 mm 0.00 in/hr0.0 mm/hr 0.01 in0.3 mm
03:52 AM 44.6°F7.0°C 44.3°F6.8°C 99% 3.8 mph E6.1 kmh E 7.6 mph12.2 kmh 29.56 in1001.0 mb 0.00 in0.0 mm 0.00 in/hr0.0 mm/hr 0.01 in0.3 mm
03:51 AM 44.4°F6.9°C 44.2°F6.8°C 99% 3.9 mph ENE6.3 kmh ENE 7.6 mph12.2 kmh 29.56 in1001.0 mb 0.00 in0.0 mm 0.00 in/hr0.0 mm/hr 0.01 in0.3 mm
03:50 AM 44.4°F6.9°C 44.2°F6.8°C 99% 4.0 mph ENE6.4 kmh ENE 7.6 mph12.2 kmh 29.56 in1001.0 mb 0.00 in0.0 mm 0.00 in/hr0.0 mm/hr 0.01 in0.3 mm
03:49 AM 44.6°F7.0°C 44.3°F6.8°C 99% 4.1 mph NE6.6 kmh NE 7.6 mph12.2 kmh 29.56 in1001.0 mb 0.00 in0.0 mm 0.00 in/hr0.0 mm/hr 0.01 in0.3 mm
03:48 AM 44.6°F7.0°C 44.3°F6.8°C 99% 3.9 mph NE6.3 kmh NE 7.6 mph12.2 kmh 29.56 in1001.0 mb 0.00 in0.0 mm 0.00 in/hr0.0 mm/hr 0.01 in0.3 mm
03:47 AM 44.6°F7.0°C 44.3°F6.8°C 99% 3.7 mph NE6.0 kmh NE 7.6 mph12.2 kmh 29.56 in1001.0 mb 0.00 in0.0 mm 0.00 in/hr0.0 mm/hr 0.01 in0.3 mm
03:46 AM 44.6°F7.0°C 44.3°F6.8°C 99% 3.6 mph NE5.8 kmh NE 7.6 mph12.2 kmh 29.56 in1001.0 mb 0.00 in0.0 mm 0.00 in/hr0.0 mm/hr 0.01 in0.3 mm
03:45 AM 44.6°F7.0°C 44.3°F6.8°C 99% 3.9 mph NE6.3 kmh NE 9.2 mph14.8 kmh 29.56 in1001.0 mb 0.00 in0.0 mm 0.00 in/hr0.0 mm/hr 0.01 in0.3 mm
03:44 AM 44.4°F6.9°C 44.2°F6.8°C 99% 4.7 mph NE7.6 kmh NE 10.7 mph17.2 kmh 29.56 in1001.0 mb 0.00 in0.0 mm 0.00 in/hr0.0 mm/hr 0.01 in0.3 mm
03:43 AM 44.8°F7.1°C 44.5°F6.9°C 99% 5.5 mph NNE8.9 kmh NNE 10.7 mph17.2 kmh 29.56 in1001.0 mb 0.00 in0.0 mm 0.00 in/hr0.0 mm/hr 0.01 in0.3 mm
03:42 AM 44.6°F7.0°C 44.3°F6.8°C 99% 5.5 mph NNE8.9 kmh NNE 10.7 mph17.2 kmh 29.55 in1000.7 mb 0.00 in0.0 mm 0.00 in/hr0.0 mm/hr 0.01 in0.3 mm
03:41 AM 44.6°F7.0°C 44.3°F6.8°C 99% 5.7 mph NE9.2 kmh NE 10.7 mph17.2 kmh 29.56 in1001.0 mb 0.00 in0.0 mm 0.00 in/hr0.0 mm/hr 0.01 in0.3 mm
03:40 AM 44.4°F6.9°C 44.2°F6.8°C 99% 5.6 mph NE9.0 kmh NE 10.7 mph17.2 kmh 29.56 in1001.0 mb 0.00 in0.0 mm 0.00 in/hr0.0 mm/hr 0.01 in0.3 mm
03:39 AM 44.6°F7.0°C 44.3°F6.8°C 99% 5.4 mph NE8.7 kmh NE 10.7 mph17.2 kmh 29.56 in1001.0 mb 0.00 in0.0 mm 0.00 in/hr0.0 mm/hr 0.01 in0.3 mm
03:38 AM 44.6°F7.0°C 44.3°F6.8°C 99% 5.7 mph NE9.2 kmh NE 10.7 mph17.2 kmh 29.55 in1000.7 mb 0.00 in0.0 mm 0.00 in/hr0.0 mm/hr 0.01 in0.3 mm
03:37 AM 44.8°F7.1°C 44.5°F6.9°C 99% 5.6 mph NE9.0 kmh NE 10.7 mph17.2 kmh 29.55 in1000.7 mb 0.00 in0.0 mm 0.00 in/hr0.0 mm/hr 0.01 in0.3 mm
03:36 AM 44.4°F6.9°C 44.2°F6.8°C 99% 5.8 mph NE9.3 kmh NE 10.7 mph17.2 kmh 29.55 in1000.7 mb 0.00 in0.0 mm 0.00 in/hr0.0 mm/hr 0.01 in0.3 mm
03:35 AM 44.4°F6.9°C 44.2°F6.8°C 99% 5.4 mph NNE8.7 kmh NNE 10.7 mph17.2 kmh 29.55 in1000.7 mb 0.00 in0.0 mm 0.00 in/hr0.0 mm/hr 0.01 in0.3 mm
03:34 AM 44.2°F6.8°C 44.0°F6.7°C 99% 4.9 mph NE7.9 kmh NE 9.2 mph14.8 kmh 29.55 in1000.7 mb 0.00 in0.0 mm 0.00 in/hr0.0 mm/hr 0.01 in0.3 mm
03:33 AM 44.6°F7.0°C 44.3°F6.8°C 99% 4.8 mph NE7.7 kmh NE 7.6 mph12.2 kmh 29.56 in1001.0 mb 0.00 in0.0 mm 0.00 in/hr0.0 mm/hr 0.01 in0.3 mm
03:32 AM 44.6°F7.0°C 44.3°F6.8°C 99% 5.0 mph NE8.0 kmh NE 7.6 mph12.2 kmh 29.55 in1000.7 mb 0.00 in0.0 mm 0.00 in/hr0.0 mm/hr 0.01 in0.3 mm
03:31 AM 44.6°F7.0°C 44.3°F6.8°C 99% 4.8 mph NNE7.7 kmh NNE 8.3 mph13.4 kmh 29.55 in1000.7 mb 0.00 in0.0 mm 0.00 in/hr0.0 mm/hr 0.01 in0.3 mm
03:30 AM 44.4°F6.9°C 44.2°F6.8°C 99% 4.8 mph NNE7.7 kmh NNE 8.3 mph13.4 kmh 29.55 in1000.7 mb 0.00 in0.0 mm 0.00 in/hr0.0 mm/hr 0.01 in0.3 mm
03:29 AM 44.6°F7.0°C 44.3°F6.8°C 99% 4.6 mph NNE7.4 kmh NNE 8.3 mph13.4 kmh 29.55 in1000.7 mb 0.00 in0.0 mm 0.00 in/hr0.0 mm/hr 0.01 in0.3 mm
03:28 AM 44.4°F6.9°C 44.2°F6.8°C 99% 4.7 mph NNE7.6 kmh NNE 8.3 mph13.4 kmh 29.55 in1000.7 mb 0.00 in0.0 mm 0.00 in/hr0.0 mm/hr 0.01 in0.3 mm
03:27 AM 44.6°F7.0°C 44.3°F6.8°C 99% 4.8 mph NNE7.7 kmh NNE 8.3 mph13.4 kmh 29.55 in1000.7 mb 0.00 in0.0 mm 0.00 in/hr0.0 mm/hr 0.01 in0.3 mm
03:26 AM 44.6°F7.0°C 44.3°F6.8°C 99% 4.6 mph NNE7.4 kmh NNE 8.3 mph13.4 kmh 29.55 in1000.7 mb 0.00 in0.0 mm 0.00 in/hr0.0 mm/hr 0.01 in0.3 mm
03:25 AM 44.6°F7.0°C 44.3°F6.8°C 99% 4.4 mph NNE7.1 kmh NNE 8.3 mph13.4 kmh 29.55 in1000.7 mb 0.00 in0.0 mm 0.00 in/hr0.0 mm/hr 0.01 in0.3 mm
03:24 AM 44.6°F7.0°C 44.3°F6.8°C 99% 3.9 mph NNE6.3 kmh NNE 8.3 mph13.4 kmh 29.55 in1000.7 mb 0.00 in0.0 mm 0.00 in/hr0.0 mm/hr 0.01 in0.3 mm
03:23 AM 44.6°F7.0°C 44.3°F6.8°C 99% 3.4 mph NNE5.5 kmh NNE 8.3 mph13.4 kmh 29.55 in1000.7 mb 0.00 in0.0 mm 0.00 in/hr0.0 mm/hr 0.01 in0.3 mm
03:22 AM 44.6°F7.0°C 44.3°F6.8°C 99% 3.2 mph NE5.1 kmh NE 8.3 mph13.4 kmh 29.55 in1000.7 mb 0.00 in0.0 mm 0.00 in/hr0.0 mm/hr 0.01 in0.3 mm
03:21 AM 44.6°F7.0°C 44.3°F6.8°C 99% 3.3 mph NE5.3 kmh NE 8.3 mph13.4 kmh 29.56 in1001.0 mb 0.00 in0.0 mm 0.00 in/hr0.0 mm/hr 0.01 in0.3 mm
03:20 AM 44.6°F7.0°C 44.3°F6.8°C 99% 3.1 mph NE5.0 kmh NE 6.9 mph11.1 kmh 29.55 in1000.7 mb 0.00 in0.0 mm 0.00 in/hr0.0 mm/hr 0.01 in0.3 mm
03:19 AM 44.6°F7.0°C 44.3°F6.8°C 99% 3.3 mph NE5.3 kmh NE 6.9 mph11.1 kmh 29.56 in1001.0 mb 0.00 in0.0 mm 0.00 in/hr0.0 mm/hr 0.01 in0.3 mm
03:18 AM 44.6°F7.0°C 44.3°F6.8°C 99% 3.3 mph NE5.3 kmh NE 6.9 mph11.1 kmh 29.55 in1000.7 mb 0.00 in0.0 mm 0.00 in/hr0.0 mm/hr 0.01 in0.3 mm
03:17 AM 44.8°F7.1°C 44.5°F6.9°C 99% 3.7 mph NE6.0 kmh NE 7.6 mph12.2 kmh 29.56 in1001.0 mb 0.00 in0.0 mm 0.00 in/hr0.0 mm/hr 0.01 in0.3 mm
03:16 AM 44.8°F7.1°C 44.5°F6.9°C 99% 4.9 mph NE7.9 kmh NE 18.3 mph29.5 kmh 29.56 in1001.0 mb 0.00 in0.0 mm 0.00 in/hr0.0 mm/hr 0.01 in0.3 mm
03:15 AM 44.6°F7.0°C 44.3°F6.8°C 99% 5.3 mph NE8.5 kmh NE 18.3 mph29.5 kmh 29.55 in1000.7 mb 0.00 in0.0 mm 0.00 in/hr0.0 mm/hr 0.01 in0.3 mm
03:14 AM 44.6°F7.0°C 44.3°F6.8°C 99% 5.8 mph NE9.3 kmh NE 18.3 mph29.5 kmh 29.55 in1000.7 mb 0.00 in0.0 mm 0.00 in/hr0.0 mm/hr 0.01 in0.3 mm
03:13 AM 45.0°F7.2°C 44.7°F7.1°C 99% 6.0 mph NE9.7 kmh NE 18.3 mph29.5 kmh 29.55 in1000.7 mb 0.00 in0.0 mm 0.00 in/hr0.0 mm/hr 0.01 in0.3 mm
03:12 AM 44.6°F7.0°C 44.3°F6.8°C 99% 6.6 mph NE10.6 kmh NE 18.3 mph29.5 kmh 29.55 in1000.7 mb 0.00 in0.0 mm 0.00 in/hr0.0 mm/hr 0.01 in0.3 mm
03:11 AM 45.0°F7.2°C 44.7°F7.1°C 99% 6.5 mph NE10.5 kmh NE 18.3 mph29.5 kmh 29.55 in1000.7 mb 0.00 in0.0 mm 0.00 in/hr0.0 mm/hr 0.01 in0.3 mm
03:10 AM 45.0°F7.2°C 44.7°F7.1°C 99% 6.5 mph NE10.5 kmh NE 18.3 mph29.5 kmh 29.56 in1001.0 mb 0.00 in0.0 mm 0.00 in/hr0.0 mm/hr 0.01 in0.3 mm
03:09 AM 45.0°F7.2°C 44.7°F7.1°C 99% 6.8 mph NE10.9 kmh NE 18.3 mph29.5 kmh 29.55 in1000.7 mb 0.00 in0.0 mm 0.00 in/hr0.0 mm/hr 0.01 in0.3 mm
03:08 AM 45.0°F7.2°C 44.7°F7.1°C 99% 7.9 mph NNE12.7 kmh NNE 18.3 mph29.5 kmh 29.55 in1000.7 mb 0.00 in0.0 mm 0.00 in/hr0.0 mm/hr 0.01 in0.3 mm
03:07 AM 45.0°F7.2°C 44.7°F7.1°C 99% 7.7 mph NE12.4 kmh NE 18.3 mph29.5 kmh 29.55 in1000.7 mb 0.00 in0.0 mm 0.00 in/hr0.0 mm/hr 0.01 in0.3 mm
03:06 AM 44.8°F7.1°C 44.5°F6.9°C 99% 6.6 mph NNE10.6 kmh NNE 17.4 mph28.0 kmh 29.55 in1000.7 mb 0.00 in0.0 mm 0.00 in/hr0.0 mm/hr 0.01 in0.3 mm
03:05 AM 45.0°F7.2°C 44.7°F7.1°C 99% 6.5 mph NNE10.5 kmh NNE 17.4 mph28.0 kmh 29.55 in1000.7 mb 0.00 in0.0 mm 0.00 in/hr0.0 mm/hr 0.01 in0.3 mm
03:04 AM 45.0°F7.2°C 44.7°F7.1°C 99% 6.6 mph NE10.6 kmh NE 17.4 mph28.0 kmh 29.56 in1001.0 mb 0.00 in0.0 mm 0.00 in/hr0.0 mm/hr 0.01 in0.3 mm
03:03 AM 45.1°F7.3°C 44.9°F7.2°C 99% 7.2 mph NNE11.6 kmh NNE 17.4 mph28.0 kmh 29.55 in1000.7 mb 0.00 in0.0 mm 0.00 in/hr0.0 mm/hr 0.01 in0.3 mm
03:02 AM 45.1°F7.3°C 44.9°F7.2°C 99% 7.1 mph NNE11.4 kmh NNE 17.4 mph28.0 kmh 29.55 in1000.7 mb 0.00 in0.0 mm 0.00 in/hr0.0 mm/hr 0.01 in0.3 mm
03:01 AM 45.0°F7.2°C 44.7°F7.1°C 99% 7.0 mph NNE11.3 kmh NNE 17.4 mph28.0 kmh 29.55 in1000.7 mb 0.00 in0.0 mm 0.00 in/hr0.0 mm/hr 0.01 in0.3 mm
03:00 AM 45.1°F7.3°C 44.9°F7.2°C 99% 7.3 mph NNE11.7 kmh NNE 17.4 mph28.0 kmh 29.55 in1000.7 mb 0.00 in0.0 mm 0.00 in/hr0.0 mm/hr 0.01 in0.3 mm
02:59 AM 45.0°F7.2°C 44.7°F7.1°C 99% 7.2 mph NNE11.6 kmh NNE 17.4 mph28.0 kmh 29.55 in1000.7 mb 0.00 in0.0 mm 0.00 in/hr0.0 mm/hr 0.01 in0.3 mm
02:58 AM 45.1°F7.3°C 44.9°F7.2°C 99% 6.6 mph NE10.6 kmh NE 12.1 mph19.5 kmh 29.55 in1000.7 mb 0.00 in0.0 mm 0.00 in/hr0.0 mm/hr 0.01 in0.3 mm
02:57 AM 45.0°F7.2°C 44.7°F7.1°C 99% 7.0 mph NE11.3 kmh NE 12.1 mph19.5 kmh 29.55 in1000.7 mb 0.00 in0.0 mm 0.00 in/hr0.0 mm/hr 0.01 in0.3 mm
02:56 AM 45.0°F7.2°C 44.7°F7.1°C 99% 6.9 mph NE11.1 kmh NE 12.1 mph19.5 kmh 29.55 in1000.7 mb 0.00 in0.0 mm 0.00 in/hr0.0 mm/hr 0.01 in0.3 mm
02:55 AM 45.0°F7.2°C 44.7°F7.1°C 99% 7.2 mph NE11.6 kmh NE 12.1 mph19.5 kmh 29.55 in1000.7 mb 0.00 in0.0 mm 0.00 in/hr0.0 mm/hr 0.01 in0.3 mm
02:54 AM 45.1°F7.3°C 44.9°F7.2°C 99% 7.1 mph NE11.4 kmh NE 12.1 mph19.5 kmh 29.55 in1000.7 mb 0.00 in0.0 mm 0.00 in/hr0.0 mm/hr 0.01 in0.3 mm
02:53 AM 45.3°F7.4°C 45.1°F7.3°C 99% 6.5 mph NE10.5 kmh NE 12.1 mph19.5 kmh 29.55 in1000.7 mb 0.00 in0.0 mm 0.00 in/hr0.0 mm/hr 0.01 in0.3 mm
02:52 AM 45.0°F7.2°C 44.7°F7.1°C 99% 6.5 mph NE10.5 kmh NE 12.1 mph19.5 kmh 29.55 in1000.7 mb 0.00 in0.0 mm 0.00 in/hr0.0 mm/hr 0.01 in0.3 mm
02:51 AM 45.1°F7.3°C 44.9°F7.2°C 99% 6.7 mph NE10.8 kmh NE 12.1 mph19.5 kmh 29.55 in1000.7 mb 0.00 in0.0 mm 0.00 in/hr0.0 mm/hr 0.01 in0.3 mm
02:50 AM 45.0°F7.2°C 44.7°F7.1°C 99% 6.5 mph NE10.5 kmh NE 12.1 mph19.5 kmh 29.55 in1000.7 mb 0.00 in0.0 mm 0.00 in/hr0.0 mm/hr 0.01 in0.3 mm
02:49 AM 45.1°F7.3°C 44.9°F7.2°C 99% 6.3 mph NE10.1 kmh NE 12.1 mph19.5 kmh 29.55 in1000.7 mb 0.00 in0.0 mm 0.00 in/hr0.0 mm/hr 0.01 in0.3 mm
02:48 AM 45.0°F7.2°C 44.7°F7.1°C 99% 6.1 mph NE9.8 kmh NE 12.1 mph19.5 kmh 29.55 in1000.7 mb 0.00 in0.0 mm 0.00 in/hr0.0 mm/hr 0.01 in0.3 mm
02:47 AM 45.1°F7.3°C 44.9°F7.2°C 99% 5.9 mph NNE9.5 kmh NNE 10.7 mph17.2 kmh 29.55 in1000.7 mb 0.00 in0.0 mm 0.00 in/hr0.0 mm/hr 0.01 in0.3 mm
02:46 AM 45.0°F7.2°C 44.7°F7.1°C 99% 6.0 mph NNE9.7 kmh NNE 10.7 mph17.2 kmh 29.55 in1000.7 mb 0.00 in0.0 mm 0.00 in/hr0.0 mm/hr 0.01 in0.3 mm
02:45 AM 45.1°F7.3°C 44.9°F7.2°C 99% 5.8 mph NNE9.3 kmh NNE 10.7 mph17.2 kmh 29.55 in1000.7 mb 0.00 in0.0 mm 0.00 in/hr0.0 mm/hr 0.01 in0.3 mm
02:44 AM 45.1°F7.3°C 44.9°F7.2°C 99% 6.0 mph NNE9.7 kmh NNE 10.7 mph17.2 kmh 29.55 in1000.7 mb 0.00 in0.0 mm 0.00 in/hr0.0 mm/hr 0.01 in0.3 mm
02:43 AM 45.3°F7.4°C 45.1°F7.3°C 99% 6.3 mph NNE10.1 kmh NNE 10.7 mph17.2 kmh 29.55 in1000.7 mb 0.00 in0.0 mm 0.00 in/hr0.0 mm/hr 0.01 in0.3 mm
02:42 AM 45.3°F7.4°C 45.1°F7.3°C 99% 6.2 mph NE10.0 kmh NE 10.7 mph17.2 kmh 29.55 in1000.7 mb 0.00 in0.0 mm 0.00 in/hr0.0 mm/hr 0.01 in0.3 mm
02:41 AM 45.1°F7.3°C 44.9°F7.2°C 99% 6.0 mph NE9.7 kmh NE 9.2 mph14.8 kmh 29.55 in1000.7 mb 0.00 in0.0 mm 0.00 in/hr0.0 mm/hr 0.01 in0.3 mm
02:40 AM 45.1°F7.3°C 44.9°F7.2°C 99% 6.3 mph NE10.1 kmh NE 9.2 mph14.8 kmh 29.55 in1000.7 mb 0.00 in0.0 mm 0.00 in/hr0.0 mm/hr 0.01 in0.3 mm
02:39 AM 45.1°F7.3°C 44.9°F7.2°C 99% 6.5 mph NE10.5 kmh NE 9.2 mph14.8 kmh 29.56 in1001.0 mb 0.00 in0.0 mm 0.00 in/hr0.0 mm/hr 0.01 in0.3 mm
02:38 AM 45.3°F7.4°C 45.1°F7.3°C 99% 6.9 mph NE11.1 kmh NE 13.0 mph20.9 kmh 29.56 in1001.0 mb 0.00 in0.0 mm 0.00 in/hr0.0 mm/hr 0.01 in0.3 mm
02:37 AM 45.1°F7.3°C 44.9°F7.2°C 99% 6.8 mph NE10.9 kmh NE 13.0 mph20.9 kmh 29.55 in1000.7 mb 0.00 in0.0 mm 0.00 in/hr0.0 mm/hr 0.01 in0.3 mm
02:36 AM 45.1°F7.3°C 44.9°F7.2°C 99% 7.4 mph NE11.9 kmh NE 13.0 mph20.9 kmh 29.55 in1000.7 mb 0.00 in0.0 mm 0.00 in/hr0.0 mm/hr 0.01 in0.3 mm
02:35 AM 45.3°F7.4°C 45.1°F7.3°C 99% 7.8 mph NNE12.6 kmh NNE 13.0 mph20.9 kmh 29.55 in1000.7 mb 0.00 in0.0 mm 0.00 in/hr0.0 mm/hr 0.01 in0.3 mm
02:34 AM 45.3°F7.4°C 45.1°F7.3°C 99% 7.6 mph NNE12.2 kmh NNE 13.0 mph20.9 kmh 29.55 in1000.7 mb 0.00 in0.0 mm 0.00 in/hr0.0 mm/hr 0.01 in0.3 mm
02:33 AM 45.3°F7.4°C 45.1°F7.3°C 99% 7.1 mph NNE11.4 kmh NNE 13.0 mph20.9 kmh 29.55 in1000.7 mb 0.00 in0.0 mm 0.00 in/hr0.0 mm/hr 0.01 in0.3 mm
02:32 AM 44.8°F7.1°C 44.5°F6.9°C 99% 6.8 mph NE10.9 kmh NE 13.0 mph20.9 kmh 29.56 in1001.0 mb 0.00 in0.0 mm 0.00 in/hr0.0 mm/hr 0.01 in0.3 mm
02:31 AM 45.1°F7.3°C 44.9°F7.2°C 99% 6.9 mph NNE11.1 kmh NNE 13.0 mph20.9 kmh 29.55 in1000.7 mb 0.00 in0.0 mm 0.00 in/hr0.0 mm/hr 0.01 in0.3 mm
02:30 AM 45.3°F7.4°C 45.1°F7.3°C 99% 6.5 mph NNE10.5 kmh NNE 13.0 mph20.9 kmh 29.55 in1000.7 mb 0.00 in0.0 mm 0.00 in/hr0.0 mm/hr 0.01 in0.3 mm
02:29 AM 45.1°F7.3°C 44.9°F7.2°C 99% 6.0 mph NE9.7 kmh NE 13.0 mph20.9 kmh 29.55 in1000.7 mb 0.00 in0.0 mm 0.00 in/hr0.0 mm/hr 0.01 in0.3 mm
02:28 AM 45.3°F7.4°C 45.1°F7.3°C 99% 5.3 mph NE8.5 kmh NE 13.0 mph20.9 kmh 29.55 in1000.7 mb 0.00 in0.0 mm 0.00 in/hr0.0 mm/hr 0.01 in0.3 mm
02:27 AM 45.3°F7.4°C 45.1°F7.3°C 99% 5.4 mph NE8.7 kmh NE 13.0 mph20.9 kmh 29.55 in1000.7 mb 0.00 in0.0 mm 0.00 in/hr0.0 mm/hr 0.01 in0.3 mm
02:26 AM 45.3°F7.4°C 45.1°F7.3°C 99% 4.7 mph NE7.6 kmh NE 13.0 mph20.9 kmh 29.55 in1000.7 mb 0.00 in0.0 mm 0.00 in/hr0.0 mm/hr 0.01 in0.3 mm
02:25 AM 45.5°F7.5°C 45.2°F7.3°C 99% 4.1 mph NE6.6 kmh NE 6.9 mph11.1 kmh 29.55 in1000.7 mb 0.00 in0.0 mm 0.00 in/hr0.0 mm/hr 0.01 in0.3 mm
02:24 AM 45.3°F7.4°C 45.1°F7.3°C 99% 4.3 mph NNE6.9 kmh NNE 9.2 mph14.8 kmh 29.55 in1000.7 mb 0.00 in0.0 mm 0.00 in/hr0.0 mm/hr 0.01 in0.3 mm
02:23 AM 45.0°F7.2°C 44.7°F7.1°C 99% 4.2 mph NNE6.8 kmh NNE 9.2 mph14.8 kmh 29.55 in1000.7 mb 0.00 in0.0 mm 0.00 in/hr0.0 mm/hr 0.01 in0.3 mm
02:22 AM 45.3°F7.4°C 45.1°F7.3°C 99% 4.1 mph NNE6.6 kmh NNE 9.2 mph14.8 kmh 29.55 in1000.7 mb 0.00 in0.0 mm 0.00 in/hr0.0 mm/hr 0.01 in0.3 mm
02:21 AM 45.1°F7.3°C 44.9°F7.2°C 99% 3.7 mph NNE6.0 kmh NNE 9.2 mph14.8 kmh 29.55 in1000.7 mb 0.00 in0.0 mm 0.00 in/hr0.0 mm/hr 0.01 in0.3 mm
02:20 AM 45.1°F7.3°C 44.9°F7.2°C 99% 3.9 mph NNE6.3 kmh NNE 9.2 mph14.8 kmh 29.55 in1000.7 mb 0.00 in0.0 mm 0.00 in/hr0.0 mm/hr 0.01 in0.3 mm
02:19 AM 45.3°F7.4°C 45.1°F7.3°C 99% 4.2 mph NNE6.8 kmh NNE 9.2 mph14.8 kmh 29.55 in1000.7 mb 0.00 in0.0 mm 0.00 in/hr0.0 mm/hr 0.01 in0.3 mm
02:18 AM 45.1°F7.3°C 44.9°F7.2°C 99% 4.2 mph N6.8 kmh N 9.2 mph14.8 kmh 29.55 in1000.7 mb 0.00 in0.0 mm 0.00 in/hr0.0 mm/hr 0.01 in0.3 mm
02:17 AM 45.1°F7.3°C 44.9°F7.2°C 99% 3.8 mph N6.1 kmh N 9.2 mph14.8 kmh 29.55 in1000.7 mb 0.00 in0.0 mm 0.00 in/hr0.0 mm/hr 0.01 in0.3 mm
02:16 AM 45.1°F7.3°C 44.9°F7.2°C 99% 4.1 mph NNE6.6 kmh NNE 9.2 mph14.8 kmh 29.55 in1000.7 mb 0.00 in0.0 mm 0.00 in/hr0.0 mm/hr 0.01 in0.3 mm
02:15 AM 45.3°F7.4°C 45.1°F7.3°C 99% 4.5 mph NNE7.2 kmh NNE 9.2 mph14.8 kmh 29.55 in1000.7 mb 0.00 in0.0 mm 0.00 in/hr0.0 mm/hr 0.01 in0.3 mm
02:14 AM 45.3°F7.4°C 45.1°F7.3°C 99% 4.5 mph NNE7.2 kmh NNE 8.3 mph13.4 kmh 29.55 in1000.7 mb 0.00 in0.0 mm 0.00 in/hr0.0 mm/hr 0.01 in0.3 mm
02:13 AM 45.3°F7.4°C 45.1°F7.3°C 99% 4.6 mph NNE7.4 kmh NNE 8.3 mph13.4 kmh 29.55 in1000.7 mb 0.00 in0.0 mm 0.00 in/hr0.0 mm/hr 0.01 in0.3 mm
02:12 AM 45.3°F7.4°C 45.1°F7.3°C 99% 4.8 mph NNE7.7 kmh NNE 8.3 mph13.4 kmh 29.55 in1000.7 mb 0.00 in0.0 mm 0.00 in/hr0.0 mm/hr 0.01 in0.3 mm
02:11 AM 45.3°F7.4°C 45.1°F7.3°C 99% 5.1 mph NNE8.2 kmh NNE 8.3 mph13.4 kmh 29.55 in1000.7 mb 0.00 in0.0 mm 0.00 in/hr0.0 mm/hr 0.01 in0.3 mm
02:10 AM 45.3°F7.4°C 45.1°F7.3°C 99% 4.7 mph NNE7.6 kmh NNE 8.3 mph13.4 kmh 29.55 in1000.7 mb 0.00 in0.0 mm 0.00 in/hr0.0 mm/hr 0.01 in0.3 mm
02:09 AM 45.3°F7.4°C 45.1°F7.3°C 99% 4.6 mph NNE7.4 kmh NNE 7.6 mph12.2 kmh 29.55 in1000.7 mb 0.00 in0.0 mm 0.00 in/hr0.0 mm/hr 0.01 in0.3 mm
02:08 AM 45.3°F7.4°C 45.1°F7.3°C 99% 5.3 mph NNE8.5 kmh NNE 11.4 mph18.3 kmh 29.55 in1000.7 mb 0.00 in0.0 mm 0.00 in/hr0.0 mm/hr 0.01 in0.3 mm
02:07 AM 45.3°F7.4°C 45.1°F7.3°C 99% 5.5 mph NNE8.9 kmh NNE 11.4 mph18.3 kmh 29.55 in1000.7 mb 0.00 in0.0 mm 0.00 in/hr0.0 mm/hr 0.01 in0.3 mm
02:06 AM 45.3°F7.4°C 45.1°F7.3°C 99% 5.4 mph NNE8.7 kmh NNE 11.4 mph18.3 kmh 29.55 in1000.7 mb 0.00 in0.0 mm 0.00 in/hr0.0 mm/hr 0.01 in0.3 mm
02:05 AM 45.1°F7.3°C 44.9°F7.2°C 99% 4.9 mph NNE7.9 kmh NNE 11.4 mph18.3 kmh 29.55 in1000.7 mb 0.00 in0.0 mm 0.00 in/hr0.0 mm/hr 0.01 in0.3 mm
02:04 AM 45.1°F7.3°C 44.9°F7.2°C 99% 4.2 mph NNE6.8 kmh NNE 11.4 mph18.3 kmh 29.55 in1000.7 mb 0.00 in0.0 mm 0.00 in/hr0.0 mm/hr 0.01 in0.3 mm
02:03 AM 45.1°F7.3°C 44.9°F7.2°C 99% 4.4 mph NNE7.1 kmh NNE 11.4 mph18.3 kmh 29.56 in1001.0 mb 0.00 in0.0 mm 0.00 in/hr0.0 mm/hr 0.01 in0.3 mm
02:02 AM 45.3°F7.4°C 45.1°F7.3°C 99% 4.0 mph NNE6.4 kmh NNE 11.4 mph18.3 kmh 29.55 in1000.7 mb 0.00 in0.0 mm 0.00 in/hr0.0 mm/hr 0.01 in0.3 mm
02:01 AM 45.3°F7.4°C 45.1°F7.3°C 99% 3.6 mph NNE5.8 kmh NNE 11.4 mph18.3 kmh 29.55 in1000.7 mb 0.00 in0.0 mm 0.00 in/hr0.0 mm/hr 0.01 in0.3 mm
02:00 AM 45.1°F7.3°C 44.9°F7.2°C 99% 3.7 mph NNE6.0 kmh NNE 11.4 mph18.3 kmh 29.56 in1001.0 mb 0.00 in0.0 mm 0.00 in/hr0.0 mm/hr 0.01 in0.3 mm
01:59 AM 45.0°F7.2°C 44.7°F7.1°C 99% 3.4 mph NE5.5 kmh NE 11.4 mph18.3 kmh 29.55 in1000.7 mb 0.00 in0.0 mm 0.00 in/hr0.0 mm/hr 0.01 in0.3 mm
01:58 AM 45.3°F7.4°C 45.1°F7.3°C 99% 2.4 mph NE3.9 kmh NE 6.9 mph11.1 kmh 29.55 in1000.7 mb 0.00 in0.0 mm 0.00 in/hr0.0 mm/hr 0.01 in0.3 mm
01:57 AM 45.3°F7.4°C 45.1°F7.3°C 99% 2.2 mph NE3.5 kmh NE 6.9 mph11.1 kmh 29.55 in1000.7 mb 0.00 in0.0 mm 0.00 in/hr0.0 mm/hr 0.01 in0.3 mm
01:56 AM 45.3°F7.4°C 45.1°F7.3°C 99% 2.0 mph NE3.2 kmh NE 6.9 mph11.1 kmh 29.55 in1000.7 mb 0.00 in0.0 mm 0.00 in/hr0.0 mm/hr 0.01 in0.3 mm
01:55 AM 45.1°F7.3°C 44.9°F7.2°C 99% 2.1 mph ENE3.4 kmh ENE 3.8 mph6.1 kmh 29.55 in1000.7 mb 0.00 in0.0 mm 0.00 in/hr0.0 mm/hr 0.01 in0.3 mm
01:54 AM 45.1°F7.3°C 44.9°F7.2°C 99% 2.2 mph E3.5 kmh E 3.8 mph6.1 kmh 29.55 in1000.7 mb 0.00 in0.0 mm 0.00 in/hr0.0 mm/hr 0.01 in0.3 mm
01:53 AM 45.1°F7.3°C 44.9°F7.2°C 99% 1.9 mph E3.1 kmh E 3.8 mph6.1 kmh 29.56 in1001.0 mb 0.00 in0.0 mm 0.00 in/hr0.0 mm/hr 0.01 in0.3 mm
01:52 AM 45.1°F7.3°C 44.9°F7.2°C 99% 1.7 mph ESE2.7 kmh ESE 3.8 mph6.1 kmh 29.55 in1000.7 mb 0.00 in0.0 mm 0.00 in/hr0.0 mm/hr 0.01 in0.3 mm
01:51 AM 45.1°F7.3°C 44.9°F7.2°C 99% 1.8 mph E2.9 kmh E 3.8 mph6.1 kmh 29.55 in1000.7 mb 0.00 in0.0 mm 0.00 in/hr0.0 mm/hr 0.01 in0.3 mm
01:50 AM 45.3°F7.4°C 45.1°F7.3°C 99% 1.8 mph E2.9 kmh E 3.8 mph6.1 kmh 29.55 in1000.7 mb 0.00 in0.0 mm 0.00 in/hr0.0 mm/hr 0.01 in0.3 mm
01:49 AM 45.3°F7.4°C 45.1°F7.3°C 99% 1.7 mph E2.7 kmh E 3.8 mph6.1 kmh 29.55 in1000.7 mb 0.00 in0.0 mm 0.00 in/hr0.0 mm/hr 0.01 in0.3 mm
01:48 AM 45.3°F7.4°C 45.1°F7.3°C 99% 2.5 mph ENE4.0 kmh ENE 8.3 mph13.4 kmh 29.55 in1000.7 mb 0.00 in0.0 mm 0.00 in/hr0.0 mm/hr 0.01 in0.3 mm
01:47 AM 45.0°F7.2°C 44.7°F7.1°C 99% 2.5 mph E4.0 kmh E 8.3 mph13.4 kmh 29.55 in1000.7 mb 0.00 in0.0 mm 0.00 in/hr0.0 mm/hr 0.01 in0.3 mm
01:46 AM 45.1°F7.3°C 44.9°F7.2°C 99% 2.6 mph E4.2 kmh E 8.3 mph13.4 kmh 29.55 in1000.7 mb 0.00 in0.0 mm 0.00 in/hr0.0 mm/hr 0.01 in0.3 mm
01:45 AM 45.1°F7.3°C 44.9°F7.2°C 99% 2.6 mph NE4.2 kmh NE 8.3 mph13.4 kmh 29.55 in1000.7 mb 0.00 in0.0 mm 0.00 in/hr0.0 mm/hr 0.01 in0.3 mm
01:44 AM 45.1°F7.3°C 44.9°F7.2°C 99% 2.8 mph NE4.5 kmh NE 8.3 mph13.4 kmh 29.55 in1000.7 mb 0.00 in0.0 mm 0.00 in/hr0.0 mm/hr 0.01 in0.3 mm
01:43 AM 45.1°F7.3°C 44.9°F7.2°C 99% 2.7 mph NE4.3 kmh NE 8.3 mph13.4 kmh 29.55 in1000.7 mb 0.00 in0.0 mm 0.00 in/hr0.0 mm/hr 0.01 in0.3 mm
01:42 AM 45.1°F7.3°C 44.9°F7.2°C 99% 2.8 mph NE4.5 kmh NE 8.3 mph13.4 kmh 29.55 in1000.7 mb 0.00 in0.0 mm 0.00 in/hr0.0 mm/hr 0.01 in0.3 mm
01:41 AM 45.3°F7.4°C 45.1°F7.3°C 99% 2.6 mph NE4.2 kmh NE 8.3 mph13.4 kmh 29.55 in1000.7 mb 0.00 in0.0 mm 0.00 in/hr0.0 mm/hr 0.01 in0.3 mm
01:40 AM 45.1°F7.3°C 44.9°F7.2°C 99% 2.8 mph NNE4.5 kmh NNE 8.3 mph13.4 kmh 29.55 in1000.7 mb 0.00 in0.0 mm 0.00 in/hr0.0 mm/hr 0.01 in0.3 mm
01:39 AM 45.1°F7.3°C 44.9°F7.2°C 99% 2.7 mph NNE4.3 kmh NNE 8.3 mph13.4 kmh 29.55 in1000.7 mb 0.00 in0.0 mm 0.00 in/hr0.0 mm/hr 0.01 in0.3 mm
01:38 AM 45.3°F7.4°C 45.1°F7.3°C 99% 2.0 mph N3.2 kmh N 6.0 mph9.7 kmh 29.56 in1001.0 mb 0.00 in0.0 mm 0.00 in/hr0.0 mm/hr 0.01 in0.3 mm
01:37 AM 45.1°F7.3°C 44.9°F7.2°C 99% 1.9 mph N3.1 kmh N 6.0 mph9.7 kmh 29.55 in1000.7 mb 0.00 in0.0 mm 0.00 in/hr0.0 mm/hr 0.01 in0.3 mm
01:36 AM 45.1°F7.3°C 44.9°F7.2°C 99% 1.9 mph NNE3.1 kmh NNE 6.0 mph9.7 kmh 29.55 in1000.7 mb 0.00 in0.0 mm 0.00 in/hr0.0 mm/hr 0.01 in0.3 mm
01:35 AM 45.1°F7.3°C 44.9°F7.2°C 99% 2.1 mph NNE3.4 kmh NNE 9.8 mph15.8 kmh 29.55 in1000.7 mb 0.00 in0.0 mm 0.00 in/hr0.0 mm/hr 0.01 in0.3 mm
01:34 AM 45.3°F7.4°C 45.1°F7.3°C 99% 2.2 mph NNE3.5 kmh NNE 9.8 mph15.8 kmh 29.55 in1000.7 mb 0.00 in0.0 mm 0.00 in/hr0.0 mm/hr 0.01 in0.3 mm
01:33 AM 45.0°F7.2°C 44.7°F7.1°C 99% 2.4 mph NNE3.9 kmh NNE 9.8 mph15.8 kmh 29.55 in1000.7 mb 0.00 in0.0 mm 0.00 in/hr0.0 mm/hr 0.01 in0.3 mm
01:32 AM 45.1°F7.3°C 44.9°F7.2°C 99% 2.8 mph NNE4.5 kmh NNE 9.8 mph15.8 kmh 29.55 in1000.7 mb 0.00 in0.0 mm 0.00 in/hr0.0 mm/hr 0.01 in0.3 mm
01:31 AM 45.3°F7.4°C 45.1°F7.3°C 99% 3.0 mph NNE4.8 kmh NNE 9.8 mph15.8 kmh 29.55 in1000.7 mb 0.00 in0.0 mm 0.00 in/hr0.0 mm/hr 0.01 in0.3 mm
01:30 AM 45.1°F7.3°C 44.9°F7.2°C 99% 3.3 mph NE5.3 kmh NE 9.8 mph15.8 kmh 29.56 in1001.0 mb 0.00 in0.0 mm 0.00 in/hr0.0 mm/hr 0.01 in0.3 mm
01:29 AM 45.5°F7.5°C 45.2°F7.3°C 99% 3.7 mph NE6.0 kmh NE 9.8 mph15.8 kmh 29.55 in1000.7 mb 0.00 in0.0 mm 0.00 in/hr0.0 mm/hr 0.01 in0.3 mm
01:28 AM 45.1°F7.3°C 44.9°F7.2°C 99% 4.1 mph NE6.6 kmh NE 9.8 mph15.8 kmh 29.56 in1001.0 mb 0.00 in0.0 mm 0.00 in/hr0.0 mm/hr 0.01 in0.3 mm
01:27 AM 45.3°F7.4°C 45.1°F7.3°C 99% 4.1 mph NE6.6 kmh NE 9.8 mph15.8 kmh 29.56 in1001.0 mb 0.00 in0.0 mm 0.00 in/hr0.0 mm/hr 0.01 in0.3 mm
01:26 AM 45.1°F7.3°C 44.9°F7.2°C 99% 3.9 mph NNE6.3 kmh NNE 9.8 mph15.8 kmh 29.56 in1001.0 mb 0.00 in0.0 mm 0.00 in/hr0.0 mm/hr 0.01 in0.3 mm
01:25 AM 45.0°F7.2°C 44.7°F7.1°C 99% 3.6 mph NNE5.8 kmh NNE 9.8 mph15.8 kmh 29.55 in1000.7 mb 0.00 in0.0 mm 0.00 in/hr0.0 mm/hr 0.01 in0.3 mm
01:24 AM 45.1°F7.3°C 44.9°F7.2°C 99% 3.5 mph NNE5.6 kmh NNE 6.9 mph11.1 kmh 29.55 in1000.7 mb 0.00 in0.0 mm 0.00 in/hr0.0 mm/hr 0.01 in0.3 mm
01:23 AM 45.1°F7.3°C 44.9°F7.2°C 99% 3.9 mph NNE6.3 kmh NNE 6.9 mph11.1 kmh 29.55 in1000.7 mb 0.00 in0.0 mm 0.00 in/hr0.0 mm/hr 0.01 in0.3 mm
01:22 AM 45.1°F7.3°C 44.9°F7.2°C 99% 4.0 mph NNE6.4 kmh NNE 7.6 mph12.2 kmh 29.55 in1000.7 mb 0.00 in0.0 mm 0.00 in/hr0.0 mm/hr 0.01 in0.3 mm
01:21 AM 45.3°F7.4°C 45.1°F7.3°C 99% 4.7 mph NNE7.6 kmh NNE 9.2 mph14.8 kmh 29.55 in1000.7 mb 0.00 in0.0 mm 0.00 in/hr0.0 mm/hr 0.01 in0.3 mm
01:20 AM 45.3°F7.4°C 45.1°F7.3°C 99% 4.6 mph N7.4 kmh N 9.2 mph14.8 kmh 29.55 in1000.7 mb 0.00 in0.0 mm 0.00 in/hr0.0 mm/hr 0.01 in0.3 mm
01:19 AM 45.1°F7.3°C 44.9°F7.2°C 99% 4.6 mph N7.4 kmh N 9.2 mph14.8 kmh 29.55 in1000.7 mb 0.00 in0.0 mm 0.00 in/hr0.0 mm/hr 0.01 in0.3 mm
01:18 AM 45.1°F7.3°C 44.9°F7.2°C 99% 4.3 mph N6.9 kmh N 9.2 mph14.8 kmh 29.55 in1000.7 mb 0.00 in0.0 mm 0.00 in/hr0.0 mm/hr 0.01 in0.3 mm
01:17 AM 45.3°F7.4°C 45.1°F7.3°C 99% 4.5 mph N7.2 kmh N 9.2 mph14.8 kmh 29.56 in1001.0 mb 0.00 in0.0 mm 0.00 in/hr0.0 mm/hr 0.01 in0.3 mm
01:16 AM 45.3°F7.4°C 45.1°F7.3°C 99% 4.4 mph N7.1 kmh N 9.2 mph14.8 kmh 29.56 in1001.0 mb 0.00 in0.0 mm 0.00 in/hr0.0 mm/hr 0.01 in0.3 mm
01:15 AM 45.1°F7.3°C 44.9°F7.2°C 99% 4.2 mph N6.8 kmh N 9.2 mph14.8 kmh 29.55 in1000.7 mb 0.00 in0.0 mm 0.00 in/hr0.0 mm/hr 0.01 in0.3 mm
01:14 AM 45.3°F7.4°C 45.1°F7.3°C 99% 4.0 mph N6.4 kmh N 9.2 mph14.8 kmh 29.56 in1001.0 mb 0.00 in0.0 mm 0.00 in/hr0.0 mm/hr 0.01 in0.3 mm
01:13 AM 45.3°F7.4°C 45.1°F7.3°C 99% 3.7 mph N6.0 kmh N 9.2 mph14.8 kmh 29.55 in1000.7 mb 0.00 in0.0 mm 0.00 in/hr0.0 mm/hr 0.01 in0.3 mm
01:12 AM 45.3°F7.4°C 45.1°F7.3°C 99% 3.7 mph N6.0 kmh N 9.2 mph14.8 kmh 29.56 in1001.0 mb 0.00 in0.0 mm 0.00 in/hr0.0 mm/hr 0.01 in0.3 mm
01:11 AM 45.1°F7.3°C 44.9°F7.2°C 99% 3.0 mph NNE4.8 kmh NNE 6.9 mph11.1 kmh 29.55 in1000.7 mb 0.00 in0.0 mm 0.00 in/hr0.0 mm/hr 0.01 in0.3 mm
01:10 AM 45.3°F7.4°C 45.1°F7.3°C 99% 3.0 mph NNE4.8 kmh NNE 6.9 mph11.1 kmh 29.55 in1000.7 mb 0.00 in0.0 mm 0.00 in/hr0.0 mm/hr 0.01 in0.3 mm
01:09 AM 45.3°F7.4°C 45.1°F7.3°C 99% 2.8 mph NE4.5 kmh NE 5.4 mph8.7 kmh 29.55 in1000.7 mb 0.00 in0.0 mm 0.00 in/hr0.0 mm/hr 0.01 in0.3 mm
01:08 AM 45.1°F7.3°C 44.9°F7.2°C 99% 3.0 mph ENE4.8 kmh ENE 5.4 mph8.7 kmh 29.55 in1000.7 mb 0.00 in0.0 mm 0.00 in/hr0.0 mm/hr 0.01 in0.3 mm
01:07 AM 45.1°F7.3°C 44.9°F7.2°C 99% 3.0 mph E4.8 kmh E 5.4 mph8.7 kmh 29.55 in1000.7 mb 0.00 in0.0 mm 0.00 in/hr0.0 mm/hr 0.01 in0.3 mm
01:06 AM 45.1°F7.3°C 44.9°F7.2°C 99% 3.1 mph E5.0 kmh E 5.4 mph8.7 kmh 29.55 in1000.7 mb 0.00 in0.0 mm 0.00 in/hr0.0 mm/hr 0.01 in0.3 mm
01:05 AM 45.0°F7.2°C 44.7°F7.1°C 99% 3.2 mph E5.1 kmh E 5.4 mph8.7 kmh 29.55 in1000.7 mb 0.00 in0.0 mm 0.00 in/hr0.0 mm/hr 0.01 in0.3 mm
01:04 AM 45.1°F7.3°C 44.9°F7.2°C 99% 3.2 mph ENE5.1 kmh ENE 5.4 mph8.7 kmh 29.55 in1000.7 mb 0.00 in0.0 mm 0.00 in/hr0.0 mm/hr 0.01 in0.3 mm
01:03 AM 45.1°F7.3°C 44.9°F7.2°C 99% 3.1 mph ENE5.0 kmh ENE 5.4 mph8.7 kmh 29.55 in1000.7 mb 0.00 in0.0 mm 0.00 in/hr0.0 mm/hr 0.01 in0.3 mm
01:02 AM 45.3°F7.4°C 45.1°F7.3°C 99% 2.8 mph ENE4.5 kmh ENE 4.5 mph7.2 kmh 29.55 in1000.7 mb 0.00 in0.0 mm 0.00 in/hr0.0 mm/hr 0.01 in0.3 mm
01:01 AM 45.0°F7.2°C 44.7°F7.1°C 99% 3.1 mph ENE5.0 kmh ENE 4.5 mph7.2 kmh 29.55 in1000.7 mb 0.00 in0.0 mm 0.00 in/hr0.0 mm/hr 0.01 in0.3 mm
01:00 AM 45.0°F7.2°C 44.7°F7.1°C 99% 3.1 mph E5.0 kmh E 5.4 mph8.7 kmh 29.55 in1000.7 mb 0.00 in0.0 mm 0.00 in/hr0.0 mm/hr 0.01 in0.3 mm
12:59 AM 45.1°F7.3°C 44.9°F7.2°C 99% 3.4 mph ENE5.5 kmh ENE 7.6 mph12.2 kmh 29.55 in1000.7 mb 0.00 in0.0 mm 0.00 in/hr0.0 mm/hr 0.01 in0.3 mm
12:58 AM 45.1°F7.3°C 44.9°F7.2°C 99% 3.5 mph ENE5.6 kmh ENE 7.6 mph12.2 kmh 29.55 in1000.7 mb 0.00 in0.0 mm 0.00 in/hr0.0 mm/hr 0.01 in0.3 mm
12:57 AM 45.0°F7.2°C 44.7°F7.1°C 99% 3.7 mph NE6.0 kmh NE 7.6 mph12.2 kmh 29.55 in1000.7 mb 0.00 in0.0 mm 0.00 in/hr0.0 mm/hr 0.01 in0.3 mm
12:56 AM 45.3°F7.4°C 45.1°F7.3°C 99% 3.8 mph NE6.1 kmh NE 7.6 mph12.2 kmh 29.55 in1000.7 mb 0.00 in0.0 mm 0.00 in/hr0.0 mm/hr 0.01 in0.3 mm
12:55 AM 45.1°F7.3°C 44.9°F7.2°C 99% 4.0 mph NE6.4 kmh NE 7.6 mph12.2 kmh 29.55 in1000.7 mb 0.00 in0.0 mm 0.00 in/hr0.0 mm/hr 0.01 in0.3 mm
12:54 AM 45.1°F7.3°C 44.9°F7.2°C 99% 3.7 mph NE6.0 kmh NE 7.6 mph12.2 kmh 29.55 in1000.7 mb 0.00 in0.0 mm 0.00 in/hr0.0 mm/hr 0.01 in0.3 mm
12:53 AM 45.1°F7.3°C 44.9°F7.2°C 99% 3.9 mph ENE6.3 kmh ENE 7.6 mph12.2 kmh 29.55 in1000.7 mb 0.00 in0.0 mm 0.00 in/hr0.0 mm/hr 0.01 in0.3 mm
12:52 AM 45.1°F7.3°C 44.9°F7.2°C 99% 4.3 mph NE6.9 kmh NE 7.6 mph12.2 kmh 29.55 in1000.7 mb 0.00 in0.0 mm 0.00 in/hr0.0 mm/hr 0.01 in0.3 mm
12:51 AM 45.3°F7.4°C 45.1°F7.3°C 99% 4.2 mph NE6.8 kmh NE 7.6 mph12.2 kmh 29.55 in1000.7 mb 0.00 in0.0 mm 0.00 in/hr0.0 mm/hr 0.01 in0.3 mm
12:50 AM 45.1°F7.3°C 44.9°F7.2°C 99% 4.3 mph NE6.9 kmh NE 9.2 mph14.8 kmh 29.55 in1000.7 mb 0.00 in0.0 mm 0.00 in/hr0.0 mm/hr 0.01 in0.3 mm
12:49 AM 45.1°F7.3°C 44.9°F7.2°C 99% 4.5 mph NE7.2 kmh NE 9.2 mph14.8 kmh 29.55 in1000.7 mb 0.00 in0.0 mm 0.00 in/hr0.0 mm/hr 0.01 in0.3 mm
12:48 AM 45.1°F7.3°C 44.9°F7.2°C 99% 4.5 mph NE7.2 kmh NE 9.2 mph14.8 kmh 29.55 in1000.7 mb 0.00 in0.0 mm 0.00 in/hr0.0 mm/hr 0.01 in0.3 mm
12:47 AM 45.3°F7.4°C 45.1°F7.3°C 99% 4.5 mph NE7.2 kmh NE 9.2 mph14.8 kmh 29.55 in1000.7 mb 0.00 in0.0 mm 0.00 in/hr0.0 mm/hr 0.01 in0.3 mm
12:46 AM 45.1°F7.3°C 44.9°F7.2°C 99% 4.8 mph NE7.7 kmh NE 9.2 mph14.8 kmh 29.55 in1000.7 mb 0.00 in0.0 mm 0.00 in/hr0.0 mm/hr 0.01 in0.3 mm
12:45 AM 45.5°F7.5°C 45.2°F7.3°C 99% 4.6 mph NE7.4 kmh NE 9.2 mph14.8 kmh 29.55 in1000.7 mb 0.00 in0.0 mm 0.00 in/hr0.0 mm/hr 0.01 in0.3 mm
12:44 AM 45.5°F7.5°C 45.2°F7.3°C 99% 4.8 mph NE7.7 kmh NE 9.2 mph14.8 kmh 29.55 in1000.7 mb 0.00 in0.0 mm 0.00 in/hr0.0 mm/hr 0.01 in0.3 mm
12:43 AM 45.3°F7.4°C 45.1°F7.3°C 99% 5.5 mph NE8.9 kmh NE 9.8 mph15.8 kmh 29.55 in1000.7 mb 0.00 in0.0 mm 0.00 in/hr0.0 mm/hr 0.01 in0.3 mm
12:42 AM 45.1°F7.3°C 44.9°F7.2°C 99% 5.5 mph NE8.9 kmh NE 9.8 mph15.8 kmh 29.55 in1000.7 mb 0.00 in0.0 mm 0.00 in/hr0.0 mm/hr 0.01 in0.3 mm
12:41 AM 45.1°F7.3°C 44.9°F7.2°C 99% 5.8 mph NE9.3 kmh NE 9.8 mph15.8 kmh 29.56 in1001.0 mb 0.00 in0.0 mm 0.00 in/hr0.0 mm/hr 0.01 in0.3 mm
12:40 AM 45.3°F7.4°C 45.1°F7.3°C 99% 5.8 mph NE9.3 kmh NE 9.8 mph15.8 kmh 29.55 in1000.7 mb 0.00 in0.0 mm 0.00 in/hr0.0 mm/hr 0.01 in0.3 mm
12:39 AM 45.7°F7.6°C 45.4°F7.4°C 99% 5.3 mph NNE8.5 kmh NNE 9.8 mph15.8 kmh 29.55 in1000.7 mb 0.00 in0.0 mm 0.00 in/hr0.0 mm/hr 0.01 in0.3 mm
12:38 AM 45.1°F7.3°C 44.9°F7.2°C 99% 5.4 mph NNE8.7 kmh NNE 9.8 mph15.8 kmh 29.55 in1000.7 mb 0.00 in0.0 mm 0.00 in/hr0.0 mm/hr 0.01 in0.3 mm
12:37 AM 45.3°F7.4°C 45.1°F7.3°C 99% 5.2 mph NE8.4 kmh NE 9.8 mph15.8 kmh 29.55 in1000.7 mb 0.00 in0.0 mm 0.00 in/hr0.0 mm/hr 0.01 in0.3 mm
12:36 AM 45.1°F7.3°C 44.9°F7.2°C 99% 5.5 mph NE8.9 kmh NE 9.8 mph15.8 kmh 29.55 in1000.7 mb 0.00 in0.0 mm 0.00 in/hr0.0 mm/hr 0.01 in0.3 mm
12:35 AM 45.1°F7.3°C 44.9°F7.2°C 99% 6.0 mph NNE9.7 kmh NNE 9.8 mph15.8 kmh 29.55 in1000.7 mb 0.00 in0.0 mm 0.00 in/hr0.0 mm/hr 0.01 in0.3 mm
12:34 AM 45.1°F7.3°C 44.9°F7.2°C 99% 5.9 mph NNE9.5 kmh NNE 9.8 mph15.8 kmh 29.55 in1000.7 mb 0.00 in0.0 mm 0.00 in/hr0.0 mm/hr 0.01 in0.3 mm
12:33 AM 45.1°F7.3°C 44.9°F7.2°C 99% 5.4 mph NNE8.7 kmh NNE 9.8 mph15.8 kmh 29.55 in1000.7 mb 0.01 in0.3 mm 0.00 in/hr0.0 mm/hr 0.01 in0.3 mm
12:32 AM 45.3°F7.4°C 45.1°F7.3°C 99% 5.2 mph NNE8.4 kmh NNE 9.8 mph15.8 kmh 29.55 in1000.7 mb 0.01 in0.3 mm 0.00 in/hr0.0 mm/hr 0.01 in0.3 mm
12:31 AM 45.3°F7.4°C 45.1°F7.3°C 99% 5.6 mph NNE9.0 kmh NNE 9.8 mph15.8 kmh 29.55 in1000.7 mb 0.01 in0.3 mm 0.00 in/hr0.0 mm/hr 0.01 in0.3 mm
12:30 AM 45.3°F7.4°C 45.1°F7.3°C 99% 6.0 mph NNE9.7 kmh NNE 9.8 mph15.8 kmh 29.55 in1000.7 mb 0.01 in0.3 mm 0.00 in/hr0.0 mm/hr 0.01 in0.3 mm
12:29 AM 45.1°F7.3°C 44.9°F7.2°C 99% 5.9 mph NNE9.5 kmh NNE 9.8 mph15.8 kmh 29.55 in1000.7 mb 0.01 in0.3 mm 0.00 in/hr0.0 mm/hr 0.01 in0.3 mm
12:28 AM 45.3°F7.4°C 45.1°F7.3°C 99% 5.6 mph NNE9.0 kmh NNE 9.8 mph15.8 kmh 29.55 in1000.7 mb 0.01 in0.3 mm 0.00 in/hr0.0 mm/hr 0.01 in0.3 mm
12:27 AM 45.3°F7.4°C 45.1°F7.3°C 99% 5.6 mph NNE9.0 kmh NNE 9.8 mph15.8 kmh 29.55 in1000.7 mb 0.01 in0.3 mm 0.00 in/hr0.0 mm/hr 0.01 in0.3 mm
12:26 AM 45.1°F7.3°C 44.9°F7.2°C 99% 5.1 mph NNE8.2 kmh NNE 9.8 mph15.8 kmh 29.55 in1000.7 mb 0.01 in0.3 mm 0.00 in/hr0.0 mm/hr 0.01 in0.3 mm
12:25 AM 45.1°F7.3°C 44.9°F7.2°C 99% 4.7 mph NNE7.6 kmh NNE 9.8 mph15.8 kmh 29.55 in1000.7 mb 0.01 in0.3 mm 0.00 in/hr0.0 mm/hr 0.01 in0.3 mm
12:24 AM 45.3°F7.4°C 45.1°F7.3°C 99% 5.1 mph NE8.2 kmh NE 9.8 mph15.8 kmh 29.55 in1000.7 mb 0.01 in0.3 mm 0.00 in/hr0.0 mm/hr 0.01 in0.3 mm
12:23 AM 45.0°F7.2°C 44.7°F7.1°C 99% 5.2 mph NE8.4 kmh NE 9.8 mph15.8 kmh 29.54 in1000.3 mb 0.01 in0.3 mm 0.00 in/hr0.0 mm/hr 0.01 in0.3 mm
12:22 AM 45.3°F7.4°C 45.1°F7.3°C 99% 4.8 mph NE7.7 kmh NE 9.8 mph15.8 kmh 29.55 in1000.7 mb 0.01 in0.3 mm 0.00 in/hr0.0 mm/hr 0.01 in0.3 mm
12:21 AM 45.3°F7.4°C 45.1°F7.3°C 99% 4.0 mph NE6.4 kmh NE 9.8 mph15.8 kmh 29.55 in1000.7 mb 0.01 in0.3 mm 0.00 in/hr0.0 mm/hr 0.01 in0.3 mm
12:20 AM 45.0°F7.2°C 44.7°F7.1°C 99% 3.3 mph NE5.3 kmh NE 9.2 mph14.8 kmh 29.54 in1000.3 mb 0.01 in0.3 mm 0.00 in/hr0.0 mm/hr 0.01 in0.3 mm
12:19 AM 45.1°F7.3°C 44.9°F7.2°C 99% 3.6 mph NE5.8 kmh NE 9.8 mph15.8 kmh 29.54 in1000.3 mb 0.01 in0.3 mm 0.00 in/hr0.0 mm/hr 0.01 in0.3 mm
12:18 AM 45.5°F7.5°C 45.2°F7.3°C 99% 4.2 mph NE6.8 kmh NE 9.8 mph15.8 kmh 29.54 in1000.3 mb 0.01 in0.3 mm 0.00 in/hr0.0 mm/hr 0.01 in0.3 mm
12:17 AM 45.1°F7.3°C 44.9°F7.2°C 99% 4.7 mph NE7.6 kmh NE 9.8 mph15.8 kmh 29.55 in1000.7 mb 0.01 in0.3 mm 0.00 in/hr0.0 mm/hr 0.01 in0.3 mm
12:16 AM 45.1°F7.3°C 44.9°F7.2°C 99% 5.1 mph NE8.2 kmh NE 9.8 mph15.8 kmh 29.54 in1000.3 mb 0.01 in0.3 mm 0.00 in/hr0.0 mm/hr 0.01 in0.3 mm
12:15 AM 45.1°F7.3°C 44.9°F7.2°C 99% 4.7 mph NE7.6 kmh NE 9.8 mph15.8 kmh 29.55 in1000.7 mb 0.01 in0.3 mm 0.00 in/hr0.0 mm/hr 0.01 in0.3 mm
12:14 AM 45.0°F7.2°C 44.7°F7.1°C 99% 4.4 mph NE7.1 kmh NE 9.8 mph15.8 kmh 29.54 in1000.3 mb 0.01 in0.3 mm 0.00 in/hr0.0 mm/hr 0.01 in0.3 mm
12:13 AM 45.1°F7.3°C 44.9°F7.2°C 99% 4.2 mph NE6.8 kmh NE 9.8 mph15.8 kmh 29.54 in1000.3 mb 0.01 in0.3 mm 0.00 in/hr0.0 mm/hr 0.01 in0.3 mm
12:12 AM 45.3°F7.4°C 45.1°F7.3°C 99% 4.9 mph NE7.9 kmh NE 9.8 mph15.8 kmh 29.55 in1000.7 mb 0.01 in0.3 mm 0.00 in/hr0.0 mm/hr 0.01 in0.3 mm
12:11 AM 45.1°F7.3°C 44.9°F7.2°C 99% 5.4 mph NE8.7 kmh NE 9.8 mph15.8 kmh 29.55 in1000.7 mb 0.01 in0.3 mm 0.00 in/hr0.0 mm/hr 0.01 in0.3 mm
12:10 AM 45.3°F7.4°C 45.1°F7.3°C 99% 5.5 mph NE8.9 kmh NE 9.8 mph15.8 kmh 29.55 in1000.7 mb 0.01 in0.3 mm 0.00 in/hr0.0 mm/hr 0.01 in0.3 mm
12:09 AM 45.1°F7.3°C 44.9°F7.2°C 99% 5.3 mph NE8.5 kmh NE 9.8 mph15.8 kmh 29.55 in1000.7 mb 0.01 in0.3 mm 0.00 in/hr0.0 mm/hr 0.01 in0.3 mm
12:08 AM 45.3°F7.4°C 45.1°F7.3°C 99% 4.6 mph NE7.4 kmh NE 9.2 mph14.8 kmh 29.55 in1000.7 mb 0.01 in0.3 mm 0.00 in/hr0.0 mm/hr 0.01 in0.3 mm
12:07 AM 45.1°F7.3°C 44.9°F7.2°C 99% 4.0 mph NNE6.4 kmh NNE 9.2 mph14.8 kmh 29.55 in1000.7 mb 0.01 in0.3 mm 0.00 in/hr0.0 mm/hr 0.01 in0.3 mm
12:06 AM 45.1°F7.3°C 44.9°F7.2°C 99% 3.7 mph N6.0 kmh N 9.2 mph14.8 kmh 29.55 in1000.7 mb 0.01 in0.3 mm 0.00 in/hr0.0 mm/hr 0.01 in0.3 mm
12:05 AM 45.3°F7.4°C 45.1°F7.3°C 99% 4.5 mph NNE7.2 kmh NNE 9.2 mph14.8 kmh 29.55 in1000.7 mb 0.01 in0.3 mm 0.00 in/hr0.0 mm/hr 0.01 in0.3 mm
12:04 AM 45.1°F7.3°C 44.9°F7.2°C 99% 5.0 mph NNE8.0 kmh NNE 9.8 mph15.8 kmh 29.55 in1000.7 mb 0.01 in0.3 mm 0.00 in/hr0.0 mm/hr 0.01 in0.3 mm
12:03 AM 45.1°F7.3°C 44.9°F7.2°C 99% 4.9 mph N7.9 kmh N 9.8 mph15.8 kmh 29.55 in1000.7 mb 0.01 in0.3 mm 0.00 in/hr0.0 mm/hr 0.01 in0.3 mm
12:02 AM 45.3°F7.4°C 45.1°F7.3°C 99% 4.7 mph NNE7.6 kmh NNE 9.8 mph15.8 kmh 29.55 in1000.7 mb 0.01 in0.3 mm 0.00 in/hr0.0 mm/hr 0.01 in0.3 mm
12:01 AM 45.1°F7.3°C 44.9°F7.2°C 99% 4.1 mph NE6.6 kmh NE 9.8 mph15.8 kmh 29.54 in1000.3 mb 0.01 in0.3 mm 0.00 in/hr0.0 mm/hr 0.01 in0.3 mm
12:00 AM 45.1°F7.3°C 44.9°F7.2°C 99% 4.0 mph NE6.4 kmh NE 9.8 mph15.8 kmh 29.54 in1000.3 mb 0.01 in0.3 mm 0.00 in/hr0.0 mm/hr 0.01 in0.3 mm